<?xml version="1.0" encoding="UTF-8" standalone="no" ?>
<gpx xmlns="http://www.topografix.com/GPX/1/1" xmlns:xsi="http://www.w3.org/2001/XMLSchema-instance" xsi:schemaLocation="http://www.topografix.com/GPX/1/1 http://www.topografix.com/GPX/1/1/gpx.xsd" version="1.1" creator="VisuGPX - https://www.visugpx.com">
  <metadata>
    <name>sortie saint hilaire</name>
    <desc><![CDATA[sortie cool en club bon on a un peu cherche mais bon attention on a fait les sangliers sur la fin]]></desc>
  </metadata>
  <wpt lat="43.09372" lon="2.31055">
    <ele>169.29</ele>
    <name><![CDATA[LAP001]]></name>
    <desc><![CDATA[LAP001]]></desc>
    <cmt><![CDATA[LAP001]]></cmt>
  </wpt>
  <trk>
    <name><![CDATA[2010-12-09T12:42:41Z]]></name>
    <trkseg>
      <trkpt lat="43.09372" lon="2.31055">
        <ele>169.29</ele>
        <time>2010-12-09T12:42:42Z</time>
      </trkpt>
      <trkpt lat="43.09356" lon="2.3106">
        <ele>169.344</ele>
        <time>2010-12-09T12:42:48Z</time>
      </trkpt>
      <trkpt lat="43.09336" lon="2.31065">
        <ele>169.171</ele>
        <time>2010-12-09T12:42:54Z</time>
      </trkpt>
      <trkpt lat="43.09305" lon="2.31072">
        <ele>168.808</ele>
        <time>2010-12-09T12:43:02Z</time>
      </trkpt>
      <trkpt lat="43.09301" lon="2.31072">
        <ele>168.81</ele>
        <time>2010-12-09T12:43:03Z</time>
      </trkpt>
      <trkpt lat="43.09285" lon="2.31078">
        <ele>168.759</ele>
        <time>2010-12-09T12:43:07Z</time>
      </trkpt>
      <trkpt lat="43.09268" lon="2.31094">
        <ele>168.854</ele>
        <time>2010-12-09T12:43:12Z</time>
      </trkpt>
      <trkpt lat="43.09258" lon="2.31106">
        <ele>168.893</ele>
        <time>2010-12-09T12:43:15Z</time>
      </trkpt>
      <trkpt lat="43.09228" lon="2.31135">
        <ele>168.654</ele>
        <time>2010-12-09T12:43:24Z</time>
      </trkpt>
      <trkpt lat="43.09217" lon="2.31142">
        <ele>168.352</ele>
        <time>2010-12-09T12:43:27Z</time>
      </trkpt>
      <trkpt lat="43.09175" lon="2.31163">
        <ele>170.286</ele>
        <time>2010-12-09T12:43:37Z</time>
      </trkpt>
      <trkpt lat="43.09139" lon="2.31177">
        <ele>169.694</ele>
        <time>2010-12-09T12:43:45Z</time>
      </trkpt>
      <trkpt lat="43.09109" lon="2.31192">
        <ele>169.533</ele>
        <time>2010-12-09T12:43:52Z</time>
      </trkpt>
      <trkpt lat="43.09072" lon="2.31215">
        <ele>169.749</ele>
        <time>2010-12-09T12:44:01Z</time>
      </trkpt>
      <trkpt lat="43.09034" lon="2.31242">
        <ele>169.74</ele>
        <time>2010-12-09T12:44:10Z</time>
      </trkpt>
      <trkpt lat="43.09" lon="2.31261">
        <ele>170.2</ele>
        <time>2010-12-09T12:44:18Z</time>
      </trkpt>
      <trkpt lat="43.08951" lon="2.31283">
        <ele>170.649</ele>
        <time>2010-12-09T12:44:29Z</time>
      </trkpt>
      <trkpt lat="43.08905" lon="2.31301">
        <ele>171.016</ele>
        <time>2010-12-09T12:44:39Z</time>
      </trkpt>
      <trkpt lat="43.08869" lon="2.31318">
        <ele>170.385</ele>
        <time>2010-12-09T12:44:47Z</time>
      </trkpt>
      <trkpt lat="43.08837" lon="2.31348">
        <ele>170.35</ele>
        <time>2010-12-09T12:44:55Z</time>
      </trkpt>
      <trkpt lat="43.08808" lon="2.31385">
        <ele>168.932</ele>
        <time>2010-12-09T12:45:02Z</time>
      </trkpt>
      <trkpt lat="43.08804" lon="2.3139">
        <ele>168.881</ele>
        <time>2010-12-09T12:45:03Z</time>
      </trkpt>
      <trkpt lat="43.08792" lon="2.31425">
        <ele>168.046</ele>
        <time>2010-12-09T12:45:08Z</time>
      </trkpt>
      <trkpt lat="43.0879" lon="2.31432">
        <ele>168.116</ele>
        <time>2010-12-09T12:45:09Z</time>
      </trkpt>
      <trkpt lat="43.08776" lon="2.31476">
        <ele>168.071</ele>
        <time>2010-12-09T12:45:16Z</time>
      </trkpt>
      <trkpt lat="43.08765" lon="2.31507">
        <ele>167.974</ele>
        <time>2010-12-09T12:45:23Z</time>
      </trkpt>
      <trkpt lat="43.08757" lon="2.31522">
        <ele>169.222</ele>
        <time>2010-12-09T12:45:28Z</time>
      </trkpt>
      <trkpt lat="43.08749" lon="2.31538">
        <ele>170.044</ele>
        <time>2010-12-09T12:45:33Z</time>
      </trkpt>
      <trkpt lat="43.08729" lon="2.31571">
        <ele>170.576</ele>
        <time>2010-12-09T12:45:41Z</time>
      </trkpt>
      <trkpt lat="43.08702" lon="2.31614">
        <ele>171.581</ele>
        <time>2010-12-09T12:45:51Z</time>
      </trkpt>
      <trkpt lat="43.08677" lon="2.31658">
        <ele>172.266</ele>
        <time>2010-12-09T12:46:01Z</time>
      </trkpt>
      <trkpt lat="43.08649" lon="2.31711">
        <ele>172.743</ele>
        <time>2010-12-09T12:46:13Z</time>
      </trkpt>
      <trkpt lat="43.08639" lon="2.31745">
        <ele>174.102</ele>
        <time>2010-12-09T12:46:20Z</time>
      </trkpt>
      <trkpt lat="43.08639" lon="2.31788">
        <ele>175.438</ele>
        <time>2010-12-09T12:46:28Z</time>
      </trkpt>
      <trkpt lat="43.08634" lon="2.31816">
        <ele>176.411</ele>
        <time>2010-12-09T12:46:34Z</time>
      </trkpt>
      <trkpt lat="43.08619" lon="2.31848">
        <ele>178.699</ele>
        <time>2010-12-09T12:46:43Z</time>
      </trkpt>
      <trkpt lat="43.08604" lon="2.31883">
        <ele>182.363</ele>
        <time>2010-12-09T12:46:54Z</time>
      </trkpt>
      <trkpt lat="43.08595" lon="2.31916">
        <ele>185.858</ele>
        <time>2010-12-09T12:47:04Z</time>
      </trkpt>
      <trkpt lat="43.08589" lon="2.31944">
        <ele>189.42</ele>
        <time>2010-12-09T12:47:13Z</time>
      </trkpt>
      <trkpt lat="43.08582" lon="2.31972">
        <ele>192.55</ele>
        <time>2010-12-09T12:47:22Z</time>
      </trkpt>
      <trkpt lat="43.08576" lon="2.32004">
        <ele>195.086</ele>
        <time>2010-12-09T12:47:32Z</time>
      </trkpt>
      <trkpt lat="43.0857" lon="2.32033">
        <ele>198.582</ele>
        <time>2010-12-09T12:47:41Z</time>
      </trkpt>
      <trkpt lat="43.08563" lon="2.32064">
        <ele>202.393</ele>
        <time>2010-12-09T12:47:51Z</time>
      </trkpt>
      <trkpt lat="43.08556" lon="2.32092">
        <ele>205.95</ele>
        <time>2010-12-09T12:48:01Z</time>
      </trkpt>
      <trkpt lat="43.08549" lon="2.32118">
        <ele>209.149</ele>
        <time>2010-12-09T12:48:10Z</time>
      </trkpt>
      <trkpt lat="43.08536" lon="2.32149">
        <ele>212.068</ele>
        <time>2010-12-09T12:48:21Z</time>
      </trkpt>
      <trkpt lat="43.08522" lon="2.3218">
        <ele>214.869</ele>
        <time>2010-12-09T12:48:33Z</time>
      </trkpt>
      <trkpt lat="43.08508" lon="2.32195">
        <ele>216.366</ele>
        <time>2010-12-09T12:48:41Z</time>
      </trkpt>
      <trkpt lat="43.08484" lon="2.32209">
        <ele>217.069</ele>
        <time>2010-12-09T12:48:50Z</time>
      </trkpt>
      <trkpt lat="43.08467" lon="2.32229">
        <ele>217.82</ele>
        <time>2010-12-09T12:48:57Z</time>
      </trkpt>
      <trkpt lat="43.08443" lon="2.3226">
        <ele>218.95</ele>
        <time>2010-12-09T12:49:07Z</time>
      </trkpt>
      <trkpt lat="43.08428" lon="2.32287">
        <ele>219.454</ele>
        <time>2010-12-09T12:49:14Z</time>
      </trkpt>
      <trkpt lat="43.08409" lon="2.32324">
        <ele>220.226</ele>
        <time>2010-12-09T12:49:23Z</time>
      </trkpt>
      <trkpt lat="43.08387" lon="2.32367">
        <ele>220.731</ele>
        <time>2010-12-09T12:49:33Z</time>
      </trkpt>
      <trkpt lat="43.08368" lon="2.32404">
        <ele>221.717</ele>
        <time>2010-12-09T12:49:42Z</time>
      </trkpt>
      <trkpt lat="43.08366" lon="2.32409">
        <ele>221.561</ele>
        <time>2010-12-09T12:49:43Z</time>
      </trkpt>
      <trkpt lat="43.08358" lon="2.32453">
        <ele>219.819</ele>
        <time>2010-12-09T12:49:49Z</time>
      </trkpt>
      <trkpt lat="43.08357" lon="2.32526">
        <ele>217.682</ele>
        <time>2010-12-09T12:49:57Z</time>
      </trkpt>
      <trkpt lat="43.08361" lon="2.3257">
        <ele>217.706</ele>
        <time>2010-12-09T12:50:02Z</time>
      </trkpt>
      <trkpt lat="43.08362" lon="2.32618">
        <ele>218.066</ele>
        <time>2010-12-09T12:50:08Z</time>
      </trkpt>
      <trkpt lat="43.08356" lon="2.32684">
        <ele>219.232</ele>
        <time>2010-12-09T12:50:17Z</time>
      </trkpt>
      <trkpt lat="43.08344" lon="2.32741">
        <ele>218.946</ele>
        <time>2010-12-09T12:50:25Z</time>
      </trkpt>
      <trkpt lat="43.08332" lon="2.3279">
        <ele>217.225</ele>
        <time>2010-12-09T12:50:31Z</time>
      </trkpt>
      <trkpt lat="43.08308" lon="2.3284">
        <ele>216.209</ele>
        <time>2010-12-09T12:50:38Z</time>
      </trkpt>
      <trkpt lat="43.08273" lon="2.32875">
        <ele>216.009</ele>
        <time>2010-12-09T12:50:45Z</time>
      </trkpt>
      <trkpt lat="43.08228" lon="2.32908">
        <ele>215.591</ele>
        <time>2010-12-09T12:50:54Z</time>
      </trkpt>
      <trkpt lat="43.08207" lon="2.32927">
        <ele>215.803</ele>
        <time>2010-12-09T12:50:59Z</time>
      </trkpt>
      <trkpt lat="43.08181" lon="2.32961">
        <ele>216.695</ele>
        <time>2010-12-09T12:51:07Z</time>
      </trkpt>
      <trkpt lat="43.0817" lon="2.32964">
        <ele>217.524</ele>
        <time>2010-12-09T12:51:11Z</time>
      </trkpt>
      <trkpt lat="43.08161" lon="2.32963">
        <ele>218.2</ele>
        <time>2010-12-09T12:51:14Z</time>
      </trkpt>
      <trkpt lat="43.08152" lon="2.32972">
        <ele>221.325</ele>
        <time>2010-12-09T12:51:21Z</time>
      </trkpt>
      <trkpt lat="43.08143" lon="2.32978">
        <ele>222.671</ele>
        <time>2010-12-09T12:51:28Z</time>
      </trkpt>
      <trkpt lat="43.08132" lon="2.32986">
        <ele>224.033</ele>
        <time>2010-12-09T12:51:35Z</time>
      </trkpt>
      <trkpt lat="43.08115" lon="2.32997">
        <ele>225.762</ele>
        <time>2010-12-09T12:51:45Z</time>
      </trkpt>
      <trkpt lat="43.081" lon="2.33004">
        <ele>227.078</ele>
        <time>2010-12-09T12:51:53Z</time>
      </trkpt>
      <trkpt lat="43.08081" lon="2.33007">
        <ele>228.395</ele>
        <time>2010-12-09T12:52:02Z</time>
      </trkpt>
      <trkpt lat="43.08065" lon="2.33013">
        <ele>230.806</ele>
        <time>2010-12-09T12:52:10Z</time>
      </trkpt>
      <trkpt lat="43.08046" lon="2.33019">
        <ele>235.164</ele>
        <time>2010-12-09T12:52:19Z</time>
      </trkpt>
      <trkpt lat="43.08026" lon="2.33013">
        <ele>237.512</ele>
        <time>2010-12-09T12:52:28Z</time>
      </trkpt>
      <trkpt lat="43.08015" lon="2.33">
        <ele>238.835</ele>
        <time>2010-12-09T12:52:35Z</time>
      </trkpt>
      <trkpt lat="43.08001" lon="2.32993">
        <ele>239.571</ele>
        <time>2010-12-09T12:52:42Z</time>
      </trkpt>
      <trkpt lat="43.07984" lon="2.32988">
        <ele>241.457</ele>
        <time>2010-12-09T12:52:51Z</time>
      </trkpt>
      <trkpt lat="43.07967" lon="2.32993">
        <ele>243.971</ele>
        <time>2010-12-09T12:53:00Z</time>
      </trkpt>
      <trkpt lat="43.07956" lon="2.33001">
        <ele>246.5</ele>
        <time>2010-12-09T12:53:07Z</time>
      </trkpt>
      <trkpt lat="43.07943" lon="2.33012">
        <ele>249.141</ele>
        <time>2010-12-09T12:53:15Z</time>
      </trkpt>
      <trkpt lat="43.07933" lon="2.33019">
        <ele>250.898</ele>
        <time>2010-12-09T12:53:21Z</time>
      </trkpt>
      <trkpt lat="43.07919" lon="2.33024">
        <ele>253.127</ele>
        <time>2010-12-09T12:53:28Z</time>
      </trkpt>
      <trkpt lat="43.07909" lon="2.33032">
        <ele>254.464</ele>
        <time>2010-12-09T12:53:35Z</time>
      </trkpt>
      <trkpt lat="43.07905" lon="2.33044">
        <ele>256.701</ele>
        <time>2010-12-09T12:53:42Z</time>
      </trkpt>
      <trkpt lat="43.07905" lon="2.33046">
        <ele>256.809</ele>
        <time>2010-12-09T12:53:43Z</time>
      </trkpt>
      <trkpt lat="43.07903" lon="2.33056">
        <ele>258.207</ele>
        <time>2010-12-09T12:53:52Z</time>
      </trkpt>
      <trkpt lat="43.07895" lon="2.33068">
        <ele>260.04</ele>
        <time>2010-12-09T12:54:02Z</time>
      </trkpt>
      <trkpt lat="43.07888" lon="2.33076">
        <ele>261.769</ele>
        <time>2010-12-09T12:54:09Z</time>
      </trkpt>
      <trkpt lat="43.07885" lon="2.33085">
        <ele>262.138</ele>
        <time>2010-12-09T12:54:15Z</time>
      </trkpt>
      <trkpt lat="43.07884" lon="2.33088">
        <ele>262.869</ele>
        <time>2010-12-09T12:54:19Z</time>
      </trkpt>
      <trkpt lat="43.07883" lon="2.33092">
        <ele>263.34</ele>
        <time>2010-12-09T12:54:34Z</time>
      </trkpt>
      <trkpt lat="43.07883" lon="2.33096">
        <ele>264.088</ele>
        <time>2010-12-09T12:54:37Z</time>
      </trkpt>
      <trkpt lat="43.0788" lon="2.33107">
        <ele>266.03</ele>
        <time>2010-12-09T12:54:44Z</time>
      </trkpt>
      <trkpt lat="43.07876" lon="2.33118">
        <ele>267.594</ele>
        <time>2010-12-09T12:54:50Z</time>
      </trkpt>
      <trkpt lat="43.07867" lon="2.33129">
        <ele>270.129</ele>
        <time>2010-12-09T12:54:56Z</time>
      </trkpt>
      <trkpt lat="43.07858" lon="2.33133">
        <ele>272.385</ele>
        <time>2010-12-09T12:55:02Z</time>
      </trkpt>
      <trkpt lat="43.07844" lon="2.33138">
        <ele>274.194</ele>
        <time>2010-12-09T12:55:11Z</time>
      </trkpt>
      <trkpt lat="43.07826" lon="2.33143">
        <ele>277.144</ele>
        <time>2010-12-09T12:55:22Z</time>
      </trkpt>
      <trkpt lat="43.07811" lon="2.33148">
        <ele>279.105</ele>
        <time>2010-12-09T12:55:31Z</time>
      </trkpt>
      <trkpt lat="43.07796" lon="2.33155">
        <ele>281.617</ele>
        <time>2010-12-09T12:55:40Z</time>
      </trkpt>
      <trkpt lat="43.0778" lon="2.33165">
        <ele>283.172</ele>
        <time>2010-12-09T12:55:50Z</time>
      </trkpt>
      <trkpt lat="43.07763" lon="2.33175">
        <ele>283.026</ele>
        <time>2010-12-09T12:55:58Z</time>
      </trkpt>
      <trkpt lat="43.07752" lon="2.33182">
        <ele>282.148</ele>
        <time>2010-12-09T12:56:01Z</time>
      </trkpt>
      <trkpt lat="43.07742" lon="2.33189">
        <ele>281.006</ele>
        <time>2010-12-09T12:56:03Z</time>
      </trkpt>
      <trkpt lat="43.07733" lon="2.33198">
        <ele>279.984</ele>
        <time>2010-12-09T12:56:05Z</time>
      </trkpt>
      <trkpt lat="43.07706" lon="2.33217">
        <ele>278.54</ele>
        <time>2010-12-09T12:56:11Z</time>
      </trkpt>
      <trkpt lat="43.07702" lon="2.3322">
        <ele>279.657</ele>
        <time>2010-12-09T12:56:14Z</time>
      </trkpt>
      <trkpt lat="43.07702" lon="2.3322">
        <ele>279.974</ele>
        <time>2010-12-09T12:56:15Z</time>
      </trkpt>
      <trkpt lat="43.07691" lon="2.33226">
        <ele>280.009</ele>
        <time>2010-12-09T12:57:49Z</time>
      </trkpt>
      <trkpt lat="43.07679" lon="2.33234">
        <ele>280.072</ele>
        <time>2010-12-09T12:57:55Z</time>
      </trkpt>
      <trkpt lat="43.07665" lon="2.33245">
        <ele>280.48</ele>
        <time>2010-12-09T12:58:02Z</time>
      </trkpt>
      <trkpt lat="43.07649" lon="2.33251">
        <ele>281.311</ele>
        <time>2010-12-09T12:58:10Z</time>
      </trkpt>
      <trkpt lat="43.07644" lon="2.33252">
        <ele>281.692</ele>
        <time>2010-12-09T12:58:13Z</time>
      </trkpt>
      <trkpt lat="43.07641" lon="2.33239">
        <ele>280.427</ele>
        <time>2010-12-09T12:58:17Z</time>
      </trkpt>
      <trkpt lat="43.07634" lon="2.33211">
        <ele>275.784</ele>
        <time>2010-12-09T12:58:21Z</time>
      </trkpt>
      <trkpt lat="43.07628" lon="2.33194">
        <ele>273.09</ele>
        <time>2010-12-09T12:58:23Z</time>
      </trkpt>
      <trkpt lat="43.07622" lon="2.33178">
        <ele>271.727</ele>
        <time>2010-12-09T12:58:25Z</time>
      </trkpt>
      <trkpt lat="43.07612" lon="2.33166">
        <ele>269.746</ele>
        <time>2010-12-09T12:58:27Z</time>
      </trkpt>
      <trkpt lat="43.07605" lon="2.33137">
        <ele>267.129</ele>
        <time>2010-12-09T12:58:31Z</time>
      </trkpt>
      <trkpt lat="43.07605" lon="2.33128">
        <ele>265.817</ele>
        <time>2010-12-09T12:58:32Z</time>
      </trkpt>
      <trkpt lat="43.07606" lon="2.33108">
        <ele>263.185</ele>
        <time>2010-12-09T12:58:34Z</time>
      </trkpt>
      <trkpt lat="43.07609" lon="2.33086">
        <ele>259.028</ele>
        <time>2010-12-09T12:58:38Z</time>
      </trkpt>
      <trkpt lat="43.07619" lon="2.33063">
        <ele>256.562</ele>
        <time>2010-12-09T12:58:46Z</time>
      </trkpt>
      <trkpt lat="43.07622" lon="2.33052">
        <ele>255.03</ele>
        <time>2010-12-09T12:58:48Z</time>
      </trkpt>
      <trkpt lat="43.07627" lon="2.33038">
        <ele>253.755</ele>
        <time>2010-12-09T12:58:51Z</time>
      </trkpt>
      <trkpt lat="43.07632" lon="2.3304">
        <ele>254.16</ele>
        <time>2010-12-09T12:58:54Z</time>
      </trkpt>
      <trkpt lat="43.07632" lon="2.33046">
        <ele>255.046</ele>
        <time>2010-12-09T12:58:57Z</time>
      </trkpt>
      <trkpt lat="43.07627" lon="2.33066">
        <ele>258.717</ele>
        <time>2010-12-09T12:59:06Z</time>
      </trkpt>
      <trkpt lat="43.07623" lon="2.33083">
        <ele>260.598</ele>
        <time>2010-12-09T12:59:14Z</time>
      </trkpt>
      <trkpt lat="43.07618" lon="2.33099">
        <ele>262.341</ele>
        <time>2010-12-09T12:59:22Z</time>
      </trkpt>
      <trkpt lat="43.07618" lon="2.33099">
        <ele>262.801</ele>
        <time>2010-12-09T12:59:25Z</time>
      </trkpt>
      <trkpt lat="43.07621" lon="2.33102">
        <ele>262.606</ele>
        <time>2010-12-09T12:59:56Z</time>
      </trkpt>
      <trkpt lat="43.07628" lon="2.33109">
        <ele>263.249</ele>
        <time>2010-12-09T13:00:03Z</time>
      </trkpt>
      <trkpt lat="43.07643" lon="2.33115">
        <ele>262.973</ele>
        <time>2010-12-09T13:00:10Z</time>
      </trkpt>
      <trkpt lat="43.0766" lon="2.33122">
        <ele>261.993</ele>
        <time>2010-12-09T13:00:17Z</time>
      </trkpt>
      <trkpt lat="43.0767" lon="2.33126">
        <ele>262.328</ele>
        <time>2010-12-09T13:00:23Z</time>
      </trkpt>
      <trkpt lat="43.07683" lon="2.33129">
        <ele>262.658</ele>
        <time>2010-12-09T13:00:30Z</time>
      </trkpt>
      <trkpt lat="43.07698" lon="2.33135">
        <ele>265.904</ele>
        <time>2010-12-09T13:00:37Z</time>
      </trkpt>
      <trkpt lat="43.07704" lon="2.33137">
        <ele>267.703</ele>
        <time>2010-12-09T13:00:40Z</time>
      </trkpt>
      <trkpt lat="43.07709" lon="2.33128">
        <ele>269.609</ele>
        <time>2010-12-09T13:00:45Z</time>
      </trkpt>
      <trkpt lat="43.0771" lon="2.33123">
        <ele>269.885</ele>
        <time>2010-12-09T13:00:47Z</time>
      </trkpt>
      <trkpt lat="43.0771" lon="2.33093">
        <ele>268.989</ele>
        <time>2010-12-09T13:00:53Z</time>
      </trkpt>
      <trkpt lat="43.07711" lon="2.33078">
        <ele>267.741</ele>
        <time>2010-12-09T13:00:55Z</time>
      </trkpt>
      <trkpt lat="43.07718" lon="2.3305">
        <ele>266.396</ele>
        <time>2010-12-09T13:01:00Z</time>
      </trkpt>
      <trkpt lat="43.07721" lon="2.33048">
        <ele>266.471</ele>
        <time>2010-12-09T13:01:01Z</time>
      </trkpt>
      <trkpt lat="43.07736" lon="2.33034">
        <ele>266.214</ele>
        <time>2010-12-09T13:01:08Z</time>
      </trkpt>
      <trkpt lat="43.07736" lon="2.33034">
        <ele>266.153</ele>
        <time>2010-12-09T13:01:09Z</time>
      </trkpt>
      <trkpt lat="43.07745" lon="2.33024">
        <ele>266.203</ele>
        <time>2010-12-09T13:01:31Z</time>
      </trkpt>
      <trkpt lat="43.07767" lon="2.33013">
        <ele>265.878</ele>
        <time>2010-12-09T13:01:38Z</time>
      </trkpt>
      <trkpt lat="43.07783" lon="2.33023">
        <ele>265.27</ele>
        <time>2010-12-09T13:01:43Z</time>
      </trkpt>
      <trkpt lat="43.07792" lon="2.33039">
        <ele>264.537</ele>
        <time>2010-12-09T13:01:46Z</time>
      </trkpt>
      <trkpt lat="43.07813" lon="2.33063">
        <ele>262.897</ele>
        <time>2010-12-09T13:01:51Z</time>
      </trkpt>
      <trkpt lat="43.07835" lon="2.33075">
        <ele>261.897</ele>
        <time>2010-12-09T13:01:55Z</time>
      </trkpt>
      <trkpt lat="43.07867" lon="2.33083">
        <ele>260.71</ele>
        <time>2010-12-09T13:02:00Z</time>
      </trkpt>
      <trkpt lat="43.07885" lon="2.3308">
        <ele>260.938</ele>
        <time>2010-12-09T13:02:04Z</time>
      </trkpt>
      <trkpt lat="43.07888" lon="2.33076">
        <ele>261.157</ele>
        <time>2010-12-09T13:02:05Z</time>
      </trkpt>
      <trkpt lat="43.07903" lon="2.33057">
        <ele>258.682</ele>
        <time>2010-12-09T13:02:11Z</time>
      </trkpt>
      <trkpt lat="43.07904" lon="2.33056">
        <ele>258.682</ele>
        <time>2010-12-09T13:02:12Z</time>
      </trkpt>
      <trkpt lat="43.07905" lon="2.33055">
        <ele>258.051</ele>
        <time>2010-12-09T13:02:13Z</time>
      </trkpt>
      <trkpt lat="43.07914" lon="2.33055">
        <ele>256.487</ele>
        <time>2010-12-09T13:02:18Z</time>
      </trkpt>
      <trkpt lat="43.07917" lon="2.33055">
        <ele>256.001</ele>
        <time>2010-12-09T13:02:20Z</time>
      </trkpt>
      <trkpt lat="43.07917" lon="2.33061">
        <ele>255.612</ele>
        <time>2010-12-09T13:02:24Z</time>
      </trkpt>
      <trkpt lat="43.07913" lon="2.3306">
        <ele>255.822</ele>
        <time>2010-12-09T13:02:27Z</time>
      </trkpt>
      <trkpt lat="43.07907" lon="2.33055">
        <ele>256.037</ele>
        <time>2010-12-09T13:02:32Z</time>
      </trkpt>
      <trkpt lat="43.07906" lon="2.33055">
        <ele>256.184</ele>
        <time>2010-12-09T13:02:33Z</time>
      </trkpt>
      <trkpt lat="43.07898" lon="2.33065">
        <ele>257.095</ele>
        <time>2010-12-09T13:02:39Z</time>
      </trkpt>
      <trkpt lat="43.07894" lon="2.3307">
        <ele>258.165</ele>
        <time>2010-12-09T13:02:42Z</time>
      </trkpt>
      <trkpt lat="43.07884" lon="2.33078">
        <ele>260.544</ele>
        <time>2010-12-09T13:02:49Z</time>
      </trkpt>
      <trkpt lat="43.07884" lon="2.33079">
        <ele>260.946</ele>
        <time>2010-12-09T13:02:51Z</time>
      </trkpt>
      <trkpt lat="43.07878" lon="2.33105">
        <ele>263.713</ele>
        <time>2010-12-09T13:05:05Z</time>
      </trkpt>
      <trkpt lat="43.07872" lon="2.33122">
        <ele>266.484</ele>
        <time>2010-12-09T13:05:12Z</time>
      </trkpt>
      <trkpt lat="43.07861" lon="2.33135">
        <ele>269.535</ele>
        <time>2010-12-09T13:05:19Z</time>
      </trkpt>
      <trkpt lat="43.07845" lon="2.33141">
        <ele>273.005</ele>
        <time>2010-12-09T13:05:27Z</time>
      </trkpt>
      <trkpt lat="43.07831" lon="2.33145">
        <ele>275.388</ele>
        <time>2010-12-09T13:05:34Z</time>
      </trkpt>
      <trkpt lat="43.07817" lon="2.33148">
        <ele>277.78</ele>
        <time>2010-12-09T13:05:41Z</time>
      </trkpt>
      <trkpt lat="43.07802" lon="2.33153">
        <ele>279.783</ele>
        <time>2010-12-09T13:05:48Z</time>
      </trkpt>
      <trkpt lat="43.07785" lon="2.33162">
        <ele>281.537</ele>
        <time>2010-12-09T13:05:57Z</time>
      </trkpt>
      <trkpt lat="43.07766" lon="2.33172">
        <ele>282.347</ele>
        <time>2010-12-09T13:06:06Z</time>
      </trkpt>
      <trkpt lat="43.07749" lon="2.33183">
        <ele>281.987</ele>
        <time>2010-12-09T13:06:11Z</time>
      </trkpt>
      <trkpt lat="43.07744" lon="2.33186">
        <ele>281.698</ele>
        <time>2010-12-09T13:06:12Z</time>
      </trkpt>
      <trkpt lat="43.07709" lon="2.33214">
        <ele>279.577</ele>
        <time>2010-12-09T13:06:19Z</time>
      </trkpt>
      <trkpt lat="43.07694" lon="2.33226">
        <ele>279.06</ele>
        <time>2010-12-09T13:06:23Z</time>
      </trkpt>
      <trkpt lat="43.07673" lon="2.33241">
        <ele>279.503</ele>
        <time>2010-12-09T13:06:30Z</time>
      </trkpt>
      <trkpt lat="43.07651" lon="2.33252">
        <ele>280.348</ele>
        <time>2010-12-09T13:06:37Z</time>
      </trkpt>
      <trkpt lat="43.07633" lon="2.3326">
        <ele>281.444</ele>
        <time>2010-12-09T13:06:44Z</time>
      </trkpt>
      <trkpt lat="43.07616" lon="2.3327">
        <ele>283.157</ele>
        <time>2010-12-09T13:06:52Z</time>
      </trkpt>
      <trkpt lat="43.07596" lon="2.33279">
        <ele>285.443</ele>
        <time>2010-12-09T13:07:01Z</time>
      </trkpt>
      <trkpt lat="43.07582" lon="2.33287">
        <ele>287.997</ele>
        <time>2010-12-09T13:07:09Z</time>
      </trkpt>
      <trkpt lat="43.07568" lon="2.33299">
        <ele>290.023</ele>
        <time>2010-12-09T13:07:17Z</time>
      </trkpt>
      <trkpt lat="43.07554" lon="2.3331">
        <ele>292.85</ele>
        <time>2010-12-09T13:07:25Z</time>
      </trkpt>
      <trkpt lat="43.07538" lon="2.33315">
        <ele>296.418</ele>
        <time>2010-12-09T13:07:33Z</time>
      </trkpt>
      <trkpt lat="43.07524" lon="2.3332">
        <ele>298.967</ele>
        <time>2010-12-09T13:07:40Z</time>
      </trkpt>
      <trkpt lat="43.07514" lon="2.33328">
        <ele>299.548</ele>
        <time>2010-12-09T13:07:47Z</time>
      </trkpt>
      <trkpt lat="43.07501" lon="2.3334">
        <ele>299.152</ele>
        <time>2010-12-09T13:07:51Z</time>
      </trkpt>
      <trkpt lat="43.07484" lon="2.3336">
        <ele>297.416</ele>
        <time>2010-12-09T13:07:55Z</time>
      </trkpt>
      <trkpt lat="43.07464" lon="2.33373">
        <ele>295.893</ele>
        <time>2010-12-09T13:07:59Z</time>
      </trkpt>
      <trkpt lat="43.07448" lon="2.33377">
        <ele>294.689</ele>
        <time>2010-12-09T13:08:04Z</time>
      </trkpt>
      <trkpt lat="43.07441" lon="2.33379">
        <ele>294.588</ele>
        <time>2010-12-09T13:08:07Z</time>
      </trkpt>
      <trkpt lat="43.07425" lon="2.3338">
        <ele>295.15</ele>
        <time>2010-12-09T13:08:14Z</time>
      </trkpt>
      <trkpt lat="43.07408" lon="2.33377">
        <ele>295.355</ele>
        <time>2010-12-09T13:08:21Z</time>
      </trkpt>
      <trkpt lat="43.07407" lon="2.33378">
        <ele>296.186</ele>
        <time>2010-12-09T13:08:23Z</time>
      </trkpt>
      <trkpt lat="43.07403" lon="2.3338">
        <ele>297.111</ele>
        <time>2010-12-09T13:08:33Z</time>
      </trkpt>
      <trkpt lat="43.07387" lon="2.33382">
        <ele>298.327</ele>
        <time>2010-12-09T13:08:39Z</time>
      </trkpt>
      <trkpt lat="43.07374" lon="2.33391">
        <ele>299.764</ele>
        <time>2010-12-09T13:08:45Z</time>
      </trkpt>
      <trkpt lat="43.07363" lon="2.33406">
        <ele>300.825</ele>
        <time>2010-12-09T13:08:51Z</time>
      </trkpt>
      <trkpt lat="43.07353" lon="2.33431">
        <ele>302.293</ele>
        <time>2010-12-09T13:08:59Z</time>
      </trkpt>
      <trkpt lat="43.07344" lon="2.3345">
        <ele>303.708</ele>
        <time>2010-12-09T13:09:05Z</time>
      </trkpt>
      <trkpt lat="43.07333" lon="2.33463">
        <ele>304.89</ele>
        <time>2010-12-09T13:09:11Z</time>
      </trkpt>
      <trkpt lat="43.0732" lon="2.33476">
        <ele>307.06</ele>
        <time>2010-12-09T13:09:18Z</time>
      </trkpt>
      <trkpt lat="43.073" lon="2.33492">
        <ele>309.314</ele>
        <time>2010-12-09T13:09:29Z</time>
      </trkpt>
      <trkpt lat="43.07286" lon="2.33506">
        <ele>311.135</ele>
        <time>2010-12-09T13:09:37Z</time>
      </trkpt>
      <trkpt lat="43.07271" lon="2.33518">
        <ele>312.69</ele>
        <time>2010-12-09T13:09:45Z</time>
      </trkpt>
      <trkpt lat="43.07254" lon="2.33527">
        <ele>314.29</ele>
        <time>2010-12-09T13:09:53Z</time>
      </trkpt>
      <trkpt lat="43.07239" lon="2.3353">
        <ele>315.627</ele>
        <time>2010-12-09T13:10:00Z</time>
      </trkpt>
      <trkpt lat="43.07221" lon="2.33542">
        <ele>316.609</ele>
        <time>2010-12-09T13:10:08Z</time>
      </trkpt>
      <trkpt lat="43.07204" lon="2.33559">
        <ele>317.653</ele>
        <time>2010-12-09T13:10:17Z</time>
      </trkpt>
      <trkpt lat="43.07192" lon="2.33566">
        <ele>318.239</ele>
        <time>2010-12-09T13:10:23Z</time>
      </trkpt>
      <trkpt lat="43.07179" lon="2.33575">
        <ele>319.824</ele>
        <time>2010-12-09T13:10:30Z</time>
      </trkpt>
      <trkpt lat="43.07171" lon="2.33588">
        <ele>320.172</ele>
        <time>2010-12-09T13:10:35Z</time>
      </trkpt>
      <trkpt lat="43.07167" lon="2.33598">
        <ele>320.07</ele>
        <time>2010-12-09T13:10:40Z</time>
      </trkpt>
      <trkpt lat="43.07156" lon="2.33612">
        <ele>320.622</ele>
        <time>2010-12-09T13:10:45Z</time>
      </trkpt>
      <trkpt lat="43.0714" lon="2.33633">
        <ele>321.047</ele>
        <time>2010-12-09T13:10:53Z</time>
      </trkpt>
      <trkpt lat="43.07129" lon="2.33655">
        <ele>322.036</ele>
        <time>2010-12-09T13:11:01Z</time>
      </trkpt>
      <trkpt lat="43.07115" lon="2.33674">
        <ele>322.781</ele>
        <time>2010-12-09T13:11:08Z</time>
      </trkpt>
      <trkpt lat="43.07094" lon="2.3369">
        <ele>323.421</ele>
        <time>2010-12-09T13:11:16Z</time>
      </trkpt>
      <trkpt lat="43.07073" lon="2.33704">
        <ele>324.25</ele>
        <time>2010-12-09T13:11:24Z</time>
      </trkpt>
      <trkpt lat="43.07048" lon="2.33713">
        <ele>325.233</ele>
        <time>2010-12-09T13:11:33Z</time>
      </trkpt>
      <trkpt lat="43.07035" lon="2.33719">
        <ele>326.561</ele>
        <time>2010-12-09T13:11:38Z</time>
      </trkpt>
      <trkpt lat="43.07018" lon="2.3373">
        <ele>328.422</ele>
        <time>2010-12-09T13:11:46Z</time>
      </trkpt>
      <trkpt lat="43.07005" lon="2.33735">
        <ele>329.837</ele>
        <time>2010-12-09T13:11:52Z</time>
      </trkpt>
      <trkpt lat="43.06987" lon="2.33736">
        <ele>331.95</ele>
        <time>2010-12-09T13:12:00Z</time>
      </trkpt>
      <trkpt lat="43.0697" lon="2.33737">
        <ele>333.681</ele>
        <time>2010-12-09T13:12:09Z</time>
      </trkpt>
      <trkpt lat="43.06961" lon="2.33738">
        <ele>334.493</ele>
        <time>2010-12-09T13:12:15Z</time>
      </trkpt>
      <trkpt lat="43.06946" lon="2.33734">
        <ele>336.001</ele>
        <time>2010-12-09T13:12:23Z</time>
      </trkpt>
      <trkpt lat="43.06933" lon="2.3374">
        <ele>337.202</ele>
        <time>2010-12-09T13:12:31Z</time>
      </trkpt>
      <trkpt lat="43.0692" lon="2.33746">
        <ele>338.812</ele>
        <time>2010-12-09T13:12:38Z</time>
      </trkpt>
      <trkpt lat="43.06908" lon="2.33753">
        <ele>340.338</ele>
        <time>2010-12-09T13:12:45Z</time>
      </trkpt>
      <trkpt lat="43.06894" lon="2.33765">
        <ele>341.613</ele>
        <time>2010-12-09T13:12:53Z</time>
      </trkpt>
      <trkpt lat="43.06877" lon="2.33775">
        <ele>343.693</ele>
        <time>2010-12-09T13:13:02Z</time>
      </trkpt>
      <trkpt lat="43.06857" lon="2.33786">
        <ele>345.832</ele>
        <time>2010-12-09T13:13:12Z</time>
      </trkpt>
      <trkpt lat="43.06843" lon="2.33797">
        <ele>347.791</ele>
        <time>2010-12-09T13:13:20Z</time>
      </trkpt>
      <trkpt lat="43.06825" lon="2.33809">
        <ele>349.8</ele>
        <time>2010-12-09T13:13:30Z</time>
      </trkpt>
      <trkpt lat="43.06804" lon="2.33821">
        <ele>352.193</ele>
        <time>2010-12-09T13:13:41Z</time>
      </trkpt>
      <trkpt lat="43.06783" lon="2.33825">
        <ele>353.88</ele>
        <time>2010-12-09T13:13:51Z</time>
      </trkpt>
      <trkpt lat="43.06772" lon="2.33821">
        <ele>355.033</ele>
        <time>2010-12-09T13:13:57Z</time>
      </trkpt>
      <trkpt lat="43.06756" lon="2.33814">
        <ele>357.227</ele>
        <time>2010-12-09T13:14:06Z</time>
      </trkpt>
      <trkpt lat="43.0674" lon="2.33812">
        <ele>358.447</ele>
        <time>2010-12-09T13:14:14Z</time>
      </trkpt>
      <trkpt lat="43.06724" lon="2.33809">
        <ele>360.223</ele>
        <time>2010-12-09T13:14:22Z</time>
      </trkpt>
      <trkpt lat="43.0671" lon="2.33814">
        <ele>361.596</ele>
        <time>2010-12-09T13:14:29Z</time>
      </trkpt>
      <trkpt lat="43.06694" lon="2.3382">
        <ele>363.623</ele>
        <time>2010-12-09T13:14:37Z</time>
      </trkpt>
      <trkpt lat="43.06676" lon="2.33828">
        <ele>365.265</ele>
        <time>2010-12-09T13:14:46Z</time>
      </trkpt>
      <trkpt lat="43.06659" lon="2.33836">
        <ele>366.741</ele>
        <time>2010-12-09T13:14:55Z</time>
      </trkpt>
      <trkpt lat="43.06644" lon="2.33846">
        <ele>368.522</ele>
        <time>2010-12-09T13:15:03Z</time>
      </trkpt>
      <trkpt lat="43.06631" lon="2.33857">
        <ele>370.608</ele>
        <time>2010-12-09T13:15:11Z</time>
      </trkpt>
      <trkpt lat="43.06612" lon="2.33865">
        <ele>372.067</ele>
        <time>2010-12-09T13:15:20Z</time>
      </trkpt>
      <trkpt lat="43.06596" lon="2.33871">
        <ele>374.106</ele>
        <time>2010-12-09T13:15:28Z</time>
      </trkpt>
      <trkpt lat="43.06577" lon="2.33884">
        <ele>376.621</ele>
        <time>2010-12-09T13:15:37Z</time>
      </trkpt>
      <trkpt lat="43.06565" lon="2.33902">
        <ele>378.065</ele>
        <time>2010-12-09T13:15:46Z</time>
      </trkpt>
      <trkpt lat="43.06553" lon="2.33915">
        <ele>379.383</ele>
        <time>2010-12-09T13:15:53Z</time>
      </trkpt>
      <trkpt lat="43.06542" lon="2.3393">
        <ele>381.406</ele>
        <time>2010-12-09T13:16:01Z</time>
      </trkpt>
      <trkpt lat="43.06531" lon="2.33938">
        <ele>382.868</ele>
        <time>2010-12-09T13:16:07Z</time>
      </trkpt>
      <trkpt lat="43.06518" lon="2.33945">
        <ele>384.488</ele>
        <time>2010-12-09T13:16:14Z</time>
      </trkpt>
      <trkpt lat="43.065" lon="2.33952">
        <ele>385.818</ele>
        <time>2010-12-09T13:16:23Z</time>
      </trkpt>
      <trkpt lat="43.06494" lon="2.33954">
        <ele>386.486</ele>
        <time>2010-12-09T13:16:26Z</time>
      </trkpt>
      <trkpt lat="43.06482" lon="2.33963">
        <ele>387.938</ele>
        <time>2010-12-09T13:16:33Z</time>
      </trkpt>
      <trkpt lat="43.06467" lon="2.33975">
        <ele>390.045</ele>
        <time>2010-12-09T13:16:42Z</time>
      </trkpt>
      <trkpt lat="43.06454" lon="2.33983">
        <ele>391.184</ele>
        <time>2010-12-09T13:16:49Z</time>
      </trkpt>
      <trkpt lat="43.06441" lon="2.33991">
        <ele>392.128</ele>
        <time>2010-12-09T13:16:56Z</time>
      </trkpt>
      <trkpt lat="43.06426" lon="2.34005">
        <ele>392.665</ele>
        <time>2010-12-09T13:17:04Z</time>
      </trkpt>
      <trkpt lat="43.06413" lon="2.34021">
        <ele>393.913</ele>
        <time>2010-12-09T13:17:12Z</time>
      </trkpt>
      <trkpt lat="43.06404" lon="2.34034">
        <ele>395.107</ele>
        <time>2010-12-09T13:17:19Z</time>
      </trkpt>
      <trkpt lat="43.06392" lon="2.34047">
        <ele>396.292</ele>
        <time>2010-12-09T13:17:26Z</time>
      </trkpt>
      <trkpt lat="43.06378" lon="2.34062">
        <ele>397.156</ele>
        <time>2010-12-09T13:17:34Z</time>
      </trkpt>
      <trkpt lat="43.06369" lon="2.34073">
        <ele>398.311</ele>
        <time>2010-12-09T13:17:40Z</time>
      </trkpt>
      <trkpt lat="43.06359" lon="2.34088">
        <ele>399.758</ele>
        <time>2010-12-09T13:17:47Z</time>
      </trkpt>
      <trkpt lat="43.06345" lon="2.34103">
        <ele>401.24</ele>
        <time>2010-12-09T13:17:56Z</time>
      </trkpt>
      <trkpt lat="43.06333" lon="2.34116">
        <ele>402.66</ele>
        <time>2010-12-09T13:18:04Z</time>
      </trkpt>
      <trkpt lat="43.06319" lon="2.34129">
        <ele>403.947</ele>
        <time>2010-12-09T13:18:12Z</time>
      </trkpt>
      <trkpt lat="43.06307" lon="2.34141">
        <ele>405.531</ele>
        <time>2010-12-09T13:18:19Z</time>
      </trkpt>
      <trkpt lat="43.06294" lon="2.34147">
        <ele>407.563</ele>
        <time>2010-12-09T13:18:26Z</time>
      </trkpt>
      <trkpt lat="43.06287" lon="2.3414">
        <ele>408.157</ele>
        <time>2010-12-09T13:18:32Z</time>
      </trkpt>
      <trkpt lat="43.06286" lon="2.34138">
        <ele>408.244</ele>
        <time>2010-12-09T13:18:34Z</time>
      </trkpt>
      <trkpt lat="43.06285" lon="2.34125">
        <ele>407.766</ele>
        <time>2010-12-09T13:18:40Z</time>
      </trkpt>
      <trkpt lat="43.06284" lon="2.34102">
        <ele>407.474</ele>
        <time>2010-12-09T13:18:47Z</time>
      </trkpt>
      <trkpt lat="43.06283" lon="2.34079">
        <ele>406.552</ele>
        <time>2010-12-09T13:18:52Z</time>
      </trkpt>
      <trkpt lat="43.06281" lon="2.34047">
        <ele>404.657</ele>
        <time>2010-12-09T13:18:58Z</time>
      </trkpt>
      <trkpt lat="43.06282" lon="2.34035">
        <ele>403.708</ele>
        <time>2010-12-09T13:19:00Z</time>
      </trkpt>
      <trkpt lat="43.06282" lon="2.34006">
        <ele>402.583</ele>
        <time>2010-12-09T13:19:05Z</time>
      </trkpt>
      <trkpt lat="43.06279" lon="2.33984">
        <ele>400.773</ele>
        <time>2010-12-09T13:19:09Z</time>
      </trkpt>
      <trkpt lat="43.0628" lon="2.33962">
        <ele>397.966</ele>
        <time>2010-12-09T13:19:14Z</time>
      </trkpt>
      <trkpt lat="43.06273" lon="2.33956">
        <ele>396.507</ele>
        <time>2010-12-09T13:19:17Z</time>
      </trkpt>
      <trkpt lat="43.06268" lon="2.33958">
        <ele>395.78</ele>
        <time>2010-12-09T13:19:19Z</time>
      </trkpt>
      <trkpt lat="43.06258" lon="2.33962">
        <ele>394.551</ele>
        <time>2010-12-09T13:19:23Z</time>
      </trkpt>
      <trkpt lat="43.06254" lon="2.33954">
        <ele>394.133</ele>
        <time>2010-12-09T13:19:27Z</time>
      </trkpt>
      <trkpt lat="43.06255" lon="2.33923">
        <ele>393.708</ele>
        <time>2010-12-09T13:19:36Z</time>
      </trkpt>
      <trkpt lat="43.06258" lon="2.33897">
        <ele>392.738</ele>
        <time>2010-12-09T13:19:42Z</time>
      </trkpt>
      <trkpt lat="43.06264" lon="2.3388">
        <ele>391.308</ele>
        <time>2010-12-09T13:19:46Z</time>
      </trkpt>
      <trkpt lat="43.06273" lon="2.33864">
        <ele>390.399</ele>
        <time>2010-12-09T13:19:50Z</time>
      </trkpt>
      <trkpt lat="43.06284" lon="2.33838">
        <ele>389.313</ele>
        <time>2010-12-09T13:19:55Z</time>
      </trkpt>
      <trkpt lat="43.06296" lon="2.338">
        <ele>386.41</ele>
        <time>2010-12-09T13:20:00Z</time>
      </trkpt>
      <trkpt lat="43.06309" lon="2.33755">
        <ele>383.658</ele>
        <time>2010-12-09T13:20:05Z</time>
      </trkpt>
      <trkpt lat="43.06318" lon="2.33702">
        <ele>381.465</ele>
        <time>2010-12-09T13:20:11Z</time>
      </trkpt>
      <trkpt lat="43.06325" lon="2.3367">
        <ele>379.718</ele>
        <time>2010-12-09T13:20:15Z</time>
      </trkpt>
      <trkpt lat="43.06335" lon="2.33627">
        <ele>376.651</ele>
        <time>2010-12-09T13:20:20Z</time>
      </trkpt>
      <trkpt lat="43.06335" lon="2.33598">
        <ele>375.956</ele>
        <time>2010-12-09T13:20:23Z</time>
      </trkpt>
      <trkpt lat="43.06336" lon="2.33578">
        <ele>374.553</ele>
        <time>2010-12-09T13:20:25Z</time>
      </trkpt>
      <trkpt lat="43.06351" lon="2.33531">
        <ele>370.772</ele>
        <time>2010-12-09T13:20:30Z</time>
      </trkpt>
      <trkpt lat="43.06363" lon="2.33483">
        <ele>367.228</ele>
        <time>2010-12-09T13:20:35Z</time>
      </trkpt>
      <trkpt lat="43.06371" lon="2.33453">
        <ele>364.604</ele>
        <time>2010-12-09T13:20:38Z</time>
      </trkpt>
      <trkpt lat="43.06395" lon="2.33417">
        <ele>360.247</ele>
        <time>2010-12-09T13:20:43Z</time>
      </trkpt>
      <trkpt lat="43.06405" lon="2.33404">
        <ele>359.129</ele>
        <time>2010-12-09T13:20:45Z</time>
      </trkpt>
      <trkpt lat="43.06436" lon="2.33359">
        <ele>351.984</ele>
        <time>2010-12-09T13:20:51Z</time>
      </trkpt>
      <trkpt lat="43.06453" lon="2.33328">
        <ele>345.802</ele>
        <time>2010-12-09T13:20:56Z</time>
      </trkpt>
      <trkpt lat="43.06462" lon="2.33307">
        <ele>342.434</ele>
        <time>2010-12-09T13:21:01Z</time>
      </trkpt>
      <trkpt lat="43.06467" lon="2.33297">
        <ele>338.884</ele>
        <time>2010-12-09T13:21:06Z</time>
      </trkpt>
      <trkpt lat="43.06467" lon="2.33297">
        <ele>338.543</ele>
        <time>2010-12-09T13:21:07Z</time>
      </trkpt>
      <trkpt lat="43.06472" lon="2.33284">
        <ele>338.25</ele>
        <time>2010-12-09T13:21:16Z</time>
      </trkpt>
      <trkpt lat="43.06481" lon="2.33264">
        <ele>335.662</ele>
        <time>2010-12-09T13:21:22Z</time>
      </trkpt>
      <trkpt lat="43.06483" lon="2.3326">
        <ele>333.873</ele>
        <time>2010-12-09T13:21:25Z</time>
      </trkpt>
      <trkpt lat="43.06486" lon="2.33258">
        <ele>333.623</ele>
        <time>2010-12-09T13:22:37Z</time>
      </trkpt>
      <trkpt lat="43.06498" lon="2.33232">
        <ele>331.822</ele>
        <time>2010-12-09T13:22:44Z</time>
      </trkpt>
      <trkpt lat="43.06509" lon="2.33212">
        <ele>329.919</ele>
        <time>2010-12-09T13:22:48Z</time>
      </trkpt>
      <trkpt lat="43.06517" lon="2.33185">
        <ele>328.011</ele>
        <time>2010-12-09T13:22:53Z</time>
      </trkpt>
      <trkpt lat="43.06518" lon="2.33181">
        <ele>327.603</ele>
        <time>2010-12-09T13:22:54Z</time>
      </trkpt>
      <trkpt lat="43.06525" lon="2.33159">
        <ele>324.167</ele>
        <time>2010-12-09T13:22:59Z</time>
      </trkpt>
      <trkpt lat="43.0653" lon="2.33128">
        <ele>321.65</ele>
        <time>2010-12-09T13:23:04Z</time>
      </trkpt>
      <trkpt lat="43.0654" lon="2.33099">
        <ele>318.92</ele>
        <time>2010-12-09T13:23:09Z</time>
      </trkpt>
      <trkpt lat="43.0655" lon="2.3308">
        <ele>316.978</ele>
        <time>2010-12-09T13:23:12Z</time>
      </trkpt>
      <trkpt lat="43.06561" lon="2.33057">
        <ele>313.659</ele>
        <time>2010-12-09T13:23:16Z</time>
      </trkpt>
      <trkpt lat="43.06561" lon="2.3305">
        <ele>311.243</ele>
        <time>2010-12-09T13:23:18Z</time>
      </trkpt>
      <trkpt lat="43.06552" lon="2.33045">
        <ele>308.945</ele>
        <time>2010-12-09T13:23:22Z</time>
      </trkpt>
      <trkpt lat="43.06544" lon="2.33038">
        <ele>308.207</ele>
        <time>2010-12-09T13:23:25Z</time>
      </trkpt>
      <trkpt lat="43.0654" lon="2.33032">
        <ele>307.85</ele>
        <time>2010-12-09T13:23:27Z</time>
      </trkpt>
      <trkpt lat="43.06522" lon="2.33004">
        <ele>304.926</ele>
        <time>2010-12-09T13:23:33Z</time>
      </trkpt>
      <trkpt lat="43.06519" lon="2.32999">
        <ele>304.097</ele>
        <time>2010-12-09T13:23:34Z</time>
      </trkpt>
      <trkpt lat="43.065" lon="2.32981">
        <ele>301.308</ele>
        <time>2010-12-09T13:23:38Z</time>
      </trkpt>
      <trkpt lat="43.06483" lon="2.32964">
        <ele>300.067</ele>
        <time>2010-12-09T13:23:41Z</time>
      </trkpt>
      <trkpt lat="43.06472" lon="2.32954">
        <ele>298.62</ele>
        <time>2010-12-09T13:23:43Z</time>
      </trkpt>
      <trkpt lat="43.0646" lon="2.32948">
        <ele>298.005</ele>
        <time>2010-12-09T13:23:45Z</time>
      </trkpt>
      <trkpt lat="43.06444" lon="2.32931">
        <ele>296.057</ele>
        <time>2010-12-09T13:23:49Z</time>
      </trkpt>
      <trkpt lat="43.0644" lon="2.32918">
        <ele>295.219</ele>
        <time>2010-12-09T13:23:54Z</time>
      </trkpt>
      <trkpt lat="43.06439" lon="2.32902">
        <ele>294.529</ele>
        <time>2010-12-09T13:24:00Z</time>
      </trkpt>
      <trkpt lat="43.06445" lon="2.32879">
        <ele>293.602</ele>
        <time>2010-12-09T13:24:05Z</time>
      </trkpt>
      <trkpt lat="43.06455" lon="2.32857">
        <ele>292.509</ele>
        <time>2010-12-09T13:24:09Z</time>
      </trkpt>
      <trkpt lat="43.06467" lon="2.32834">
        <ele>289.514</ele>
        <time>2010-12-09T13:24:14Z</time>
      </trkpt>
      <trkpt lat="43.06474" lon="2.32821">
        <ele>287.567</ele>
        <time>2010-12-09T13:24:18Z</time>
      </trkpt>
      <trkpt lat="43.06484" lon="2.32814">
        <ele>285.745</ele>
        <time>2010-12-09T13:24:23Z</time>
      </trkpt>
      <trkpt lat="43.06489" lon="2.32805">
        <ele>285.224</ele>
        <time>2010-12-09T13:24:25Z</time>
      </trkpt>
      <trkpt lat="43.06503" lon="2.32776">
        <ele>283.148</ele>
        <time>2010-12-09T13:24:29Z</time>
      </trkpt>
      <trkpt lat="43.0653" lon="2.32732">
        <ele>279.569</ele>
        <time>2010-12-09T13:24:34Z</time>
      </trkpt>
      <trkpt lat="43.06547" lon="2.32691">
        <ele>276.573</ele>
        <time>2010-12-09T13:24:38Z</time>
      </trkpt>
      <trkpt lat="43.06559" lon="2.32633">
        <ele>270.317</ele>
        <time>2010-12-09T13:24:44Z</time>
      </trkpt>
      <trkpt lat="43.06561" lon="2.32625">
        <ele>269.163</ele>
        <time>2010-12-09T13:24:45Z</time>
      </trkpt>
      <trkpt lat="43.06578" lon="2.32581">
        <ele>264.304</ele>
        <time>2010-12-09T13:24:51Z</time>
      </trkpt>
      <trkpt lat="43.06584" lon="2.32566">
        <ele>262.642</ele>
        <time>2010-12-09T13:24:53Z</time>
      </trkpt>
      <trkpt lat="43.06592" lon="2.32522">
        <ele>258.649</ele>
        <time>2010-12-09T13:24:58Z</time>
      </trkpt>
      <trkpt lat="43.06591" lon="2.32502">
        <ele>257.902</ele>
        <time>2010-12-09T13:25:00Z</time>
      </trkpt>
      <trkpt lat="43.06575" lon="2.32462">
        <ele>254.88</ele>
        <time>2010-12-09T13:25:04Z</time>
      </trkpt>
      <trkpt lat="43.06567" lon="2.32443">
        <ele>253.173</ele>
        <time>2010-12-09T13:25:06Z</time>
      </trkpt>
      <trkpt lat="43.06543" lon="2.32415">
        <ele>250.21</ele>
        <time>2010-12-09T13:25:10Z</time>
      </trkpt>
      <trkpt lat="43.06533" lon="2.32397">
        <ele>249.392</ele>
        <time>2010-12-09T13:25:13Z</time>
      </trkpt>
      <trkpt lat="43.06533" lon="2.32391">
        <ele>249.392</ele>
        <time>2010-12-09T13:25:15Z</time>
      </trkpt>
      <trkpt lat="43.06534" lon="2.32388">
        <ele>248.291</ele>
        <time>2010-12-09T13:25:20Z</time>
      </trkpt>
      <trkpt lat="43.0653" lon="2.32386">
        <ele>248.175</ele>
        <time>2010-12-09T13:25:25Z</time>
      </trkpt>
      <trkpt lat="43.0653" lon="2.32391">
        <ele>248.223</ele>
        <time>2010-12-09T13:25:28Z</time>
      </trkpt>
      <trkpt lat="43.06531" lon="2.32392">
        <ele>248.195</ele>
        <time>2010-12-09T13:25:29Z</time>
      </trkpt>
      <trkpt lat="43.06534" lon="2.32394">
        <ele>248.33</ele>
        <time>2010-12-09T13:25:33Z</time>
      </trkpt>
      <trkpt lat="43.06541" lon="2.32396">
        <ele>248.379</ele>
        <time>2010-12-09T13:25:48Z</time>
      </trkpt>
      <trkpt lat="43.06527" lon="2.3239">
        <ele>248.641</ele>
        <time>2010-12-09T13:25:55Z</time>
      </trkpt>
      <trkpt lat="43.06505" lon="2.32379">
        <ele>249.157</ele>
        <time>2010-12-09T13:26:02Z</time>
      </trkpt>
      <trkpt lat="43.06497" lon="2.32375">
        <ele>249.214</ele>
        <time>2010-12-09T13:26:05Z</time>
      </trkpt>
      <trkpt lat="43.06486" lon="2.3236">
        <ele>249.398</ele>
        <time>2010-12-09T13:26:11Z</time>
      </trkpt>
      <trkpt lat="43.06479" lon="2.32344">
        <ele>248.794</ele>
        <time>2010-12-09T13:26:15Z</time>
      </trkpt>
      <trkpt lat="43.06482" lon="2.32332">
        <ele>248.448</ele>
        <time>2010-12-09T13:26:17Z</time>
      </trkpt>
      <trkpt lat="43.06488" lon="2.32319">
        <ele>248.225</ele>
        <time>2010-12-09T13:26:19Z</time>
      </trkpt>
      <trkpt lat="43.06498" lon="2.32272">
        <ele>243.573</ele>
        <time>2010-12-09T13:26:24Z</time>
      </trkpt>
      <trkpt lat="43.06503" lon="2.3225">
        <ele>242.027</ele>
        <time>2010-12-09T13:26:26Z</time>
      </trkpt>
      <trkpt lat="43.06525" lon="2.32203">
        <ele>237.359</ele>
        <time>2010-12-09T13:26:31Z</time>
      </trkpt>
      <trkpt lat="43.06526" lon="2.32176">
        <ele>231.781</ele>
        <time>2010-12-09T13:26:35Z</time>
      </trkpt>
      <trkpt lat="43.06511" lon="2.32143">
        <ele>229.35</ele>
        <time>2010-12-09T13:26:39Z</time>
      </trkpt>
      <trkpt lat="43.06499" lon="2.32101">
        <ele>226.779</ele>
        <time>2010-12-09T13:26:43Z</time>
      </trkpt>
      <trkpt lat="43.06481" lon="2.32065">
        <ele>222.885</ele>
        <time>2010-12-09T13:26:47Z</time>
      </trkpt>
      <trkpt lat="43.06466" lon="2.32064">
        <ele>221.071</ele>
        <time>2010-12-09T13:26:49Z</time>
      </trkpt>
      <trkpt lat="43.06458" lon="2.32061">
        <ele>221.071</ele>
        <time>2010-12-09T13:26:50Z</time>
      </trkpt>
      <trkpt lat="43.0645" lon="2.32057">
        <ele>219.785</ele>
        <time>2010-12-09T13:26:51Z</time>
      </trkpt>
      <trkpt lat="43.06399" lon="2.32027">
        <ele>215.534</ele>
        <time>2010-12-09T13:26:58Z</time>
      </trkpt>
      <trkpt lat="43.06393" lon="2.32023">
        <ele>215.383</ele>
        <time>2010-12-09T13:26:59Z</time>
      </trkpt>
      <trkpt lat="43.06381" lon="2.32">
        <ele>215.698</ele>
        <time>2010-12-09T13:27:03Z</time>
      </trkpt>
      <trkpt lat="43.06387" lon="2.31982">
        <ele>216.224</ele>
        <time>2010-12-09T13:27:06Z</time>
      </trkpt>
      <trkpt lat="43.06395" lon="2.31967">
        <ele>216.909</ele>
        <time>2010-12-09T13:27:09Z</time>
      </trkpt>
      <trkpt lat="43.06411" lon="2.31953">
        <ele>217.05</ele>
        <time>2010-12-09T13:27:13Z</time>
      </trkpt>
      <trkpt lat="43.06446" lon="2.31931">
        <ele>218.082</ele>
        <time>2010-12-09T13:27:22Z</time>
      </trkpt>
      <trkpt lat="43.06474" lon="2.31905">
        <ele>219.356</ele>
        <time>2010-12-09T13:27:30Z</time>
      </trkpt>
      <trkpt lat="43.06494" lon="2.31867">
        <ele>221.149</ele>
        <time>2010-12-09T13:27:39Z</time>
      </trkpt>
      <trkpt lat="43.06501" lon="2.31838">
        <ele>222.831</ele>
        <time>2010-12-09T13:27:45Z</time>
      </trkpt>
      <trkpt lat="43.06511" lon="2.31813">
        <ele>224.875</ele>
        <time>2010-12-09T13:27:51Z</time>
      </trkpt>
      <trkpt lat="43.06526" lon="2.31793">
        <ele>226.236</ele>
        <time>2010-12-09T13:27:57Z</time>
      </trkpt>
      <trkpt lat="43.06553" lon="2.31767">
        <ele>228.514</ele>
        <time>2010-12-09T13:28:06Z</time>
      </trkpt>
      <trkpt lat="43.06565" lon="2.31748">
        <ele>229.911</ele>
        <time>2010-12-09T13:28:12Z</time>
      </trkpt>
      <trkpt lat="43.06569" lon="2.31726">
        <ele>230.393</ele>
        <time>2010-12-09T13:28:17Z</time>
      </trkpt>
      <trkpt lat="43.06573" lon="2.31675">
        <ele>231.515</ele>
        <time>2010-12-09T13:28:27Z</time>
      </trkpt>
      <trkpt lat="43.06584" lon="2.31634">
        <ele>233.327</ele>
        <time>2010-12-09T13:28:36Z</time>
      </trkpt>
      <trkpt lat="43.06589" lon="2.31605">
        <ele>235.709</ele>
        <time>2010-12-09T13:28:43Z</time>
      </trkpt>
      <trkpt lat="43.06583" lon="2.31573">
        <ele>237.25</ele>
        <time>2010-12-09T13:28:51Z</time>
      </trkpt>
      <trkpt lat="43.0657" lon="2.31544">
        <ele>239.933</ele>
        <time>2010-12-09T13:29:00Z</time>
      </trkpt>
      <trkpt lat="43.06567" lon="2.31539">
        <ele>240.271</ele>
        <time>2010-12-09T13:29:04Z</time>
      </trkpt>
      <trkpt lat="43.06555" lon="2.31535">
        <ele>240.954</ele>
        <time>2010-12-09T13:29:10Z</time>
      </trkpt>
      <trkpt lat="43.06529" lon="2.31529">
        <ele>242.378</ele>
        <time>2010-12-09T13:29:19Z</time>
      </trkpt>
      <trkpt lat="43.06505" lon="2.31522">
        <ele>243.022</ele>
        <time>2010-12-09T13:29:27Z</time>
      </trkpt>
      <trkpt lat="43.06481" lon="2.31514">
        <ele>242.56</ele>
        <time>2010-12-09T13:29:34Z</time>
      </trkpt>
      <trkpt lat="43.06452" lon="2.31506">
        <ele>242.473</ele>
        <time>2010-12-09T13:29:41Z</time>
      </trkpt>
      <trkpt lat="43.06418" lon="2.31494">
        <ele>241.985</ele>
        <time>2010-12-09T13:29:49Z</time>
      </trkpt>
      <trkpt lat="43.06394" lon="2.31485">
        <ele>241.164</ele>
        <time>2010-12-09T13:29:54Z</time>
      </trkpt>
      <trkpt lat="43.06374" lon="2.31459">
        <ele>238.315</ele>
        <time>2010-12-09T13:29:59Z</time>
      </trkpt>
      <trkpt lat="43.06371" lon="2.31451">
        <ele>237.371</ele>
        <time>2010-12-09T13:30:01Z</time>
      </trkpt>
      <trkpt lat="43.06366" lon="2.31437">
        <ele>234.025</ele>
        <time>2010-12-09T13:30:06Z</time>
      </trkpt>
      <trkpt lat="43.06358" lon="2.31421">
        <ele>232.595</ele>
        <time>2010-12-09T13:30:10Z</time>
      </trkpt>
      <trkpt lat="43.06355" lon="2.31418">
        <ele>232.062</ele>
        <time>2010-12-09T13:30:11Z</time>
      </trkpt>
      <trkpt lat="43.06341" lon="2.31419">
        <ele>229.97</ele>
        <time>2010-12-09T13:30:15Z</time>
      </trkpt>
      <trkpt lat="43.06328" lon="2.31424">
        <ele>228.829</ele>
        <time>2010-12-09T13:30:18Z</time>
      </trkpt>
      <trkpt lat="43.06304" lon="2.31446">
        <ele>226.96</ele>
        <time>2010-12-09T13:30:23Z</time>
      </trkpt>
      <trkpt lat="43.06299" lon="2.31452">
        <ele>226.726</ele>
        <time>2010-12-09T13:30:24Z</time>
      </trkpt>
      <trkpt lat="43.06278" lon="2.31459">
        <ele>226.008</ele>
        <time>2010-12-09T13:30:28Z</time>
      </trkpt>
      <trkpt lat="43.06274" lon="2.31455">
        <ele>226.008</ele>
        <time>2010-12-09T13:30:29Z</time>
      </trkpt>
      <trkpt lat="43.06259" lon="2.31436">
        <ele>225.099</ele>
        <time>2010-12-09T13:30:35Z</time>
      </trkpt>
      <trkpt lat="43.06258" lon="2.31417">
        <ele>225.367</ele>
        <time>2010-12-09T13:30:40Z</time>
      </trkpt>
      <trkpt lat="43.06268" lon="2.31387">
        <ele>225.716</ele>
        <time>2010-12-09T13:30:47Z</time>
      </trkpt>
      <trkpt lat="43.06274" lon="2.31362">
        <ele>225.913</ele>
        <time>2010-12-09T13:30:52Z</time>
      </trkpt>
      <trkpt lat="43.0628" lon="2.31337">
        <ele>225.736</ele>
        <time>2010-12-09T13:30:57Z</time>
      </trkpt>
      <trkpt lat="43.0629" lon="2.31296">
        <ele>226.137</ele>
        <time>2010-12-09T13:31:05Z</time>
      </trkpt>
      <trkpt lat="43.06296" lon="2.31265">
        <ele>226.295</ele>
        <time>2010-12-09T13:31:11Z</time>
      </trkpt>
      <trkpt lat="43.06295" lon="2.31234">
        <ele>227.187</ele>
        <time>2010-12-09T13:31:17Z</time>
      </trkpt>
      <trkpt lat="43.06293" lon="2.31198">
        <ele>228.048</ele>
        <time>2010-12-09T13:31:24Z</time>
      </trkpt>
      <trkpt lat="43.06289" lon="2.3116">
        <ele>228.765</ele>
        <time>2010-12-09T13:31:31Z</time>
      </trkpt>
      <trkpt lat="43.06278" lon="2.31131">
        <ele>229.7</ele>
        <time>2010-12-09T13:31:37Z</time>
      </trkpt>
      <trkpt lat="43.06259" lon="2.31117">
        <ele>230.343</ele>
        <time>2010-12-09T13:31:42Z</time>
      </trkpt>
      <trkpt lat="43.0623" lon="2.311">
        <ele>229.319</ele>
        <time>2010-12-09T13:31:48Z</time>
      </trkpt>
      <trkpt lat="43.06197" lon="2.31082">
        <ele>228.985</ele>
        <time>2010-12-09T13:31:54Z</time>
      </trkpt>
      <trkpt lat="43.06178" lon="2.31062">
        <ele>227.826</ele>
        <time>2010-12-09T13:31:58Z</time>
      </trkpt>
      <trkpt lat="43.06163" lon="2.31048">
        <ele>226.906</ele>
        <time>2010-12-09T13:32:01Z</time>
      </trkpt>
      <trkpt lat="43.0615" lon="2.31034">
        <ele>225.955</ele>
        <time>2010-12-09T13:32:04Z</time>
      </trkpt>
      <trkpt lat="43.0615" lon="2.31013">
        <ele>226.133</ele>
        <time>2010-12-09T13:32:07Z</time>
      </trkpt>
      <trkpt lat="43.06152" lon="2.3099">
        <ele>226.486</ele>
        <time>2010-12-09T13:32:11Z</time>
      </trkpt>
      <trkpt lat="43.06149" lon="2.30955">
        <ele>228.749</ele>
        <time>2010-12-09T13:32:19Z</time>
      </trkpt>
      <trkpt lat="43.06138" lon="2.30934">
        <ele>230.724</ele>
        <time>2010-12-09T13:32:25Z</time>
      </trkpt>
      <trkpt lat="43.06131" lon="2.30929">
        <ele>231.95</ele>
        <time>2010-12-09T13:32:30Z</time>
      </trkpt>
      <trkpt lat="43.06131" lon="2.30928">
        <ele>231.919</ele>
        <time>2010-12-09T13:32:31Z</time>
      </trkpt>
      <trkpt lat="43.06124" lon="2.3092">
        <ele>233.046</ele>
        <time>2010-12-09T13:33:04Z</time>
      </trkpt>
      <trkpt lat="43.0611" lon="2.30912">
        <ele>234.658</ele>
        <time>2010-12-09T13:33:11Z</time>
      </trkpt>
      <trkpt lat="43.061" lon="2.30904">
        <ele>235.544</ele>
        <time>2010-12-09T13:33:16Z</time>
      </trkpt>
      <trkpt lat="43.06088" lon="2.30894">
        <ele>236.539</ele>
        <time>2010-12-09T13:33:23Z</time>
      </trkpt>
      <trkpt lat="43.06078" lon="2.30886">
        <ele>237.608</ele>
        <time>2010-12-09T13:33:29Z</time>
      </trkpt>
      <trkpt lat="43.06064" lon="2.30877">
        <ele>239.048</ele>
        <time>2010-12-09T13:33:36Z</time>
      </trkpt>
      <trkpt lat="43.06051" lon="2.30875">
        <ele>240.015</ele>
        <time>2010-12-09T13:33:42Z</time>
      </trkpt>
      <trkpt lat="43.06032" lon="2.30873">
        <ele>241.425</ele>
        <time>2010-12-09T13:33:50Z</time>
      </trkpt>
      <trkpt lat="43.06013" lon="2.30871">
        <ele>242.902</ele>
        <time>2010-12-09T13:33:59Z</time>
      </trkpt>
      <trkpt lat="43.0599" lon="2.30881">
        <ele>245.016</ele>
        <time>2010-12-09T13:34:09Z</time>
      </trkpt>
      <trkpt lat="43.05967" lon="2.30894">
        <ele>247.117</ele>
        <time>2010-12-09T13:34:18Z</time>
      </trkpt>
      <trkpt lat="43.05961" lon="2.30897">
        <ele>247.736</ele>
        <time>2010-12-09T13:34:20Z</time>
      </trkpt>
      <trkpt lat="43.05933" lon="2.30898">
        <ele>246.43</ele>
        <time>2010-12-09T13:34:26Z</time>
      </trkpt>
      <trkpt lat="43.05922" lon="2.30898">
        <ele>245.917</ele>
        <time>2010-12-09T13:34:28Z</time>
      </trkpt>
      <trkpt lat="43.05903" lon="2.30888">
        <ele>246.028</ele>
        <time>2010-12-09T13:34:32Z</time>
      </trkpt>
      <trkpt lat="43.0588" lon="2.30868">
        <ele>247.197</ele>
        <time>2010-12-09T13:34:39Z</time>
      </trkpt>
      <trkpt lat="43.05865" lon="2.30869">
        <ele>248.165</ele>
        <time>2010-12-09T13:34:45Z</time>
      </trkpt>
      <trkpt lat="43.05848" lon="2.30878">
        <ele>249.646</ele>
        <time>2010-12-09T13:34:51Z</time>
      </trkpt>
      <trkpt lat="43.05826" lon="2.30875">
        <ele>250.505</ele>
        <time>2010-12-09T13:34:58Z</time>
      </trkpt>
      <trkpt lat="43.05803" lon="2.30868">
        <ele>251.759</ele>
        <time>2010-12-09T13:35:06Z</time>
      </trkpt>
      <trkpt lat="43.05785" lon="2.30852">
        <ele>252.287</ele>
        <time>2010-12-09T13:35:12Z</time>
      </trkpt>
      <trkpt lat="43.05773" lon="2.30836">
        <ele>252.725</ele>
        <time>2010-12-09T13:35:17Z</time>
      </trkpt>
      <trkpt lat="43.05752" lon="2.30831">
        <ele>254.588</ele>
        <time>2010-12-09T13:35:24Z</time>
      </trkpt>
      <trkpt lat="43.05736" lon="2.30826">
        <ele>255.654</ele>
        <time>2010-12-09T13:35:29Z</time>
      </trkpt>
      <trkpt lat="43.05717" lon="2.30802">
        <ele>255.212</ele>
        <time>2010-12-09T13:35:35Z</time>
      </trkpt>
      <trkpt lat="43.05706" lon="2.30773">
        <ele>255.574</ele>
        <time>2010-12-09T13:35:41Z</time>
      </trkpt>
      <trkpt lat="43.057" lon="2.30748">
        <ele>257.594</ele>
        <time>2010-12-09T13:35:47Z</time>
      </trkpt>
      <trkpt lat="43.05693" lon="2.30738">
        <ele>259.346</ele>
        <time>2010-12-09T13:35:52Z</time>
      </trkpt>
      <trkpt lat="43.05686" lon="2.3073">
        <ele>259.829</ele>
        <time>2010-12-09T13:35:58Z</time>
      </trkpt>
      <trkpt lat="43.05683" lon="2.30727">
        <ele>259.705</ele>
        <time>2010-12-09T13:36:01Z</time>
      </trkpt>
      <trkpt lat="43.05685" lon="2.30725">
        <ele>259.507</ele>
        <time>2010-12-09T13:36:05Z</time>
      </trkpt>
      <trkpt lat="43.05687" lon="2.30729">
        <ele>259.568</ele>
        <time>2010-12-09T13:36:07Z</time>
      </trkpt>
      <trkpt lat="43.05696" lon="2.30748">
        <ele>260.061</ele>
        <time>2010-12-09T13:36:13Z</time>
      </trkpt>
      <trkpt lat="43.05698" lon="2.3076">
        <ele>260.357</ele>
        <time>2010-12-09T13:36:16Z</time>
      </trkpt>
      <trkpt lat="43.05692" lon="2.30762">
        <ele>260.89</ele>
        <time>2010-12-09T13:36:20Z</time>
      </trkpt>
      <trkpt lat="43.0569" lon="2.30758">
        <ele>260.78</ele>
        <time>2010-12-09T13:36:22Z</time>
      </trkpt>
      <trkpt lat="43.05691" lon="2.30739">
        <ele>259.949</ele>
        <time>2010-12-09T13:36:27Z</time>
      </trkpt>
      <trkpt lat="43.05687" lon="2.3073">
        <ele>259.983</ele>
        <time>2010-12-09T13:36:29Z</time>
      </trkpt>
      <trkpt lat="43.05674" lon="2.3071">
        <ele>259.629</ele>
        <time>2010-12-09T13:36:33Z</time>
      </trkpt>
      <trkpt lat="43.05663" lon="2.30675">
        <ele>257.195</ele>
        <time>2010-12-09T13:36:37Z</time>
      </trkpt>
      <trkpt lat="43.0565" lon="2.30614">
        <ele>252.947</ele>
        <time>2010-12-09T13:36:43Z</time>
      </trkpt>
      <trkpt lat="43.05647" lon="2.30604">
        <ele>252.657</ele>
        <time>2010-12-09T13:36:44Z</time>
      </trkpt>
      <trkpt lat="43.05634" lon="2.30563">
        <ele>251.392</ele>
        <time>2010-12-09T13:36:48Z</time>
      </trkpt>
      <trkpt lat="43.05631" lon="2.30524">
        <ele>250.262</ele>
        <time>2010-12-09T13:36:52Z</time>
      </trkpt>
      <trkpt lat="43.05633" lon="2.30489">
        <ele>249.97</ele>
        <time>2010-12-09T13:36:57Z</time>
      </trkpt>
      <trkpt lat="43.05629" lon="2.30465">
        <ele>252.221</ele>
        <time>2010-12-09T13:37:03Z</time>
      </trkpt>
      <trkpt lat="43.05625" lon="2.30449">
        <ele>254.649</ele>
        <time>2010-12-09T13:37:08Z</time>
      </trkpt>
      <trkpt lat="43.05617" lon="2.30427">
        <ele>257.548</ele>
        <time>2010-12-09T13:37:15Z</time>
      </trkpt>
      <trkpt lat="43.05606" lon="2.30405">
        <ele>260.545</ele>
        <time>2010-12-09T13:37:22Z</time>
      </trkpt>
      <trkpt lat="43.05595" lon="2.30385">
        <ele>262.547</ele>
        <time>2010-12-09T13:37:29Z</time>
      </trkpt>
      <trkpt lat="43.05586" lon="2.30364">
        <ele>263.138</ele>
        <time>2010-12-09T13:37:35Z</time>
      </trkpt>
      <trkpt lat="43.05577" lon="2.30325">
        <ele>262.771</ele>
        <time>2010-12-09T13:37:42Z</time>
      </trkpt>
      <trkpt lat="43.05568" lon="2.3028">
        <ele>262.094</ele>
        <time>2010-12-09T13:37:50Z</time>
      </trkpt>
      <trkpt lat="43.05567" lon="2.30274">
        <ele>261.939</ele>
        <time>2010-12-09T13:37:51Z</time>
      </trkpt>
      <trkpt lat="43.05553" lon="2.30247">
        <ele>261.269</ele>
        <time>2010-12-09T13:37:57Z</time>
      </trkpt>
      <trkpt lat="43.05549" lon="2.30241">
        <ele>261.351</ele>
        <time>2010-12-09T13:37:59Z</time>
      </trkpt>
      <trkpt lat="43.05526" lon="2.30219">
        <ele>262.079</ele>
        <time>2010-12-09T13:38:07Z</time>
      </trkpt>
      <trkpt lat="43.05499" lon="2.30193">
        <ele>262.988</ele>
        <time>2010-12-09T13:38:15Z</time>
      </trkpt>
      <trkpt lat="43.05473" lon="2.3017">
        <ele>263.083</ele>
        <time>2010-12-09T13:38:23Z</time>
      </trkpt>
      <trkpt lat="43.05471" lon="2.30169">
        <ele>263.108</ele>
        <time>2010-12-09T13:38:24Z</time>
      </trkpt>
      <trkpt lat="43.05471" lon="2.30173">
        <ele>263.346</ele>
        <time>2010-12-09T13:38:29Z</time>
      </trkpt>
      <trkpt lat="43.05473" lon="2.30168">
        <ele>263.381</ele>
        <time>2010-12-09T13:38:33Z</time>
      </trkpt>
      <trkpt lat="43.05463" lon="2.30162">
        <ele>263.479</ele>
        <time>2010-12-09T13:38:38Z</time>
      </trkpt>
      <trkpt lat="43.0546" lon="2.30157">
        <ele>263.557</ele>
        <time>2010-12-09T13:38:40Z</time>
      </trkpt>
      <trkpt lat="43.05447" lon="2.3014">
        <ele>263.869</ele>
        <time>2010-12-09T13:38:47Z</time>
      </trkpt>
      <trkpt lat="43.0543" lon="2.30116">
        <ele>264.528</ele>
        <time>2010-12-09T13:38:54Z</time>
      </trkpt>
      <trkpt lat="43.05408" lon="2.3009">
        <ele>264.138</ele>
        <time>2010-12-09T13:39:01Z</time>
      </trkpt>
      <trkpt lat="43.05392" lon="2.30064">
        <ele>263.779</ele>
        <time>2010-12-09T13:39:07Z</time>
      </trkpt>
      <trkpt lat="43.0538" lon="2.30048">
        <ele>263.278</ele>
        <time>2010-12-09T13:39:12Z</time>
      </trkpt>
      <trkpt lat="43.05376" lon="2.30046">
        <ele>263.294</ele>
        <time>2010-12-09T13:39:15Z</time>
      </trkpt>
      <trkpt lat="43.05365" lon="2.3003">
        <ele>263.388</ele>
        <time>2010-12-09T13:39:20Z</time>
      </trkpt>
      <trkpt lat="43.0533" lon="2.2999">
        <ele>262.409</ele>
        <time>2010-12-09T13:39:30Z</time>
      </trkpt>
      <trkpt lat="43.05301" lon="2.29957">
        <ele>261.287</ele>
        <time>2010-12-09T13:39:37Z</time>
      </trkpt>
      <trkpt lat="43.05291" lon="2.29931">
        <ele>260.577</ele>
        <time>2010-12-09T13:39:41Z</time>
      </trkpt>
      <trkpt lat="43.05293" lon="2.29916">
        <ele>260.43</ele>
        <time>2010-12-09T13:39:43Z</time>
      </trkpt>
      <trkpt lat="43.05297" lon="2.29895">
        <ele>260.376</ele>
        <time>2010-12-09T13:39:46Z</time>
      </trkpt>
      <trkpt lat="43.05311" lon="2.29872">
        <ele>259.937</ele>
        <time>2010-12-09T13:39:51Z</time>
      </trkpt>
      <trkpt lat="43.05318" lon="2.29864">
        <ele>260.166</ele>
        <time>2010-12-09T13:39:55Z</time>
      </trkpt>
      <trkpt lat="43.05314" lon="2.29865">
        <ele>260.221</ele>
        <time>2010-12-09T13:39:58Z</time>
      </trkpt>
      <trkpt lat="43.05308" lon="2.29872">
        <ele>259.982</ele>
        <time>2010-12-09T13:40:00Z</time>
      </trkpt>
      <trkpt lat="43.05289" lon="2.29888">
        <ele>258.88</ele>
        <time>2010-12-09T13:40:04Z</time>
      </trkpt>
      <trkpt lat="43.05264" lon="2.2991">
        <ele>259.178</ele>
        <time>2010-12-09T13:40:11Z</time>
      </trkpt>
      <trkpt lat="43.05239" lon="2.29926">
        <ele>259.822</ele>
        <time>2010-12-09T13:40:18Z</time>
      </trkpt>
      <trkpt lat="43.05216" lon="2.29944">
        <ele>261.036</ele>
        <time>2010-12-09T13:40:25Z</time>
      </trkpt>
      <trkpt lat="43.05199" lon="2.29966">
        <ele>263.183</ele>
        <time>2010-12-09T13:40:32Z</time>
      </trkpt>
      <trkpt lat="43.05184" lon="2.29985">
        <ele>265.673</ele>
        <time>2010-12-09T13:40:40Z</time>
      </trkpt>
      <trkpt lat="43.05169" lon="2.3">
        <ele>268.437</ele>
        <time>2010-12-09T13:40:48Z</time>
      </trkpt>
      <trkpt lat="43.05159" lon="2.30004">
        <ele>270.443</ele>
        <time>2010-12-09T13:40:53Z</time>
      </trkpt>
      <trkpt lat="43.05142" lon="2.30001">
        <ele>273.507</ele>
        <time>2010-12-09T13:41:01Z</time>
      </trkpt>
      <trkpt lat="43.05124" lon="2.29992">
        <ele>278.382</ele>
        <time>2010-12-09T13:41:10Z</time>
      </trkpt>
      <trkpt lat="43.05107" lon="2.29995">
        <ele>281.883</ele>
        <time>2010-12-09T13:41:18Z</time>
      </trkpt>
      <trkpt lat="43.05089" lon="2.30005">
        <ele>285.123</ele>
        <time>2010-12-09T13:41:26Z</time>
      </trkpt>
      <trkpt lat="43.05072" lon="2.30014">
        <ele>288.896</ele>
        <time>2010-12-09T13:41:34Z</time>
      </trkpt>
      <trkpt lat="43.05057" lon="2.30022">
        <ele>291.275</ele>
        <time>2010-12-09T13:41:42Z</time>
      </trkpt>
      <trkpt lat="43.05038" lon="2.30034">
        <ele>292.639</ele>
        <time>2010-12-09T13:41:52Z</time>
      </trkpt>
      <trkpt lat="43.05021" lon="2.3004">
        <ele>294.06</ele>
        <time>2010-12-09T13:42:00Z</time>
      </trkpt>
      <trkpt lat="43.05004" lon="2.30044">
        <ele>295.295</ele>
        <time>2010-12-09T13:42:08Z</time>
      </trkpt>
      <trkpt lat="43.04988" lon="2.30056">
        <ele>297.024</ele>
        <time>2010-12-09T13:42:17Z</time>
      </trkpt>
      <trkpt lat="43.04976" lon="2.30067">
        <ele>299.494</ele>
        <time>2010-12-09T13:42:26Z</time>
      </trkpt>
      <trkpt lat="43.0496" lon="2.30077">
        <ele>302.031</ele>
        <time>2010-12-09T13:42:36Z</time>
      </trkpt>
      <trkpt lat="43.04947" lon="2.30082">
        <ele>304.074</ele>
        <time>2010-12-09T13:42:44Z</time>
      </trkpt>
      <trkpt lat="43.04934" lon="2.30088">
        <ele>306.32</ele>
        <time>2010-12-09T13:42:52Z</time>
      </trkpt>
      <trkpt lat="43.04916" lon="2.30098">
        <ele>309.145</ele>
        <time>2010-12-09T13:43:03Z</time>
      </trkpt>
      <trkpt lat="43.04903" lon="2.30104">
        <ele>310.618</ele>
        <time>2010-12-09T13:43:11Z</time>
      </trkpt>
      <trkpt lat="43.04885" lon="2.30116">
        <ele>312.976</ele>
        <time>2010-12-09T13:43:23Z</time>
      </trkpt>
      <trkpt lat="43.04871" lon="2.30132">
        <ele>315.344</ele>
        <time>2010-12-09T13:43:33Z</time>
      </trkpt>
      <trkpt lat="43.04855" lon="2.30152">
        <ele>318.083</ele>
        <time>2010-12-09T13:43:44Z</time>
      </trkpt>
      <trkpt lat="43.04843" lon="2.30169">
        <ele>320.115</ele>
        <time>2010-12-09T13:43:53Z</time>
      </trkpt>
      <trkpt lat="43.04828" lon="2.30188">
        <ele>321.896</ele>
        <time>2010-12-09T13:44:04Z</time>
      </trkpt>
      <trkpt lat="43.04817" lon="2.302">
        <ele>322.694</ele>
        <time>2010-12-09T13:44:12Z</time>
      </trkpt>
      <trkpt lat="43.04806" lon="2.30206">
        <ele>323.49</ele>
        <time>2010-12-09T13:44:19Z</time>
      </trkpt>
      <trkpt lat="43.04803" lon="2.30207">
        <ele>323.541</ele>
        <time>2010-12-09T13:44:21Z</time>
      </trkpt>
      <trkpt lat="43.04799" lon="2.30227">
        <ele>323.231</ele>
        <time>2010-12-09T13:44:28Z</time>
      </trkpt>
      <trkpt lat="43.0479" lon="2.30257">
        <ele>323.826</ele>
        <time>2010-12-09T13:44:38Z</time>
      </trkpt>
      <trkpt lat="43.04778" lon="2.30282">
        <ele>324.552</ele>
        <time>2010-12-09T13:44:47Z</time>
      </trkpt>
      <trkpt lat="43.04766" lon="2.30302">
        <ele>325.179</ele>
        <time>2010-12-09T13:44:55Z</time>
      </trkpt>
      <trkpt lat="43.04755" lon="2.3032">
        <ele>326.347</ele>
        <time>2010-12-09T13:45:03Z</time>
      </trkpt>
      <trkpt lat="43.04742" lon="2.30343">
        <ele>327.454</ele>
        <time>2010-12-09T13:45:12Z</time>
      </trkpt>
      <trkpt lat="43.04733" lon="2.30363">
        <ele>328.173</ele>
        <time>2010-12-09T13:45:19Z</time>
      </trkpt>
      <trkpt lat="43.04722" lon="2.30384">
        <ele>329.448</ele>
        <time>2010-12-09T13:45:27Z</time>
      </trkpt>
      <trkpt lat="43.0471" lon="2.30405">
        <ele>331.073</ele>
        <time>2010-12-09T13:45:36Z</time>
      </trkpt>
      <trkpt lat="43.04699" lon="2.30428">
        <ele>332.502</ele>
        <time>2010-12-09T13:45:45Z</time>
      </trkpt>
      <trkpt lat="43.04686" lon="2.30444">
        <ele>333.909</ele>
        <time>2010-12-09T13:45:53Z</time>
      </trkpt>
      <trkpt lat="43.04664" lon="2.30465">
        <ele>336.735</ele>
        <time>2010-12-09T13:46:04Z</time>
      </trkpt>
      <trkpt lat="43.04653" lon="2.30486">
        <ele>338.492</ele>
        <time>2010-12-09T13:46:13Z</time>
      </trkpt>
      <trkpt lat="43.04646" lon="2.30513">
        <ele>340.836</ele>
        <time>2010-12-09T13:46:22Z</time>
      </trkpt>
      <trkpt lat="43.04634" lon="2.30538">
        <ele>343.516</ele>
        <time>2010-12-09T13:46:32Z</time>
      </trkpt>
      <trkpt lat="43.04619" lon="2.30566">
        <ele>347.393</ele>
        <time>2010-12-09T13:46:43Z</time>
      </trkpt>
      <trkpt lat="43.04606" lon="2.30587">
        <ele>350.076</ele>
        <time>2010-12-09T13:46:52Z</time>
      </trkpt>
      <trkpt lat="43.04595" lon="2.30595">
        <ele>351.399</ele>
        <time>2010-12-09T13:46:58Z</time>
      </trkpt>
      <trkpt lat="43.0459" lon="2.30592">
        <ele>352.307</ele>
        <time>2010-12-09T13:47:01Z</time>
      </trkpt>
      <trkpt lat="43.04585" lon="2.30574">
        <ele>353.749</ele>
        <time>2010-12-09T13:47:07Z</time>
      </trkpt>
      <trkpt lat="43.04584" lon="2.30569">
        <ele>354.022</ele>
        <time>2010-12-09T13:47:09Z</time>
      </trkpt>
      <trkpt lat="43.04583" lon="2.30549">
        <ele>353.959</ele>
        <time>2010-12-09T13:47:16Z</time>
      </trkpt>
      <trkpt lat="43.04585" lon="2.30533">
        <ele>353.581</ele>
        <time>2010-12-09T13:47:19Z</time>
      </trkpt>
      <trkpt lat="43.04586" lon="2.30509">
        <ele>352.623</ele>
        <time>2010-12-09T13:47:23Z</time>
      </trkpt>
      <trkpt lat="43.04582" lon="2.30465">
        <ele>351.244</ele>
        <time>2010-12-09T13:47:30Z</time>
      </trkpt>
      <trkpt lat="43.04581" lon="2.30444">
        <ele>348.876</ele>
        <time>2010-12-09T13:47:34Z</time>
      </trkpt>
      <trkpt lat="43.04579" lon="2.30429">
        <ele>347.913</ele>
        <time>2010-12-09T13:47:38Z</time>
      </trkpt>
      <trkpt lat="43.04579" lon="2.30389">
        <ele>345.197</ele>
        <time>2010-12-09T13:47:44Z</time>
      </trkpt>
      <trkpt lat="43.04576" lon="2.30379">
        <ele>344.534</ele>
        <time>2010-12-09T13:47:46Z</time>
      </trkpt>
      <trkpt lat="43.0457" lon="2.30359">
        <ele>342.419</ele>
        <time>2010-12-09T13:47:50Z</time>
      </trkpt>
      <trkpt lat="43.04569" lon="2.30356">
        <ele>341.976</ele>
        <time>2010-12-09T13:47:51Z</time>
      </trkpt>
      <trkpt lat="43.04567" lon="2.30355">
        <ele>341.161</ele>
        <time>2010-12-09T13:47:53Z</time>
      </trkpt>
      <trkpt lat="43.04566" lon="2.30354">
        <ele>340.858</ele>
        <time>2010-12-09T13:47:55Z</time>
      </trkpt>
      <trkpt lat="43.04566" lon="2.30357">
        <ele>340.814</ele>
        <time>2010-12-09T13:48:47Z</time>
      </trkpt>
      <trkpt lat="43.04563" lon="2.3035">
        <ele>340.334</ele>
        <time>2010-12-09T13:48:51Z</time>
      </trkpt>
      <trkpt lat="43.04557" lon="2.30331">
        <ele>338.832</ele>
        <time>2010-12-09T13:48:59Z</time>
      </trkpt>
      <trkpt lat="43.04552" lon="2.30312">
        <ele>338.396</ele>
        <time>2010-12-09T13:49:05Z</time>
      </trkpt>
      <trkpt lat="43.04543" lon="2.3029">
        <ele>337.39</ele>
        <time>2010-12-09T13:49:10Z</time>
      </trkpt>
      <trkpt lat="43.0453" lon="2.30262">
        <ele>336.648</ele>
        <time>2010-12-09T13:49:15Z</time>
      </trkpt>
      <trkpt lat="43.0452" lon="2.30235">
        <ele>337.388</ele>
        <time>2010-12-09T13:49:21Z</time>
      </trkpt>
      <trkpt lat="43.04513" lon="2.30215">
        <ele>338.371</ele>
        <time>2010-12-09T13:49:27Z</time>
      </trkpt>
      <trkpt lat="43.04501" lon="2.30196">
        <ele>339.875</ele>
        <time>2010-12-09T13:49:33Z</time>
      </trkpt>
      <trkpt lat="43.04496" lon="2.3019">
        <ele>340.303</ele>
        <time>2010-12-09T13:49:35Z</time>
      </trkpt>
      <trkpt lat="43.0448" lon="2.30184">
        <ele>341.904</ele>
        <time>2010-12-09T13:49:41Z</time>
      </trkpt>
      <trkpt lat="43.04457" lon="2.30166">
        <ele>346.11</ele>
        <time>2010-12-09T13:49:51Z</time>
      </trkpt>
      <trkpt lat="43.04449" lon="2.30149">
        <ele>347.321</ele>
        <time>2010-12-09T13:49:57Z</time>
      </trkpt>
      <trkpt lat="43.0444" lon="2.30119">
        <ele>347.447</ele>
        <time>2010-12-09T13:50:05Z</time>
      </trkpt>
      <trkpt lat="43.04434" lon="2.30092">
        <ele>346.193</ele>
        <time>2010-12-09T13:50:10Z</time>
      </trkpt>
      <trkpt lat="43.04433" lon="2.30085">
        <ele>345.755</ele>
        <time>2010-12-09T13:50:11Z</time>
      </trkpt>
      <trkpt lat="43.04424" lon="2.30064">
        <ele>344.52</ele>
        <time>2010-12-09T13:50:15Z</time>
      </trkpt>
      <trkpt lat="43.04419" lon="2.30052">
        <ele>343.908</ele>
        <time>2010-12-09T13:50:17Z</time>
      </trkpt>
      <trkpt lat="43.04399" lon="2.30023">
        <ele>342.134</ele>
        <time>2010-12-09T13:50:22Z</time>
      </trkpt>
      <trkpt lat="43.04392" lon="2.30014">
        <ele>341.348</ele>
        <time>2010-12-09T13:50:24Z</time>
      </trkpt>
      <trkpt lat="43.04368" lon="2.29974">
        <ele>341.65</ele>
        <time>2010-12-09T13:50:34Z</time>
      </trkpt>
      <trkpt lat="43.04357" lon="2.29954">
        <ele>341.664</ele>
        <time>2010-12-09T13:50:39Z</time>
      </trkpt>
      <trkpt lat="43.04345" lon="2.29933">
        <ele>340.886</ele>
        <time>2010-12-09T13:50:44Z</time>
      </trkpt>
      <trkpt lat="43.04338" lon="2.29913">
        <ele>340.273</ele>
        <time>2010-12-09T13:50:48Z</time>
      </trkpt>
      <trkpt lat="43.04335" lon="2.29901">
        <ele>339.719</ele>
        <time>2010-12-09T13:50:50Z</time>
      </trkpt>
      <trkpt lat="43.04331" lon="2.29889">
        <ele>339.36</ele>
        <time>2010-12-09T13:50:52Z</time>
      </trkpt>
      <trkpt lat="43.04327" lon="2.29878">
        <ele>339.186</ele>
        <time>2010-12-09T13:50:54Z</time>
      </trkpt>
      <trkpt lat="43.04315" lon="2.29848">
        <ele>339.936</ele>
        <time>2010-12-09T13:51:00Z</time>
      </trkpt>
      <trkpt lat="43.04303" lon="2.29818">
        <ele>339.414</ele>
        <time>2010-12-09T13:51:06Z</time>
      </trkpt>
      <trkpt lat="43.04298" lon="2.29799">
        <ele>338.918</ele>
        <time>2010-12-09T13:51:09Z</time>
      </trkpt>
      <trkpt lat="43.04286" lon="2.29768">
        <ele>338.247</ele>
        <time>2010-12-09T13:51:15Z</time>
      </trkpt>
      <trkpt lat="43.04272" lon="2.29748">
        <ele>338.225</ele>
        <time>2010-12-09T13:51:20Z</time>
      </trkpt>
      <trkpt lat="43.04256" lon="2.29715">
        <ele>338.416</ele>
        <time>2010-12-09T13:51:27Z</time>
      </trkpt>
      <trkpt lat="43.04244" lon="2.29689">
        <ele>338.641</ele>
        <time>2010-12-09T13:51:33Z</time>
      </trkpt>
      <trkpt lat="43.04234" lon="2.29668">
        <ele>339.538</ele>
        <time>2010-12-09T13:51:38Z</time>
      </trkpt>
      <trkpt lat="43.04226" lon="2.2965">
        <ele>342.289</ele>
        <time>2010-12-09T13:51:43Z</time>
      </trkpt>
      <trkpt lat="43.04216" lon="2.29637">
        <ele>344.33</ele>
        <time>2010-12-09T13:51:48Z</time>
      </trkpt>
      <trkpt lat="43.04213" lon="2.2963">
        <ele>345.038</ele>
        <time>2010-12-09T13:51:53Z</time>
      </trkpt>
      <trkpt lat="43.04213" lon="2.29629">
        <ele>345.003</ele>
        <time>2010-12-09T13:51:54Z</time>
      </trkpt>
      <trkpt lat="43.04211" lon="2.2963">
        <ele>345.017</ele>
        <time>2010-12-09T13:52:04Z</time>
      </trkpt>
      <trkpt lat="43.04217" lon="2.29627">
        <ele>345.016</ele>
        <time>2010-12-09T13:54:02Z</time>
      </trkpt>
      <trkpt lat="43.04219" lon="2.29618">
        <ele>344.407</ele>
        <time>2010-12-09T13:54:09Z</time>
      </trkpt>
      <trkpt lat="43.04219" lon="2.29609">
        <ele>343.776</ele>
        <time>2010-12-09T13:54:15Z</time>
      </trkpt>
      <trkpt lat="43.04219" lon="2.29608">
        <ele>343.537</ele>
        <time>2010-12-09T13:54:16Z</time>
      </trkpt>
      <trkpt lat="43.0422" lon="2.29597">
        <ele>342.853</ele>
        <time>2010-12-09T13:54:49Z</time>
      </trkpt>
      <trkpt lat="43.04221" lon="2.29579">
        <ele>341.688</ele>
        <time>2010-12-09T13:54:54Z</time>
      </trkpt>
      <trkpt lat="43.0423" lon="2.29558">
        <ele>340.158</ele>
        <time>2010-12-09T13:54:58Z</time>
      </trkpt>
      <trkpt lat="43.04236" lon="2.29542">
        <ele>337.241</ele>
        <time>2010-12-09T13:55:01Z</time>
      </trkpt>
      <trkpt lat="43.04246" lon="2.29537">
        <ele>332.907</ele>
        <time>2010-12-09T13:55:05Z</time>
      </trkpt>
      <trkpt lat="43.04245" lon="2.29522">
        <ele>330.781</ele>
        <time>2010-12-09T13:55:09Z</time>
      </trkpt>
      <trkpt lat="43.04249" lon="2.29503">
        <ele>329.086</ele>
        <time>2010-12-09T13:55:12Z</time>
      </trkpt>
      <trkpt lat="43.0426" lon="2.29488">
        <ele>325.385</ele>
        <time>2010-12-09T13:55:15Z</time>
      </trkpt>
      <trkpt lat="43.04267" lon="2.2948">
        <ele>322.318</ele>
        <time>2010-12-09T13:55:17Z</time>
      </trkpt>
      <trkpt lat="43.0427" lon="2.29465">
        <ele>319.705</ele>
        <time>2010-12-09T13:55:20Z</time>
      </trkpt>
      <trkpt lat="43.04272" lon="2.29459">
        <ele>317.526</ele>
        <time>2010-12-09T13:55:21Z</time>
      </trkpt>
      <trkpt lat="43.04279" lon="2.29445">
        <ele>316.58</ele>
        <time>2010-12-09T13:55:23Z</time>
      </trkpt>
      <trkpt lat="43.04286" lon="2.29434">
        <ele>313.529</ele>
        <time>2010-12-09T13:55:25Z</time>
      </trkpt>
      <trkpt lat="43.04299" lon="2.29403">
        <ele>306.848</ele>
        <time>2010-12-09T13:55:30Z</time>
      </trkpt>
      <trkpt lat="43.04303" lon="2.29397">
        <ele>305.591</ele>
        <time>2010-12-09T13:55:31Z</time>
      </trkpt>
      <trkpt lat="43.04317" lon="2.29365">
        <ele>298.9</ele>
        <time>2010-12-09T13:55:36Z</time>
      </trkpt>
      <trkpt lat="43.04331" lon="2.29341">
        <ele>294.451</ele>
        <time>2010-12-09T13:55:40Z</time>
      </trkpt>
      <trkpt lat="43.04338" lon="2.29328">
        <ele>291.983</ele>
        <time>2010-12-09T13:55:42Z</time>
      </trkpt>
      <trkpt lat="43.04348" lon="2.29306">
        <ele>288.212</ele>
        <time>2010-12-09T13:55:46Z</time>
      </trkpt>
      <trkpt lat="43.04352" lon="2.293">
        <ele>287.002</ele>
        <time>2010-12-09T13:55:47Z</time>
      </trkpt>
      <trkpt lat="43.04371" lon="2.29292">
        <ele>282.045</ele>
        <time>2010-12-09T13:55:51Z</time>
      </trkpt>
      <trkpt lat="43.04379" lon="2.29298">
        <ele>279.485</ele>
        <time>2010-12-09T13:55:54Z</time>
      </trkpt>
      <trkpt lat="43.04382" lon="2.29287">
        <ele>277.677</ele>
        <time>2010-12-09T13:55:57Z</time>
      </trkpt>
      <trkpt lat="43.04378" lon="2.29277">
        <ele>276.434</ele>
        <time>2010-12-09T13:55:59Z</time>
      </trkpt>
      <trkpt lat="43.04354" lon="2.29266">
        <ele>274.177</ele>
        <time>2010-12-09T13:56:04Z</time>
      </trkpt>
      <trkpt lat="43.04323" lon="2.29264">
        <ele>269.939</ele>
        <time>2010-12-09T13:56:08Z</time>
      </trkpt>
      <trkpt lat="43.04306" lon="2.29264">
        <ele>267.428</ele>
        <time>2010-12-09T13:56:10Z</time>
      </trkpt>
      <trkpt lat="43.0428" lon="2.2927">
        <ele>263.51</ele>
        <time>2010-12-09T13:56:14Z</time>
      </trkpt>
      <trkpt lat="43.0426" lon="2.29257">
        <ele>259.685</ele>
        <time>2010-12-09T13:56:17Z</time>
      </trkpt>
      <trkpt lat="43.04243" lon="2.29235">
        <ele>254.805</ele>
        <time>2010-12-09T13:56:20Z</time>
      </trkpt>
      <trkpt lat="43.04229" lon="2.2921">
        <ele>249.834</ele>
        <time>2010-12-09T13:56:23Z</time>
      </trkpt>
      <trkpt lat="43.04203" lon="2.29191">
        <ele>242.822</ele>
        <time>2010-12-09T13:56:27Z</time>
      </trkpt>
      <trkpt lat="43.04151" lon="2.29178">
        <ele>234.218</ele>
        <time>2010-12-09T13:56:35Z</time>
      </trkpt>
      <trkpt lat="43.04136" lon="2.29176">
        <ele>233.667</ele>
        <time>2010-12-09T13:56:37Z</time>
      </trkpt>
      <trkpt lat="43.04115" lon="2.29164">
        <ele>231.155</ele>
        <time>2010-12-09T13:56:41Z</time>
      </trkpt>
      <trkpt lat="43.04114" lon="2.29151">
        <ele>229.828</ele>
        <time>2010-12-09T13:56:44Z</time>
      </trkpt>
      <trkpt lat="43.04124" lon="2.2913">
        <ele>229.478</ele>
        <time>2010-12-09T13:56:49Z</time>
      </trkpt>
      <trkpt lat="43.04143" lon="2.29102">
        <ele>229.208</ele>
        <time>2010-12-09T13:56:56Z</time>
      </trkpt>
      <trkpt lat="43.0415" lon="2.29099">
        <ele>229.104</ele>
        <time>2010-12-09T13:56:59Z</time>
      </trkpt>
      <trkpt lat="43.04148" lon="2.29093">
        <ele>229.374</ele>
        <time>2010-12-09T13:57:03Z</time>
      </trkpt>
      <trkpt lat="43.04144" lon="2.2908">
        <ele>229.283</ele>
        <time>2010-12-09T13:57:07Z</time>
      </trkpt>
      <trkpt lat="43.04145" lon="2.29056">
        <ele>229.128</ele>
        <time>2010-12-09T13:57:12Z</time>
      </trkpt>
      <trkpt lat="43.04145" lon="2.2903">
        <ele>228.939</ele>
        <time>2010-12-09T13:57:17Z</time>
      </trkpt>
      <trkpt lat="43.04142" lon="2.28996">
        <ele>228.984</ele>
        <time>2010-12-09T13:57:23Z</time>
      </trkpt>
      <trkpt lat="43.04138" lon="2.28965">
        <ele>228.57</ele>
        <time>2010-12-09T13:57:30Z</time>
      </trkpt>
      <trkpt lat="43.04135" lon="2.28951">
        <ele>228.249</ele>
        <time>2010-12-09T13:57:34Z</time>
      </trkpt>
      <trkpt lat="43.04132" lon="2.28949">
        <ele>228.192</ele>
        <time>2010-12-09T13:57:38Z</time>
      </trkpt>
      <trkpt lat="43.04133" lon="2.28954">
        <ele>227.971</ele>
        <time>2010-12-09T13:57:42Z</time>
      </trkpt>
      <trkpt lat="43.04138" lon="2.28975">
        <ele>227.837</ele>
        <time>2010-12-09T13:58:16Z</time>
      </trkpt>
      <trkpt lat="43.04138" lon="2.28982">
        <ele>227.951</ele>
        <time>2010-12-09T13:58:18Z</time>
      </trkpt>
      <trkpt lat="43.04141" lon="2.28988">
        <ele>228.142</ele>
        <time>2010-12-09T13:58:22Z</time>
      </trkpt>
      <trkpt lat="43.0414" lon="2.28978">
        <ele>228.178</ele>
        <time>2010-12-09T13:58:26Z</time>
      </trkpt>
      <trkpt lat="43.04137" lon="2.28957">
        <ele>228.555</ele>
        <time>2010-12-09T13:58:32Z</time>
      </trkpt>
      <trkpt lat="43.04145" lon="2.28949">
        <ele>228.629</ele>
        <time>2010-12-09T13:58:36Z</time>
      </trkpt>
      <trkpt lat="43.04157" lon="2.28946">
        <ele>228.821</ele>
        <time>2010-12-09T13:58:42Z</time>
      </trkpt>
      <trkpt lat="43.04161" lon="2.28944">
        <ele>228.945</ele>
        <time>2010-12-09T13:58:47Z</time>
      </trkpt>
      <trkpt lat="43.04176" lon="2.2893">
        <ele>229.671</ele>
        <time>2010-12-09T13:59:03Z</time>
      </trkpt>
      <trkpt lat="43.04186" lon="2.28915">
        <ele>231.488</ele>
        <time>2010-12-09T13:59:09Z</time>
      </trkpt>
      <trkpt lat="43.04193" lon="2.28898">
        <ele>233.262</ele>
        <time>2010-12-09T13:59:16Z</time>
      </trkpt>
      <trkpt lat="43.04197" lon="2.2888">
        <ele>234.922</ele>
        <time>2010-12-09T13:59:23Z</time>
      </trkpt>
      <trkpt lat="43.04197" lon="2.28867">
        <ele>236.833</ele>
        <time>2010-12-09T13:59:28Z</time>
      </trkpt>
      <trkpt lat="43.04198" lon="2.28859">
        <ele>236.851</ele>
        <time>2010-12-09T13:59:34Z</time>
      </trkpt>
      <trkpt lat="43.04198" lon="2.28857">
        <ele>236.984</ele>
        <time>2010-12-09T13:59:36Z</time>
      </trkpt>
      <trkpt lat="43.04196" lon="2.2885">
        <ele>236.949</ele>
        <time>2010-12-09T13:59:40Z</time>
      </trkpt>
      <trkpt lat="43.04194" lon="2.2884">
        <ele>237.41</ele>
        <time>2010-12-09T13:59:45Z</time>
      </trkpt>
      <trkpt lat="43.04193" lon="2.28836">
        <ele>237.62</ele>
        <time>2010-12-09T13:59:49Z</time>
      </trkpt>
      <trkpt lat="43.04196" lon="2.28851">
        <ele>237.429</ele>
        <time>2010-12-09T13:59:55Z</time>
      </trkpt>
      <trkpt lat="43.04203" lon="2.28867">
        <ele>237.066</ele>
        <time>2010-12-09T14:00:00Z</time>
      </trkpt>
      <trkpt lat="43.04207" lon="2.28884">
        <ele>238.514</ele>
        <time>2010-12-09T14:00:06Z</time>
      </trkpt>
      <trkpt lat="43.04212" lon="2.28911">
        <ele>242.012</ele>
        <time>2010-12-09T14:00:15Z</time>
      </trkpt>
      <trkpt lat="43.04216" lon="2.28929">
        <ele>243.677</ele>
        <time>2010-12-09T14:00:22Z</time>
      </trkpt>
      <trkpt lat="43.04219" lon="2.28943">
        <ele>245.719</ele>
        <time>2010-12-09T14:00:28Z</time>
      </trkpt>
      <trkpt lat="43.04226" lon="2.28964">
        <ele>248.197</ele>
        <time>2010-12-09T14:00:36Z</time>
      </trkpt>
      <trkpt lat="43.04235" lon="2.28985">
        <ele>250.794</ele>
        <time>2010-12-09T14:00:44Z</time>
      </trkpt>
      <trkpt lat="43.04241" lon="2.28996">
        <ele>252.096</ele>
        <time>2010-12-09T14:00:49Z</time>
      </trkpt>
      <trkpt lat="43.04249" lon="2.29013">
        <ele>255.51</ele>
        <time>2010-12-09T14:00:56Z</time>
      </trkpt>
      <trkpt lat="43.0426" lon="2.29014">
        <ele>258.835</ele>
        <time>2010-12-09T14:01:02Z</time>
      </trkpt>
      <trkpt lat="43.0427" lon="2.29005">
        <ele>261.224</ele>
        <time>2010-12-09T14:01:08Z</time>
      </trkpt>
      <trkpt lat="43.04281" lon="2.29003">
        <ele>262.535</ele>
        <time>2010-12-09T14:01:14Z</time>
      </trkpt>
      <trkpt lat="43.04296" lon="2.28999">
        <ele>264.831</ele>
        <time>2010-12-09T14:01:22Z</time>
      </trkpt>
      <trkpt lat="43.0431" lon="2.29">
        <ele>267.079</ele>
        <time>2010-12-09T14:01:30Z</time>
      </trkpt>
      <trkpt lat="43.04323" lon="2.29008">
        <ele>268.63</ele>
        <time>2010-12-09T14:01:38Z</time>
      </trkpt>
      <trkpt lat="43.04336" lon="2.29017">
        <ele>270.261</ele>
        <time>2010-12-09T14:01:46Z</time>
      </trkpt>
      <trkpt lat="43.04352" lon="2.29027">
        <ele>271.91</ele>
        <time>2010-12-09T14:01:56Z</time>
      </trkpt>
      <trkpt lat="43.04366" lon="2.29029">
        <ele>274.052</ele>
        <time>2010-12-09T14:02:04Z</time>
      </trkpt>
      <trkpt lat="43.04367" lon="2.29028">
        <ele>274.05</ele>
        <time>2010-12-09T14:02:05Z</time>
      </trkpt>
      <trkpt lat="43.04375" lon="2.29026">
        <ele>274.611</ele>
        <time>2010-12-09T14:02:10Z</time>
      </trkpt>
      <trkpt lat="43.0438" lon="2.29025">
        <ele>274.631</ele>
        <time>2010-12-09T14:02:14Z</time>
      </trkpt>
      <trkpt lat="43.04394" lon="2.29023">
        <ele>274.373</ele>
        <time>2010-12-09T14:02:21Z</time>
      </trkpt>
      <trkpt lat="43.04403" lon="2.29022">
        <ele>273.493</ele>
        <time>2010-12-09T14:02:27Z</time>
      </trkpt>
      <trkpt lat="43.04408" lon="2.29022">
        <ele>273.59</ele>
        <time>2010-12-09T14:02:54Z</time>
      </trkpt>
      <trkpt lat="43.04425" lon="2.29023">
        <ele>273.259</ele>
        <time>2010-12-09T14:03:03Z</time>
      </trkpt>
      <trkpt lat="43.04436" lon="2.29028">
        <ele>273.264</ele>
        <time>2010-12-09T14:03:10Z</time>
      </trkpt>
      <trkpt lat="43.04449" lon="2.29035">
        <ele>274.195</ele>
        <time>2010-12-09T14:03:18Z</time>
      </trkpt>
      <trkpt lat="43.04455" lon="2.29039">
        <ele>274.183</ele>
        <time>2010-12-09T14:03:23Z</time>
      </trkpt>
      <trkpt lat="43.04455" lon="2.29039">
        <ele>274.263</ele>
        <time>2010-12-09T14:03:24Z</time>
      </trkpt>
      <trkpt lat="43.04458" lon="2.29041">
        <ele>274.512</ele>
        <time>2010-12-09T14:04:08Z</time>
      </trkpt>
      <trkpt lat="43.04459" lon="2.29041">
        <ele>274.141</ele>
        <time>2010-12-09T14:05:27Z</time>
      </trkpt>
      <trkpt lat="43.0447" lon="2.29048">
        <ele>274.854</ele>
        <time>2010-12-09T14:05:33Z</time>
      </trkpt>
      <trkpt lat="43.04482" lon="2.29054">
        <ele>276.725</ele>
        <time>2010-12-09T14:05:39Z</time>
      </trkpt>
      <trkpt lat="43.04484" lon="2.29048">
        <ele>277.724</ele>
        <time>2010-12-09T14:05:44Z</time>
      </trkpt>
      <trkpt lat="43.04483" lon="2.29046">
        <ele>277.724</ele>
        <time>2010-12-09T14:05:45Z</time>
      </trkpt>
      <trkpt lat="43.04474" lon="2.2903">
        <ele>279.613</ele>
        <time>2010-12-09T14:05:52Z</time>
      </trkpt>
      <trkpt lat="43.04466" lon="2.29">
        <ele>280.851</ele>
        <time>2010-12-09T14:06:01Z</time>
      </trkpt>
      <trkpt lat="43.04464" lon="2.2899">
        <ele>281.28</ele>
        <time>2010-12-09T14:06:04Z</time>
      </trkpt>
      <trkpt lat="43.04468" lon="2.28985">
        <ele>281.831</ele>
        <time>2010-12-09T14:06:08Z</time>
      </trkpt>
      <trkpt lat="43.04469" lon="2.28988">
        <ele>282.022</ele>
        <time>2010-12-09T14:06:09Z</time>
      </trkpt>
      <trkpt lat="43.04483" lon="2.29023">
        <ele>281.982</ele>
        <time>2010-12-09T14:06:17Z</time>
      </trkpt>
      <trkpt lat="43.04501" lon="2.29054">
        <ele>281.726</ele>
        <time>2010-12-09T14:06:24Z</time>
      </trkpt>
      <trkpt lat="43.04518" lon="2.29085">
        <ele>282.53</ele>
        <time>2010-12-09T14:06:31Z</time>
      </trkpt>
      <trkpt lat="43.04536" lon="2.29113">
        <ele>282.888</ele>
        <time>2010-12-09T14:06:38Z</time>
      </trkpt>
      <trkpt lat="43.0455" lon="2.2914">
        <ele>282.838</ele>
        <time>2010-12-09T14:06:45Z</time>
      </trkpt>
      <trkpt lat="43.04562" lon="2.29156">
        <ele>282.553</ele>
        <time>2010-12-09T14:06:51Z</time>
      </trkpt>
      <trkpt lat="43.04583" lon="2.2917">
        <ele>282.842</ele>
        <time>2010-12-09T14:06:58Z</time>
      </trkpt>
      <trkpt lat="43.04614" lon="2.29183">
        <ele>281.997</ele>
        <time>2010-12-09T14:07:06Z</time>
      </trkpt>
      <trkpt lat="43.04639" lon="2.29201">
        <ele>282.207</ele>
        <time>2010-12-09T14:07:13Z</time>
      </trkpt>
      <trkpt lat="43.04659" lon="2.29209">
        <ele>283.097</ele>
        <time>2010-12-09T14:07:19Z</time>
      </trkpt>
      <trkpt lat="43.04687" lon="2.29213">
        <ele>281.58</ele>
        <time>2010-12-09T14:07:25Z</time>
      </trkpt>
      <trkpt lat="43.04712" lon="2.29217">
        <ele>280.833</ele>
        <time>2010-12-09T14:07:30Z</time>
      </trkpt>
      <trkpt lat="43.04746" lon="2.29227">
        <ele>280.62</ele>
        <time>2010-12-09T14:07:38Z</time>
      </trkpt>
      <trkpt lat="43.04782" lon="2.29238">
        <ele>280.582</ele>
        <time>2010-12-09T14:07:47Z</time>
      </trkpt>
      <trkpt lat="43.04814" lon="2.29241">
        <ele>279.145</ele>
        <time>2010-12-09T14:07:53Z</time>
      </trkpt>
      <trkpt lat="43.04824" lon="2.29242">
        <ele>278.911</ele>
        <time>2010-12-09T14:07:55Z</time>
      </trkpt>
      <trkpt lat="43.04839" lon="2.29242">
        <ele>278.526</ele>
        <time>2010-12-09T14:07:59Z</time>
      </trkpt>
      <trkpt lat="43.04841" lon="2.29242">
        <ele>278.471</ele>
        <time>2010-12-09T14:08:00Z</time>
      </trkpt>
      <trkpt lat="43.0486" lon="2.29254">
        <ele>278.918</ele>
        <time>2010-12-09T14:08:07Z</time>
      </trkpt>
      <trkpt lat="43.04886" lon="2.29272">
        <ele>280.353</ele>
        <time>2010-12-09T14:08:17Z</time>
      </trkpt>
      <trkpt lat="43.04906" lon="2.29277">
        <ele>281.468</ele>
        <time>2010-12-09T14:08:25Z</time>
      </trkpt>
      <trkpt lat="43.04924" lon="2.29283">
        <ele>283.201</ele>
        <time>2010-12-09T14:08:33Z</time>
      </trkpt>
      <trkpt lat="43.0494" lon="2.29293">
        <ele>285.034</ele>
        <time>2010-12-09T14:08:41Z</time>
      </trkpt>
      <trkpt lat="43.04953" lon="2.29303">
        <ele>287.02</ele>
        <time>2010-12-09T14:08:48Z</time>
      </trkpt>
      <trkpt lat="43.04962" lon="2.29304">
        <ele>288.025</ele>
        <time>2010-12-09T14:08:53Z</time>
      </trkpt>
      <trkpt lat="43.04978" lon="2.293">
        <ele>289.263</ele>
        <time>2010-12-09T14:09:01Z</time>
      </trkpt>
      <trkpt lat="43.04981" lon="2.29298">
        <ele>289.591</ele>
        <time>2010-12-09T14:09:06Z</time>
      </trkpt>
      <trkpt lat="43.04981" lon="2.29298">
        <ele>289.775</ele>
        <time>2010-12-09T14:09:07Z</time>
      </trkpt>
      <trkpt lat="43.0499" lon="2.29293">
        <ele>289.889</ele>
        <time>2010-12-09T14:09:18Z</time>
      </trkpt>
      <trkpt lat="43.04995" lon="2.29286">
        <ele>290.183</ele>
        <time>2010-12-09T14:09:21Z</time>
      </trkpt>
      <trkpt lat="43.04998" lon="2.29257">
        <ele>291.258</ele>
        <time>2010-12-09T14:09:29Z</time>
      </trkpt>
      <trkpt lat="43.05002" lon="2.2922">
        <ele>291.341</ele>
        <time>2010-12-09T14:09:38Z</time>
      </trkpt>
      <trkpt lat="43.05003" lon="2.29187">
        <ele>291.516</ele>
        <time>2010-12-09T14:09:44Z</time>
      </trkpt>
      <trkpt lat="43.05001" lon="2.29166">
        <ele>291.124</ele>
        <time>2010-12-09T14:09:47Z</time>
      </trkpt>
      <trkpt lat="43.04988" lon="2.29122">
        <ele>290.145</ele>
        <time>2010-12-09T14:09:53Z</time>
      </trkpt>
      <trkpt lat="43.04991" lon="2.29095">
        <ele>289.504</ele>
        <time>2010-12-09T14:09:57Z</time>
      </trkpt>
      <trkpt lat="43.04996" lon="2.29085">
        <ele>289.09</ele>
        <time>2010-12-09T14:09:59Z</time>
      </trkpt>
      <trkpt lat="43.05002" lon="2.29058">
        <ele>289.85</ele>
        <time>2010-12-09T14:10:04Z</time>
      </trkpt>
      <trkpt lat="43.05002" lon="2.29006">
        <ele>290.543</ele>
        <time>2010-12-09T14:10:13Z</time>
      </trkpt>
      <trkpt lat="43.05012" lon="2.28961">
        <ele>291.147</ele>
        <time>2010-12-09T14:10:21Z</time>
      </trkpt>
      <trkpt lat="43.05029" lon="2.28917">
        <ele>292.011</ele>
        <time>2010-12-09T14:10:29Z</time>
      </trkpt>
      <trkpt lat="43.05047" lon="2.28873">
        <ele>290.802</ele>
        <time>2010-12-09T14:10:35Z</time>
      </trkpt>
      <trkpt lat="43.05072" lon="2.28835">
        <ele>287.367</ele>
        <time>2010-12-09T14:10:40Z</time>
      </trkpt>
      <trkpt lat="43.05108" lon="2.28795">
        <ele>285.554</ele>
        <time>2010-12-09T14:10:46Z</time>
      </trkpt>
      <trkpt lat="43.05136" lon="2.28772">
        <ele>285.423</ele>
        <time>2010-12-09T14:10:51Z</time>
      </trkpt>
      <trkpt lat="43.05158" lon="2.2876">
        <ele>286.929</ele>
        <time>2010-12-09T14:10:56Z</time>
      </trkpt>
      <trkpt lat="43.05179" lon="2.28743">
        <ele>289.385</ele>
        <time>2010-12-09T14:11:03Z</time>
      </trkpt>
      <trkpt lat="43.05201" lon="2.28716">
        <ele>293.572</ele>
        <time>2010-12-09T14:11:12Z</time>
      </trkpt>
      <trkpt lat="43.05224" lon="2.28682">
        <ele>295.906</ele>
        <time>2010-12-09T14:11:21Z</time>
      </trkpt>
      <trkpt lat="43.05234" lon="2.28669">
        <ele>295.755</ele>
        <time>2010-12-09T14:11:24Z</time>
      </trkpt>
      <trkpt lat="43.05252" lon="2.28656">
        <ele>295.498</ele>
        <time>2010-12-09T14:11:28Z</time>
      </trkpt>
      <trkpt lat="43.05273" lon="2.28645">
        <ele>294.745</ele>
        <time>2010-12-09T14:11:32Z</time>
      </trkpt>
      <trkpt lat="43.05307" lon="2.28617">
        <ele>293.374</ele>
        <time>2010-12-09T14:11:40Z</time>
      </trkpt>
      <trkpt lat="43.05323" lon="2.28608">
        <ele>294.013</ele>
        <time>2010-12-09T14:11:45Z</time>
      </trkpt>
      <trkpt lat="43.05326" lon="2.28607">
        <ele>294.25</ele>
        <time>2010-12-09T14:11:47Z</time>
      </trkpt>
      <trkpt lat="43.05325" lon="2.28606">
        <ele>294.559</ele>
        <time>2010-12-09T14:11:51Z</time>
      </trkpt>
      <trkpt lat="43.0531" lon="2.28618">
        <ele>294.395</ele>
        <time>2010-12-09T14:11:57Z</time>
      </trkpt>
      <trkpt lat="43.05282" lon="2.28639">
        <ele>293.453</ele>
        <time>2010-12-09T14:12:05Z</time>
      </trkpt>
      <trkpt lat="43.05274" lon="2.28646">
        <ele>293.746</ele>
        <time>2010-12-09T14:12:08Z</time>
      </trkpt>
      <trkpt lat="43.05274" lon="2.28663">
        <ele>292.913</ele>
        <time>2010-12-09T14:12:12Z</time>
      </trkpt>
      <trkpt lat="43.05277" lon="2.28678">
        <ele>292.091</ele>
        <time>2010-12-09T14:12:14Z</time>
      </trkpt>
      <trkpt lat="43.05282" lon="2.2871">
        <ele>290.028</ele>
        <time>2010-12-09T14:12:17Z</time>
      </trkpt>
      <trkpt lat="43.05285" lon="2.28721">
        <ele>287.476</ele>
        <time>2010-12-09T14:12:18Z</time>
      </trkpt>
      <trkpt lat="43.05304" lon="2.28752">
        <ele>283.702</ele>
        <time>2010-12-09T14:12:22Z</time>
      </trkpt>
      <trkpt lat="43.05348" lon="2.28797">
        <ele>276.596</ele>
        <time>2010-12-09T14:12:28Z</time>
      </trkpt>
      <trkpt lat="43.05367" lon="2.28839">
        <ele>272.33</ele>
        <time>2010-12-09T14:12:32Z</time>
      </trkpt>
      <trkpt lat="43.05364" lon="2.28866">
        <ele>270.106</ele>
        <time>2010-12-09T14:12:35Z</time>
      </trkpt>
      <trkpt lat="43.05362" lon="2.28878">
        <ele>268.934</ele>
        <time>2010-12-09T14:12:37Z</time>
      </trkpt>
      <trkpt lat="43.05361" lon="2.28896">
        <ele>268.128</ele>
        <time>2010-12-09T14:12:43Z</time>
      </trkpt>
      <trkpt lat="43.05364" lon="2.28927">
        <ele>268.299</ele>
        <time>2010-12-09T14:12:49Z</time>
      </trkpt>
      <trkpt lat="43.05372" lon="2.28966">
        <ele>267.072</ele>
        <time>2010-12-09T14:12:55Z</time>
      </trkpt>
      <trkpt lat="43.05374" lon="2.29008">
        <ele>266.097</ele>
        <time>2010-12-09T14:13:01Z</time>
      </trkpt>
      <trkpt lat="43.05375" lon="2.29021">
        <ele>265.808</ele>
        <time>2010-12-09T14:13:03Z</time>
      </trkpt>
      <trkpt lat="43.05379" lon="2.29042">
        <ele>265.152</ele>
        <time>2010-12-09T14:13:06Z</time>
      </trkpt>
      <trkpt lat="43.0539" lon="2.29062">
        <ele>262.837</ele>
        <time>2010-12-09T14:13:10Z</time>
      </trkpt>
      <trkpt lat="43.05409" lon="2.29102">
        <ele>258.789</ele>
        <time>2010-12-09T14:13:15Z</time>
      </trkpt>
      <trkpt lat="43.05412" lon="2.29113">
        <ele>257.523</ele>
        <time>2010-12-09T14:13:16Z</time>
      </trkpt>
      <trkpt lat="43.05416" lon="2.29162">
        <ele>251.599</ele>
        <time>2010-12-09T14:13:20Z</time>
      </trkpt>
      <trkpt lat="43.05416" lon="2.29174">
        <ele>250.471</ele>
        <time>2010-12-09T14:13:21Z</time>
      </trkpt>
      <trkpt lat="43.05424" lon="2.29213">
        <ele>248.219</ele>
        <time>2010-12-09T14:13:25Z</time>
      </trkpt>
      <trkpt lat="43.05428" lon="2.29219">
        <ele>248.105</ele>
        <time>2010-12-09T14:13:26Z</time>
      </trkpt>
      <trkpt lat="43.05438" lon="2.29244">
        <ele>249.186</ele>
        <time>2010-12-09T14:13:31Z</time>
      </trkpt>
      <trkpt lat="43.05439" lon="2.29274">
        <ele>250.194</ele>
        <time>2010-12-09T14:13:36Z</time>
      </trkpt>
      <trkpt lat="43.05441" lon="2.29311">
        <ele>248.343</ele>
        <time>2010-12-09T14:13:40Z</time>
      </trkpt>
      <trkpt lat="43.05445" lon="2.29342">
        <ele>246.557</ele>
        <time>2010-12-09T14:13:43Z</time>
      </trkpt>
      <trkpt lat="43.05448" lon="2.29362">
        <ele>245.835</ele>
        <time>2010-12-09T14:13:45Z</time>
      </trkpt>
      <trkpt lat="43.05462" lon="2.29399">
        <ele>245.293</ele>
        <time>2010-12-09T14:13:50Z</time>
      </trkpt>
      <trkpt lat="43.05466" lon="2.29411">
        <ele>245.24</ele>
        <time>2010-12-09T14:13:52Z</time>
      </trkpt>
      <trkpt lat="43.05487" lon="2.29443">
        <ele>243.81</ele>
        <time>2010-12-09T14:13:57Z</time>
      </trkpt>
      <trkpt lat="43.055" lon="2.2946">
        <ele>241.645</ele>
        <time>2010-12-09T14:14:00Z</time>
      </trkpt>
      <trkpt lat="43.05497" lon="2.29473">
        <ele>240.271</ele>
        <time>2010-12-09T14:14:02Z</time>
      </trkpt>
      <trkpt lat="43.05493" lon="2.29484">
        <ele>239.591</ele>
        <time>2010-12-09T14:14:04Z</time>
      </trkpt>
      <trkpt lat="43.0547" lon="2.2953">
        <ele>240.936</ele>
        <time>2010-12-09T14:14:13Z</time>
      </trkpt>
      <trkpt lat="43.05449" lon="2.29576">
        <ele>243.5</ele>
        <time>2010-12-09T14:14:23Z</time>
      </trkpt>
      <trkpt lat="43.05431" lon="2.29626">
        <ele>247.3</ele>
        <time>2010-12-09T14:14:34Z</time>
      </trkpt>
      <trkpt lat="43.0542" lon="2.29666">
        <ele>251.127</ele>
        <time>2010-12-09T14:14:43Z</time>
      </trkpt>
      <trkpt lat="43.05415" lon="2.29682">
        <ele>252.57</ele>
        <time>2010-12-09T14:14:47Z</time>
      </trkpt>
      <trkpt lat="43.05419" lon="2.29684">
        <ele>254.326</ele>
        <time>2010-12-09T14:14:51Z</time>
      </trkpt>
      <trkpt lat="43.05436" lon="2.29666">
        <ele>253.931</ele>
        <time>2010-12-09T14:14:58Z</time>
      </trkpt>
      <trkpt lat="43.05462" lon="2.29636">
        <ele>252.888</ele>
        <time>2010-12-09T14:15:05Z</time>
      </trkpt>
      <trkpt lat="43.05494" lon="2.29598">
        <ele>250.822</ele>
        <time>2010-12-09T14:15:12Z</time>
      </trkpt>
      <trkpt lat="43.05533" lon="2.29551">
        <ele>247.753</ele>
        <time>2010-12-09T14:15:20Z</time>
      </trkpt>
      <trkpt lat="43.05565" lon="2.29515">
        <ele>246.489</ele>
        <time>2010-12-09T14:15:26Z</time>
      </trkpt>
      <trkpt lat="43.05592" lon="2.29504">
        <ele>245.095</ele>
        <time>2010-12-09T14:15:30Z</time>
      </trkpt>
      <trkpt lat="43.05615" lon="2.29512">
        <ele>244.146</ele>
        <time>2010-12-09T14:15:33Z</time>
      </trkpt>
      <trkpt lat="43.05641" lon="2.29539">
        <ele>243.088</ele>
        <time>2010-12-09T14:15:37Z</time>
      </trkpt>
      <trkpt lat="43.05651" lon="2.29572">
        <ele>241.653</ele>
        <time>2010-12-09T14:15:40Z</time>
      </trkpt>
      <trkpt lat="43.05668" lon="2.29641">
        <ele>239.175</ele>
        <time>2010-12-09T14:15:46Z</time>
      </trkpt>
      <trkpt lat="43.05698" lon="2.29705">
        <ele>235.489</ele>
        <time>2010-12-09T14:15:52Z</time>
      </trkpt>
      <trkpt lat="43.05717" lon="2.29746">
        <ele>233.711</ele>
        <time>2010-12-09T14:15:56Z</time>
      </trkpt>
      <trkpt lat="43.05731" lon="2.2981">
        <ele>232.686</ele>
        <time>2010-12-09T14:16:02Z</time>
      </trkpt>
      <trkpt lat="43.05746" lon="2.29887">
        <ele>232.054</ele>
        <time>2010-12-09T14:16:10Z</time>
      </trkpt>
      <trkpt lat="43.05757" lon="2.29946">
        <ele>230.911</ele>
        <time>2010-12-09T14:16:17Z</time>
      </trkpt>
      <trkpt lat="43.05772" lon="2.30006">
        <ele>230.33</ele>
        <time>2010-12-09T14:16:25Z</time>
      </trkpt>
      <trkpt lat="43.05793" lon="2.30072">
        <ele>229.371</ele>
        <time>2010-12-09T14:16:34Z</time>
      </trkpt>
      <trkpt lat="43.05809" lon="2.30115">
        <ele>229.049</ele>
        <time>2010-12-09T14:16:40Z</time>
      </trkpt>
      <trkpt lat="43.05835" lon="2.30161">
        <ele>228.612</ele>
        <time>2010-12-09T14:16:47Z</time>
      </trkpt>
      <trkpt lat="43.05867" lon="2.30202">
        <ele>227.668</ele>
        <time>2010-12-09T14:16:54Z</time>
      </trkpt>
      <trkpt lat="43.05924" lon="2.30263">
        <ele>226.629</ele>
        <time>2010-12-09T14:17:05Z</time>
      </trkpt>
      <trkpt lat="43.05982" lon="2.30325">
        <ele>224.237</ele>
        <time>2010-12-09T14:17:16Z</time>
      </trkpt>
      <trkpt lat="43.05999" lon="2.30343">
        <ele>224</ele>
        <time>2010-12-09T14:17:19Z</time>
      </trkpt>
      <trkpt lat="43.06012" lon="2.30377">
        <ele>223.64</ele>
        <time>2010-12-09T14:17:23Z</time>
      </trkpt>
      <trkpt lat="43.06011" lon="2.30396">
        <ele>223.613</ele>
        <time>2010-12-09T14:17:25Z</time>
      </trkpt>
      <trkpt lat="43.05992" lon="2.30483">
        <ele>222.827</ele>
        <time>2010-12-09T14:17:34Z</time>
      </trkpt>
      <trkpt lat="43.05996" lon="2.30524">
        <ele>221.627</ele>
        <time>2010-12-09T14:17:38Z</time>
      </trkpt>
      <trkpt lat="43.06004" lon="2.30542">
        <ele>221.119</ele>
        <time>2010-12-09T14:17:40Z</time>
      </trkpt>
      <trkpt lat="43.06052" lon="2.30623">
        <ele>220.222</ele>
        <time>2010-12-09T14:17:50Z</time>
      </trkpt>
      <trkpt lat="43.0608" lon="2.30638">
        <ele>219.723</ele>
        <time>2010-12-09T14:17:54Z</time>
      </trkpt>
      <trkpt lat="43.06088" lon="2.30638">
        <ele>219.525</ele>
        <time>2010-12-09T14:17:55Z</time>
      </trkpt>
      <trkpt lat="43.06142" lon="2.30635">
        <ele>217.843</ele>
        <time>2010-12-09T14:18:02Z</time>
      </trkpt>
      <trkpt lat="43.0621" lon="2.30655">
        <ele>217.149</ele>
        <time>2010-12-09T14:18:11Z</time>
      </trkpt>
      <trkpt lat="43.06251" lon="2.3068">
        <ele>216.283</ele>
        <time>2010-12-09T14:18:17Z</time>
      </trkpt>
      <trkpt lat="43.06302" lon="2.30726">
        <ele>214.888</ele>
        <time>2010-12-09T14:18:25Z</time>
      </trkpt>
      <trkpt lat="43.06361" lon="2.3078">
        <ele>212.805</ele>
        <time>2010-12-09T14:18:34Z</time>
      </trkpt>
      <trkpt lat="43.06405" lon="2.30809">
        <ele>211.218</ele>
        <time>2010-12-09T14:18:40Z</time>
      </trkpt>
      <trkpt lat="43.06413" lon="2.30812">
        <ele>211.123</ele>
        <time>2010-12-09T14:18:41Z</time>
      </trkpt>
      <trkpt lat="43.06463" lon="2.30815">
        <ele>209.4</ele>
        <time>2010-12-09T14:18:47Z</time>
      </trkpt>
      <trkpt lat="43.0653" lon="2.30813">
        <ele>206.96</ele>
        <time>2010-12-09T14:18:55Z</time>
      </trkpt>
      <trkpt lat="43.0657" lon="2.30825">
        <ele>205.785</ele>
        <time>2010-12-09T14:19:00Z</time>
      </trkpt>
      <trkpt lat="43.06602" lon="2.30849">
        <ele>206.343</ele>
        <time>2010-12-09T14:19:05Z</time>
      </trkpt>
      <trkpt lat="43.06654" lon="2.309">
        <ele>207.63</ele>
        <time>2010-12-09T14:19:14Z</time>
      </trkpt>
      <trkpt lat="43.06699" lon="2.30944">
        <ele>208.205</ele>
        <time>2010-12-09T14:19:21Z</time>
      </trkpt>
      <trkpt lat="43.06742" lon="2.30987">
        <ele>205.862</ele>
        <time>2010-12-09T14:19:27Z</time>
      </trkpt>
      <trkpt lat="43.06805" lon="2.31051">
        <ele>199.073</ele>
        <time>2010-12-09T14:19:35Z</time>
      </trkpt>
      <trkpt lat="43.06861" lon="2.311">
        <ele>197.322</ele>
        <time>2010-12-09T14:19:42Z</time>
      </trkpt>
      <trkpt lat="43.06869" lon="2.31105">
        <ele>196.998</ele>
        <time>2010-12-09T14:19:43Z</time>
      </trkpt>
      <trkpt lat="43.06905" lon="2.31114">
        <ele>195.459</ele>
        <time>2010-12-09T14:19:47Z</time>
      </trkpt>
      <trkpt lat="43.06984" lon="2.31111">
        <ele>194.077</ele>
        <time>2010-12-09T14:19:56Z</time>
      </trkpt>
      <trkpt lat="43.07009" lon="2.31107">
        <ele>194.205</ele>
        <time>2010-12-09T14:19:59Z</time>
      </trkpt>
      <trkpt lat="43.07049" lon="2.31088">
        <ele>193.737</ele>
        <time>2010-12-09T14:20:04Z</time>
      </trkpt>
      <trkpt lat="43.07085" lon="2.31055">
        <ele>192.997</ele>
        <time>2010-12-09T14:20:09Z</time>
      </trkpt>
      <trkpt lat="43.07128" lon="2.31022">
        <ele>192.059</ele>
        <time>2010-12-09T14:20:15Z</time>
      </trkpt>
      <trkpt lat="43.07175" lon="2.30997">
        <ele>191.245</ele>
        <time>2010-12-09T14:20:22Z</time>
      </trkpt>
      <trkpt lat="43.07201" lon="2.30998">
        <ele>190.315</ele>
        <time>2010-12-09T14:20:26Z</time>
      </trkpt>
      <trkpt lat="43.07211" lon="2.31007">
        <ele>190.039</ele>
        <time>2010-12-09T14:20:28Z</time>
      </trkpt>
      <trkpt lat="43.07239" lon="2.31035">
        <ele>190.052</ele>
        <time>2010-12-09T14:20:34Z</time>
      </trkpt>
      <trkpt lat="43.07266" lon="2.31058">
        <ele>190.203</ele>
        <time>2010-12-09T14:20:41Z</time>
      </trkpt>
      <trkpt lat="43.07293" lon="2.31078">
        <ele>190.465</ele>
        <time>2010-12-09T14:20:48Z</time>
      </trkpt>
      <trkpt lat="43.07335" lon="2.311">
        <ele>190.61</ele>
        <time>2010-12-09T14:20:57Z</time>
      </trkpt>
      <trkpt lat="43.0738" lon="2.31114">
        <ele>190.544</ele>
        <time>2010-12-09T14:21:06Z</time>
      </trkpt>
      <trkpt lat="43.07426" lon="2.3112">
        <ele>190.644</ele>
        <time>2010-12-09T14:21:14Z</time>
      </trkpt>
      <trkpt lat="43.07488" lon="2.31118">
        <ele>189.408</ele>
        <time>2010-12-09T14:21:24Z</time>
      </trkpt>
      <trkpt lat="43.0755" lon="2.31116">
        <ele>188.385</ele>
        <time>2010-12-09T14:21:33Z</time>
      </trkpt>
      <trkpt lat="43.07601" lon="2.31122">
        <ele>186.256</ele>
        <time>2010-12-09T14:21:40Z</time>
      </trkpt>
      <trkpt lat="43.07634" lon="2.31142">
        <ele>184.924</ele>
        <time>2010-12-09T14:21:45Z</time>
      </trkpt>
      <trkpt lat="43.0767" lon="2.31182">
        <ele>183.799</ele>
        <time>2010-12-09T14:21:51Z</time>
      </trkpt>
      <trkpt lat="43.07718" lon="2.31247">
        <ele>182.401</ele>
        <time>2010-12-09T14:22:00Z</time>
      </trkpt>
      <trkpt lat="43.07749" lon="2.31301">
        <ele>181.685</ele>
        <time>2010-12-09T14:22:07Z</time>
      </trkpt>
      <trkpt lat="43.0779" lon="2.31382">
        <ele>180.792</ele>
        <time>2010-12-09T14:22:17Z</time>
      </trkpt>
      <trkpt lat="43.07834" lon="2.3147">
        <ele>179.97</ele>
        <time>2010-12-09T14:22:28Z</time>
      </trkpt>
      <trkpt lat="43.07877" lon="2.31558">
        <ele>179.77</ele>
        <time>2010-12-09T14:22:39Z</time>
      </trkpt>
      <trkpt lat="43.07924" lon="2.31652">
        <ele>178.088</ele>
        <time>2010-12-09T14:22:51Z</time>
      </trkpt>
      <trkpt lat="43.07958" lon="2.31721">
        <ele>176.615</ele>
        <time>2010-12-09T14:23:00Z</time>
      </trkpt>
      <trkpt lat="43.08001" lon="2.31797">
        <ele>174.984</ele>
        <time>2010-12-09T14:23:10Z</time>
      </trkpt>
      <trkpt lat="43.0803" lon="2.31827">
        <ele>174.775</ele>
        <time>2010-12-09T14:23:15Z</time>
      </trkpt>
      <trkpt lat="43.08072" lon="2.3185">
        <ele>174.534</ele>
        <time>2010-12-09T14:23:21Z</time>
      </trkpt>
      <trkpt lat="43.08124" lon="2.31872">
        <ele>173.939</ele>
        <time>2010-12-09T14:23:29Z</time>
      </trkpt>
      <trkpt lat="43.08172" lon="2.31893">
        <ele>173.24</ele>
        <time>2010-12-09T14:23:37Z</time>
      </trkpt>
      <trkpt lat="43.0824" lon="2.31922">
        <ele>172.941</ele>
        <time>2010-12-09T14:23:49Z</time>
      </trkpt>
      <trkpt lat="43.08274" lon="2.31931">
        <ele>172.089</ele>
        <time>2010-12-09T14:23:55Z</time>
      </trkpt>
      <trkpt lat="43.08295" lon="2.31943">
        <ele>172.467</ele>
        <time>2010-12-09T14:24:00Z</time>
      </trkpt>
      <trkpt lat="43.0833" lon="2.31952">
        <ele>174.045</ele>
        <time>2010-12-09T14:24:09Z</time>
      </trkpt>
      <trkpt lat="43.0837" lon="2.31956">
        <ele>174.579</ele>
        <time>2010-12-09T14:24:18Z</time>
      </trkpt>
      <trkpt lat="43.08409" lon="2.31949">
        <ele>175.092</ele>
        <time>2010-12-09T14:24:27Z</time>
      </trkpt>
      <trkpt lat="43.0844" lon="2.31939">
        <ele>176.355</ele>
        <time>2010-12-09T14:24:35Z</time>
      </trkpt>
      <trkpt lat="43.08468" lon="2.31926">
        <ele>178.216</ele>
        <time>2010-12-09T14:24:43Z</time>
      </trkpt>
      <trkpt lat="43.08505" lon="2.31907">
        <ele>179.569</ele>
        <time>2010-12-09T14:24:53Z</time>
      </trkpt>
      <trkpt lat="43.08532" lon="2.31902">
        <ele>180.243</ele>
        <time>2010-12-09T14:25:00Z</time>
      </trkpt>
      <trkpt lat="43.08536" lon="2.31901">
        <ele>180.333</ele>
        <time>2010-12-09T14:25:01Z</time>
      </trkpt>
      <trkpt lat="43.08553" lon="2.31893">
        <ele>180.282</ele>
        <time>2010-12-09T14:25:05Z</time>
      </trkpt>
      <trkpt lat="43.08597" lon="2.31873">
        <ele>176.999</ele>
        <time>2010-12-09T14:25:13Z</time>
      </trkpt>
      <trkpt lat="43.08606" lon="2.31872">
        <ele>175.502</ele>
        <time>2010-12-09T14:25:16Z</time>
      </trkpt>
      <trkpt lat="43.08607" lon="2.31884">
        <ele>175.29</ele>
        <time>2010-12-09T14:25:21Z</time>
      </trkpt>
      <trkpt lat="43.08604" lon="2.31891">
        <ele>176.118</ele>
        <time>2010-12-09T14:25:25Z</time>
      </trkpt>
      <trkpt lat="43.08604" lon="2.31895">
        <ele>176.543</ele>
        <time>2010-12-09T14:25:29Z</time>
      </trkpt>
      <trkpt lat="43.08605" lon="2.31887">
        <ele>176.652</ele>
        <time>2010-12-09T14:25:32Z</time>
      </trkpt>
      <trkpt lat="43.08598" lon="2.3188">
        <ele>176.232</ele>
        <time>2010-12-09T14:25:36Z</time>
      </trkpt>
      <trkpt lat="43.08593" lon="2.3188">
        <ele>176.275</ele>
        <time>2010-12-09T14:25:38Z</time>
      </trkpt>
      <trkpt lat="43.08576" lon="2.3189">
        <ele>178.825</ele>
        <time>2010-12-09T14:25:46Z</time>
      </trkpt>
      <trkpt lat="43.08562" lon="2.31902">
        <ele>181.81</ele>
        <time>2010-12-09T14:25:54Z</time>
      </trkpt>
      <trkpt lat="43.08549" lon="2.31916">
        <ele>183.753</ele>
        <time>2010-12-09T14:26:03Z</time>
      </trkpt>
      <trkpt lat="43.08529" lon="2.31936">
        <ele>185.977</ele>
        <time>2010-12-09T14:26:14Z</time>
      </trkpt>
      <trkpt lat="43.08514" lon="2.3195">
        <ele>189.145</ele>
        <time>2010-12-09T14:26:23Z</time>
      </trkpt>
      <trkpt lat="43.08496" lon="2.31967">
        <ele>191.766</ele>
        <time>2010-12-09T14:26:33Z</time>
      </trkpt>
      <trkpt lat="43.08481" lon="2.31981">
        <ele>193.726</ele>
        <time>2010-12-09T14:26:41Z</time>
      </trkpt>
      <trkpt lat="43.08459" lon="2.32003">
        <ele>196.302</ele>
        <time>2010-12-09T14:26:53Z</time>
      </trkpt>
      <trkpt lat="43.08441" lon="2.32021">
        <ele>198.317</ele>
        <time>2010-12-09T14:27:03Z</time>
      </trkpt>
      <trkpt lat="43.08417" lon="2.32036">
        <ele>199.926</ele>
        <time>2010-12-09T14:27:14Z</time>
      </trkpt>
      <trkpt lat="43.08389" lon="2.32049">
        <ele>200.588</ele>
        <time>2010-12-09T14:27:24Z</time>
      </trkpt>
      <trkpt lat="43.08355" lon="2.32062">
        <ele>199.897</ele>
        <time>2010-12-09T14:27:34Z</time>
      </trkpt>
      <trkpt lat="43.08319" lon="2.32074">
        <ele>200.298</ele>
        <time>2010-12-09T14:27:45Z</time>
      </trkpt>
      <trkpt lat="43.0829" lon="2.32083">
        <ele>201.067</ele>
        <time>2010-12-09T14:27:54Z</time>
      </trkpt>
      <trkpt lat="43.0826" lon="2.32095">
        <ele>205.298</ele>
        <time>2010-12-09T14:28:04Z</time>
      </trkpt>
      <trkpt lat="43.08243" lon="2.32108">
        <ele>206.758</ele>
        <time>2010-12-09T14:28:11Z</time>
      </trkpt>
      <trkpt lat="43.08227" lon="2.32123">
        <ele>205.712</ele>
        <time>2010-12-09T14:28:17Z</time>
      </trkpt>
      <trkpt lat="43.0822" lon="2.32132">
        <ele>204.381</ele>
        <time>2010-12-09T14:28:20Z</time>
      </trkpt>
      <trkpt lat="43.08224" lon="2.32141">
        <ele>203.915</ele>
        <time>2010-12-09T14:28:24Z</time>
      </trkpt>
      <trkpt lat="43.08241" lon="2.32157">
        <ele>208.189</ele>
        <time>2010-12-09T14:28:33Z</time>
      </trkpt>
      <trkpt lat="43.08252" lon="2.32169">
        <ele>209.494</ele>
        <time>2010-12-09T14:28:39Z</time>
      </trkpt>
      <trkpt lat="43.08266" lon="2.32176">
        <ele>209.41</ele>
        <time>2010-12-09T14:28:45Z</time>
      </trkpt>
      <trkpt lat="43.0827" lon="2.32181">
        <ele>209.358</ele>
        <time>2010-12-09T14:28:47Z</time>
      </trkpt>
      <trkpt lat="43.08288" lon="2.32205">
        <ele>209.123</ele>
        <time>2010-12-09T14:28:56Z</time>
      </trkpt>
      <trkpt lat="43.08301" lon="2.32233">
        <ele>208.8</ele>
        <time>2010-12-09T14:29:04Z</time>
      </trkpt>
      <trkpt lat="43.08295" lon="2.32249">
        <ele>208.046</ele>
        <time>2010-12-09T14:29:08Z</time>
      </trkpt>
      <trkpt lat="43.08288" lon="2.32264">
        <ele>205.584</ele>
        <time>2010-12-09T14:29:11Z</time>
      </trkpt>
      <trkpt lat="43.08288" lon="2.32277">
        <ele>204.006</ele>
        <time>2010-12-09T14:29:13Z</time>
      </trkpt>
      <trkpt lat="43.08287" lon="2.3229">
        <ele>203.167</ele>
        <time>2010-12-09T14:29:15Z</time>
      </trkpt>
      <trkpt lat="43.08286" lon="2.32302">
        <ele>202.306</ele>
        <time>2010-12-09T14:29:17Z</time>
      </trkpt>
      <trkpt lat="43.08274" lon="2.32325">
        <ele>200.737</ele>
        <time>2010-12-09T14:29:22Z</time>
      </trkpt>
      <trkpt lat="43.08266" lon="2.3233">
        <ele>200.234</ele>
        <time>2010-12-09T14:29:24Z</time>
      </trkpt>
      <trkpt lat="43.08225" lon="2.32346">
        <ele>196.675</ele>
        <time>2010-12-09T14:29:34Z</time>
      </trkpt>
      <trkpt lat="43.08217" lon="2.32348">
        <ele>196.348</ele>
        <time>2010-12-09T14:29:36Z</time>
      </trkpt>
      <trkpt lat="43.08179" lon="2.32356">
        <ele>195.048</ele>
        <time>2010-12-09T14:29:45Z</time>
      </trkpt>
      <trkpt lat="43.08152" lon="2.32362">
        <ele>194.592</ele>
        <time>2010-12-09T14:29:52Z</time>
      </trkpt>
      <trkpt lat="43.08149" lon="2.3237">
        <ele>194.664</ele>
        <time>2010-12-09T14:29:56Z</time>
      </trkpt>
      <trkpt lat="43.08149" lon="2.32372">
        <ele>194.713</ele>
        <time>2010-12-09T14:29:57Z</time>
      </trkpt>
      <trkpt lat="43.0815" lon="2.32387">
        <ele>195.32</ele>
        <time>2010-12-09T14:30:04Z</time>
      </trkpt>
      <trkpt lat="43.08152" lon="2.32406">
        <ele>196.578</ele>
        <time>2010-12-09T14:30:09Z</time>
      </trkpt>
      <trkpt lat="43.08162" lon="2.32412">
        <ele>198.018</ele>
        <time>2010-12-09T14:30:13Z</time>
      </trkpt>
      <trkpt lat="43.08176" lon="2.32421">
        <ele>199.345</ele>
        <time>2010-12-09T14:30:19Z</time>
      </trkpt>
      <trkpt lat="43.082" lon="2.32443">
        <ele>198.776</ele>
        <time>2010-12-09T14:30:28Z</time>
      </trkpt>
      <trkpt lat="43.08213" lon="2.32457">
        <ele>198.306</ele>
        <time>2010-12-09T14:30:33Z</time>
      </trkpt>
      <trkpt lat="43.08213" lon="2.32476">
        <ele>197.354</ele>
        <time>2010-12-09T14:30:37Z</time>
      </trkpt>
      <trkpt lat="43.0821" lon="2.32485">
        <ele>197.253</ele>
        <time>2010-12-09T14:30:39Z</time>
      </trkpt>
      <trkpt lat="43.08193" lon="2.32508">
        <ele>196.739</ele>
        <time>2010-12-09T14:30:44Z</time>
      </trkpt>
      <trkpt lat="43.08162" lon="2.32547">
        <ele>194.247</ele>
        <time>2010-12-09T14:30:53Z</time>
      </trkpt>
      <trkpt lat="43.08145" lon="2.32567">
        <ele>193.279</ele>
        <time>2010-12-09T14:30:59Z</time>
      </trkpt>
      <trkpt lat="43.0813" lon="2.32562">
        <ele>193.233</ele>
        <time>2010-12-09T14:31:04Z</time>
      </trkpt>
      <trkpt lat="43.08108" lon="2.32547">
        <ele>191.677</ele>
        <time>2010-12-09T14:31:10Z</time>
      </trkpt>
      <trkpt lat="43.08094" lon="2.32547">
        <ele>191.047</ele>
        <time>2010-12-09T14:31:14Z</time>
      </trkpt>
      <trkpt lat="43.08091" lon="2.32554">
        <ele>190.812</ele>
        <time>2010-12-09T14:31:16Z</time>
      </trkpt>
      <trkpt lat="43.08086" lon="2.32584">
        <ele>190.995</ele>
        <time>2010-12-09T14:31:23Z</time>
      </trkpt>
      <trkpt lat="43.08093" lon="2.32606">
        <ele>191.817</ele>
        <time>2010-12-09T14:31:29Z</time>
      </trkpt>
      <trkpt lat="43.08107" lon="2.32637">
        <ele>192.434</ele>
        <time>2010-12-09T14:31:38Z</time>
      </trkpt>
      <trkpt lat="43.08121" lon="2.32667">
        <ele>193.813</ele>
        <time>2010-12-09T14:31:47Z</time>
      </trkpt>
      <trkpt lat="43.08129" lon="2.32686">
        <ele>194.786</ele>
        <time>2010-12-09T14:31:53Z</time>
      </trkpt>
      <trkpt lat="43.08145" lon="2.32718">
        <ele>196.065</ele>
        <time>2010-12-09T14:32:03Z</time>
      </trkpt>
      <trkpt lat="43.08151" lon="2.32735">
        <ele>197.04</ele>
        <time>2010-12-09T14:32:10Z</time>
      </trkpt>
      <trkpt lat="43.0815" lon="2.32736">
        <ele>197.271</ele>
        <time>2010-12-09T14:32:12Z</time>
      </trkpt>
      <trkpt lat="43.08151" lon="2.32741">
        <ele>198.078</ele>
        <time>2010-12-09T14:32:18Z</time>
      </trkpt>
      <trkpt lat="43.08153" lon="2.32746">
        <ele>198.012</ele>
        <time>2010-12-09T14:32:20Z</time>
      </trkpt>
      <trkpt lat="43.08152" lon="2.32759">
        <ele>198.639</ele>
        <time>2010-12-09T14:32:24Z</time>
      </trkpt>
      <trkpt lat="43.08139" lon="2.32783">
        <ele>199.137</ele>
        <time>2010-12-09T14:32:32Z</time>
      </trkpt>
      <trkpt lat="43.08125" lon="2.32804">
        <ele>200.359</ele>
        <time>2010-12-09T14:32:39Z</time>
      </trkpt>
      <trkpt lat="43.08107" lon="2.32833">
        <ele>201.856</ele>
        <time>2010-12-09T14:32:48Z</time>
      </trkpt>
      <trkpt lat="43.08093" lon="2.32856">
        <ele>203.859</ele>
        <time>2010-12-09T14:32:56Z</time>
      </trkpt>
      <trkpt lat="43.08096" lon="2.32866">
        <ele>205.298</ele>
        <time>2010-12-09T14:33:01Z</time>
      </trkpt>
      <trkpt lat="43.08104" lon="2.32876">
        <ele>205.543</ele>
        <time>2010-12-09T14:33:07Z</time>
      </trkpt>
      <trkpt lat="43.08108" lon="2.32879">
        <ele>205.924</ele>
        <time>2010-12-09T14:33:09Z</time>
      </trkpt>
      <trkpt lat="43.08126" lon="2.32896">
        <ele>207.3</ele>
        <time>2010-12-09T14:33:19Z</time>
      </trkpt>
      <trkpt lat="43.08137" lon="2.32915">
        <ele>208.307</ele>
        <time>2010-12-09T14:33:26Z</time>
      </trkpt>
      <trkpt lat="43.08146" lon="2.32942">
        <ele>209.952</ele>
        <time>2010-12-09T14:33:34Z</time>
      </trkpt>
      <trkpt lat="43.0815" lon="2.32968">
        <ele>211.253</ele>
        <time>2010-12-09T14:33:41Z</time>
      </trkpt>
      <trkpt lat="43.08146" lon="2.32977">
        <ele>211.734</ele>
        <time>2010-12-09T14:33:44Z</time>
      </trkpt>
      <trkpt lat="43.08138" lon="2.3298">
        <ele>213.955</ele>
        <time>2010-12-09T14:33:50Z</time>
      </trkpt>
      <trkpt lat="43.08134" lon="2.32981">
        <ele>214.466</ele>
        <time>2010-12-09T14:33:54Z</time>
      </trkpt>
      <trkpt lat="43.08133" lon="2.32982">
        <ele>215.03</ele>
        <time>2010-12-09T14:33:57Z</time>
      </trkpt>
      <trkpt lat="43.08127" lon="2.32986">
        <ele>215.559</ele>
        <time>2010-12-09T14:34:22Z</time>
      </trkpt>
      <trkpt lat="43.08117" lon="2.32994">
        <ele>216.854</ele>
        <time>2010-12-09T14:34:29Z</time>
      </trkpt>
      <trkpt lat="43.08101" lon="2.33003">
        <ele>218.449</ele>
        <time>2010-12-09T14:34:38Z</time>
      </trkpt>
      <trkpt lat="43.08081" lon="2.33008">
        <ele>220.069</ele>
        <time>2010-12-09T14:34:48Z</time>
      </trkpt>
      <trkpt lat="43.08063" lon="2.33014">
        <ele>222.008</ele>
        <time>2010-12-09T14:34:56Z</time>
      </trkpt>
      <trkpt lat="43.08043" lon="2.33021">
        <ele>225.351</ele>
        <time>2010-12-09T14:35:05Z</time>
      </trkpt>
      <trkpt lat="43.08028" lon="2.3302">
        <ele>227.544</ele>
        <time>2010-12-09T14:35:12Z</time>
      </trkpt>
      <trkpt lat="43.08015" lon="2.33011">
        <ele>228.472</ele>
        <time>2010-12-09T14:35:19Z</time>
      </trkpt>
      <trkpt lat="43.08" lon="2.32997">
        <ele>230.154</ele>
        <time>2010-12-09T14:35:27Z</time>
      </trkpt>
      <trkpt lat="43.07979" lon="2.32991">
        <ele>232.479</ele>
        <time>2010-12-09T14:35:36Z</time>
      </trkpt>
      <trkpt lat="43.07964" lon="2.32993">
        <ele>234.945</ele>
        <time>2010-12-09T14:35:43Z</time>
      </trkpt>
      <trkpt lat="43.07951" lon="2.33001">
        <ele>237.476</ele>
        <time>2010-12-09T14:35:50Z</time>
      </trkpt>
      <trkpt lat="43.07935" lon="2.33013">
        <ele>240.14</ele>
        <time>2010-12-09T14:35:59Z</time>
      </trkpt>
      <trkpt lat="43.0792" lon="2.33021">
        <ele>242.87</ele>
        <time>2010-12-09T14:36:07Z</time>
      </trkpt>
      <trkpt lat="43.07903" lon="2.33029">
        <ele>245.094</ele>
        <time>2010-12-09T14:36:16Z</time>
      </trkpt>
      <trkpt lat="43.07897" lon="2.33041">
        <ele>246.82</ele>
        <time>2010-12-09T14:36:22Z</time>
      </trkpt>
      <trkpt lat="43.07892" lon="2.33058">
        <ele>248.934</ele>
        <time>2010-12-09T14:36:29Z</time>
      </trkpt>
      <trkpt lat="43.0789" lon="2.33074">
        <ele>251.473</ele>
        <time>2010-12-09T14:36:36Z</time>
      </trkpt>
      <trkpt lat="43.07889" lon="2.33094">
        <ele>253.327</ele>
        <time>2010-12-09T14:36:44Z</time>
      </trkpt>
      <trkpt lat="43.07882" lon="2.33108">
        <ele>255.949</ele>
        <time>2010-12-09T14:36:51Z</time>
      </trkpt>
      <trkpt lat="43.07876" lon="2.33118">
        <ele>258.514</ele>
        <time>2010-12-09T14:36:57Z</time>
      </trkpt>
      <trkpt lat="43.07864" lon="2.3313">
        <ele>261.022</ele>
        <time>2010-12-09T14:37:06Z</time>
      </trkpt>
      <trkpt lat="43.07851" lon="2.33137">
        <ele>263.51</ele>
        <time>2010-12-09T14:37:14Z</time>
      </trkpt>
      <trkpt lat="43.07835" lon="2.33142">
        <ele>265.96</ele>
        <time>2010-12-09T14:37:23Z</time>
      </trkpt>
      <trkpt lat="43.07817" lon="2.33146">
        <ele>268.614</ele>
        <time>2010-12-09T14:37:33Z</time>
      </trkpt>
      <trkpt lat="43.078" lon="2.33151">
        <ele>271.22</ele>
        <time>2010-12-09T14:37:42Z</time>
      </trkpt>
      <trkpt lat="43.0779" lon="2.33155">
        <ele>272.363</ele>
        <time>2010-12-09T14:37:48Z</time>
      </trkpt>
      <trkpt lat="43.07789" lon="2.33154">
        <ele>272.924</ele>
        <time>2010-12-09T14:37:51Z</time>
      </trkpt>
      <trkpt lat="43.07789" lon="2.33154">
        <ele>272.838</ele>
        <time>2010-12-09T14:38:15Z</time>
      </trkpt>
      <trkpt lat="43.07786" lon="2.33157">
        <ele>273.545</ele>
        <time>2010-12-09T14:38:20Z</time>
      </trkpt>
      <trkpt lat="43.07777" lon="2.33163">
        <ele>274.114</ele>
        <time>2010-12-09T14:38:27Z</time>
      </trkpt>
      <trkpt lat="43.07768" lon="2.33167">
        <ele>274.529</ele>
        <time>2010-12-09T14:38:34Z</time>
      </trkpt>
      <trkpt lat="43.07765" lon="2.33169">
        <ele>274.572</ele>
        <time>2010-12-09T14:38:38Z</time>
      </trkpt>
      <trkpt lat="43.07763" lon="2.33169">
        <ele>274.383</ele>
        <time>2010-12-09T14:38:42Z</time>
      </trkpt>
      <trkpt lat="43.07762" lon="2.33169">
        <ele>274.25</ele>
        <time>2010-12-09T14:38:44Z</time>
      </trkpt>
      <trkpt lat="43.07759" lon="2.33171">
        <ele>273.906</ele>
        <time>2010-12-09T14:39:36Z</time>
      </trkpt>
      <trkpt lat="43.07764" lon="2.33173">
        <ele>273.882</ele>
        <time>2010-12-09T14:40:58Z</time>
      </trkpt>
      <trkpt lat="43.07765" lon="2.33172">
        <ele>273.806</ele>
        <time>2010-12-09T14:40:59Z</time>
      </trkpt>
      <trkpt lat="43.07761" lon="2.33175">
        <ele>274.032</ele>
        <time>2010-12-09T14:41:56Z</time>
      </trkpt>
      <trkpt lat="43.07755" lon="2.33179">
        <ele>273.103</ele>
        <time>2010-12-09T14:42:01Z</time>
      </trkpt>
      <trkpt lat="43.07755" lon="2.33179">
        <ele>272.821</ele>
        <time>2010-12-09T14:42:02Z</time>
      </trkpt>
      <trkpt lat="43.07749" lon="2.33184">
        <ele>272.51</ele>
        <time>2010-12-09T14:42:11Z</time>
      </trkpt>
      <trkpt lat="43.07732" lon="2.33196">
        <ele>271.482</ele>
        <time>2010-12-09T14:42:16Z</time>
      </trkpt>
      <trkpt lat="43.07729" lon="2.332">
        <ele>271.338</ele>
        <time>2010-12-09T14:42:17Z</time>
      </trkpt>
      <trkpt lat="43.07698" lon="2.33221">
        <ele>270.495</ele>
        <time>2010-12-09T14:42:25Z</time>
      </trkpt>
      <trkpt lat="43.07678" lon="2.33236">
        <ele>270.994</ele>
        <time>2010-12-09T14:42:31Z</time>
      </trkpt>
      <trkpt lat="43.07657" lon="2.33251">
        <ele>271.847</ele>
        <time>2010-12-09T14:42:39Z</time>
      </trkpt>
      <trkpt lat="43.07648" lon="2.33252">
        <ele>272.212</ele>
        <time>2010-12-09T14:42:44Z</time>
      </trkpt>
      <trkpt lat="43.07633" lon="2.33259">
        <ele>273.422</ele>
        <time>2010-12-09T14:42:51Z</time>
      </trkpt>
      <trkpt lat="43.07613" lon="2.3327">
        <ele>275.842</ele>
        <time>2010-12-09T14:43:00Z</time>
      </trkpt>
      <trkpt lat="43.07593" lon="2.3328">
        <ele>278.093</ele>
        <time>2010-12-09T14:43:09Z</time>
      </trkpt>
      <trkpt lat="43.0758" lon="2.33288">
        <ele>280.108</ele>
        <time>2010-12-09T14:43:15Z</time>
      </trkpt>
      <trkpt lat="43.07566" lon="2.33299">
        <ele>282.679</ele>
        <time>2010-12-09T14:43:22Z</time>
      </trkpt>
      <trkpt lat="43.07549" lon="2.3331">
        <ele>285.415</ele>
        <time>2010-12-09T14:43:30Z</time>
      </trkpt>
      <trkpt lat="43.07531" lon="2.33319">
        <ele>289.039</ele>
        <time>2010-12-09T14:43:38Z</time>
      </trkpt>
      <trkpt lat="43.07515" lon="2.33324">
        <ele>291.712</ele>
        <time>2010-12-09T14:43:46Z</time>
      </trkpt>
      <trkpt lat="43.07504" lon="2.33333">
        <ele>291.634</ele>
        <time>2010-12-09T14:43:51Z</time>
      </trkpt>
      <trkpt lat="43.07498" lon="2.33338">
        <ele>291.14</ele>
        <time>2010-12-09T14:43:53Z</time>
      </trkpt>
      <trkpt lat="43.07479" lon="2.33361">
        <ele>288.946</ele>
        <time>2010-12-09T14:43:58Z</time>
      </trkpt>
      <trkpt lat="43.0746" lon="2.33373">
        <ele>287.9</ele>
        <time>2010-12-09T14:44:02Z</time>
      </trkpt>
      <trkpt lat="43.07456" lon="2.33373">
        <ele>287.736</ele>
        <time>2010-12-09T14:44:03Z</time>
      </trkpt>
      <trkpt lat="43.07443" lon="2.33374">
        <ele>286.598</ele>
        <time>2010-12-09T14:44:08Z</time>
      </trkpt>
      <trkpt lat="43.07438" lon="2.33378">
        <ele>286.126</ele>
        <time>2010-12-09T14:44:14Z</time>
      </trkpt>
      <trkpt lat="43.07437" lon="2.33378">
        <ele>286.17</ele>
        <time>2010-12-09T14:44:15Z</time>
      </trkpt>
      <trkpt lat="43.07446" lon="2.3338">
        <ele>285.975</ele>
        <time>2010-12-09T14:44:24Z</time>
      </trkpt>
      <trkpt lat="43.07469" lon="2.33382">
        <ele>284.948</ele>
        <time>2010-12-09T14:44:30Z</time>
      </trkpt>
      <trkpt lat="43.07491" lon="2.33382">
        <ele>283.516</ele>
        <time>2010-12-09T14:44:34Z</time>
      </trkpt>
      <trkpt lat="43.07519" lon="2.33374">
        <ele>279.988</ele>
        <time>2010-12-09T14:44:40Z</time>
      </trkpt>
      <trkpt lat="43.07522" lon="2.33372">
        <ele>279.987</ele>
        <time>2010-12-09T14:44:41Z</time>
      </trkpt>
      <trkpt lat="43.0754" lon="2.33367">
        <ele>277.828</ele>
        <time>2010-12-09T14:44:47Z</time>
      </trkpt>
      <trkpt lat="43.07558" lon="2.33359">
        <ele>276.677</ele>
        <time>2010-12-09T14:44:51Z</time>
      </trkpt>
      <trkpt lat="43.07583" lon="2.3335">
        <ele>274.413</ele>
        <time>2010-12-09T14:44:56Z</time>
      </trkpt>
      <trkpt lat="43.07588" lon="2.3335">
        <ele>273.91</ele>
        <time>2010-12-09T14:44:57Z</time>
      </trkpt>
      <trkpt lat="43.07619" lon="2.3335">
        <ele>270.603</ele>
        <time>2010-12-09T14:45:03Z</time>
      </trkpt>
      <trkpt lat="43.07633" lon="2.33352">
        <ele>269.244</ele>
        <time>2010-12-09T14:45:06Z</time>
      </trkpt>
      <trkpt lat="43.07641" lon="2.33352">
        <ele>267.676</ele>
        <time>2010-12-09T14:45:09Z</time>
      </trkpt>
      <trkpt lat="43.07651" lon="2.33345">
        <ele>266.529</ele>
        <time>2010-12-09T14:45:13Z</time>
      </trkpt>
      <trkpt lat="43.07668" lon="2.3333">
        <ele>265.199</ele>
        <time>2010-12-09T14:45:17Z</time>
      </trkpt>
      <trkpt lat="43.07673" lon="2.33325">
        <ele>264.771</ele>
        <time>2010-12-09T14:45:18Z</time>
      </trkpt>
      <trkpt lat="43.07688" lon="2.33307">
        <ele>262.961</ele>
        <time>2010-12-09T14:45:21Z</time>
      </trkpt>
      <trkpt lat="43.07714" lon="2.33295">
        <ele>260.255</ele>
        <time>2010-12-09T14:45:25Z</time>
      </trkpt>
      <trkpt lat="43.07737" lon="2.33295">
        <ele>257.318</ele>
        <time>2010-12-09T14:45:28Z</time>
      </trkpt>
      <trkpt lat="43.07762" lon="2.33291">
        <ele>255.333</ele>
        <time>2010-12-09T14:45:31Z</time>
      </trkpt>
      <trkpt lat="43.07788" lon="2.33295">
        <ele>252.166</ele>
        <time>2010-12-09T14:45:34Z</time>
      </trkpt>
      <trkpt lat="43.07807" lon="2.33308">
        <ele>248.882</ele>
        <time>2010-12-09T14:45:37Z</time>
      </trkpt>
      <trkpt lat="43.07823" lon="2.33305">
        <ele>246.8</ele>
        <time>2010-12-09T14:45:39Z</time>
      </trkpt>
      <trkpt lat="43.07864" lon="2.333">
        <ele>242.728</ele>
        <time>2010-12-09T14:45:44Z</time>
      </trkpt>
      <trkpt lat="43.07905" lon="2.3328">
        <ele>239.083</ele>
        <time>2010-12-09T14:45:49Z</time>
      </trkpt>
      <trkpt lat="43.07926" lon="2.33261">
        <ele>236.631</ele>
        <time>2010-12-09T14:45:52Z</time>
      </trkpt>
      <trkpt lat="43.07964" lon="2.33226">
        <ele>232.686</ele>
        <time>2010-12-09T14:45:57Z</time>
      </trkpt>
      <trkpt lat="43.07986" lon="2.33202">
        <ele>230.468</ele>
        <time>2010-12-09T14:46:00Z</time>
      </trkpt>
      <trkpt lat="43.08005" lon="2.33164">
        <ele>227.718</ele>
        <time>2010-12-09T14:46:04Z</time>
      </trkpt>
      <trkpt lat="43.08025" lon="2.33139">
        <ele>224.984</ele>
        <time>2010-12-09T14:46:08Z</time>
      </trkpt>
      <trkpt lat="43.08038" lon="2.33131">
        <ele>223.796</ele>
        <time>2010-12-09T14:46:10Z</time>
      </trkpt>
      <trkpt lat="43.08076" lon="2.33119">
        <ele>221.534</ele>
        <time>2010-12-09T14:46:16Z</time>
      </trkpt>
      <trkpt lat="43.08088" lon="2.33117">
        <ele>220.725</ele>
        <time>2010-12-09T14:46:18Z</time>
      </trkpt>
      <trkpt lat="43.08125" lon="2.33099">
        <ele>217.691</ele>
        <time>2010-12-09T14:46:25Z</time>
      </trkpt>
      <trkpt lat="43.0813" lon="2.33097">
        <ele>216.823</ele>
        <time>2010-12-09T14:46:27Z</time>
      </trkpt>
      <trkpt lat="43.08131" lon="2.33101">
        <ele>215.615</ele>
        <time>2010-12-09T14:46:32Z</time>
      </trkpt>
      <trkpt lat="43.08115" lon="2.33113">
        <ele>215.505</ele>
        <time>2010-12-09T14:46:43Z</time>
      </trkpt>
      <trkpt lat="43.08085" lon="2.33129">
        <ele>215.865</ele>
        <time>2010-12-09T14:46:52Z</time>
      </trkpt>
      <trkpt lat="43.08066" lon="2.33139">
        <ele>215.867</ele>
        <time>2010-12-09T14:46:57Z</time>
      </trkpt>
      <trkpt lat="43.08058" lon="2.33145">
        <ele>215.746</ele>
        <time>2010-12-09T14:46:59Z</time>
      </trkpt>
      <trkpt lat="43.0805" lon="2.33153">
        <ele>215.477</ele>
        <time>2010-12-09T14:47:01Z</time>
      </trkpt>
      <trkpt lat="43.08036" lon="2.33184">
        <ele>214.592</ele>
        <time>2010-12-09T14:47:07Z</time>
      </trkpt>
      <trkpt lat="43.08033" lon="2.332">
        <ele>214.645</ele>
        <time>2010-12-09T14:47:12Z</time>
      </trkpt>
      <trkpt lat="43.08025" lon="2.33212">
        <ele>215.28</ele>
        <time>2010-12-09T14:47:18Z</time>
      </trkpt>
      <trkpt lat="43.0801" lon="2.33218">
        <ele>215.547</ele>
        <time>2010-12-09T14:47:25Z</time>
      </trkpt>
      <trkpt lat="43.07992" lon="2.33226">
        <ele>216.388</ele>
        <time>2010-12-09T14:47:32Z</time>
      </trkpt>
      <trkpt lat="43.07979" lon="2.33239">
        <ele>217.007</ele>
        <time>2010-12-09T14:47:38Z</time>
      </trkpt>
      <trkpt lat="43.07964" lon="2.33262">
        <ele>217.611</ele>
        <time>2010-12-09T14:47:45Z</time>
      </trkpt>
      <trkpt lat="43.0795" lon="2.33288">
        <ele>218.49</ele>
        <time>2010-12-09T14:47:52Z</time>
      </trkpt>
      <trkpt lat="43.07928" lon="2.33316">
        <ele>218.88</ele>
        <time>2010-12-09T14:48:00Z</time>
      </trkpt>
      <trkpt lat="43.07919" lon="2.33328">
        <ele>218.76</ele>
        <time>2010-12-09T14:48:03Z</time>
      </trkpt>
      <trkpt lat="43.0791" lon="2.33339">
        <ele>218.648</ele>
        <time>2010-12-09T14:48:06Z</time>
      </trkpt>
      <trkpt lat="43.07893" lon="2.33347">
        <ele>218.337</ele>
        <time>2010-12-09T14:48:10Z</time>
      </trkpt>
      <trkpt lat="43.0788" lon="2.33348">
        <ele>217.76</ele>
        <time>2010-12-09T14:48:13Z</time>
      </trkpt>
      <trkpt lat="43.07846" lon="2.33355">
        <ele>216.23</ele>
        <time>2010-12-09T14:48:19Z</time>
      </trkpt>
      <trkpt lat="43.07806" lon="2.33367">
        <ele>214.983</ele>
        <time>2010-12-09T14:48:26Z</time>
      </trkpt>
      <trkpt lat="43.07758" lon="2.33383">
        <ele>214.944</ele>
        <time>2010-12-09T14:48:35Z</time>
      </trkpt>
      <trkpt lat="43.07726" lon="2.33399">
        <ele>216.491</ele>
        <time>2010-12-09T14:48:43Z</time>
      </trkpt>
      <trkpt lat="43.07696" lon="2.33416">
        <ele>218.114</ele>
        <time>2010-12-09T14:48:51Z</time>
      </trkpt>
      <trkpt lat="43.07656" lon="2.33442">
        <ele>219.043</ele>
        <time>2010-12-09T14:49:01Z</time>
      </trkpt>
      <trkpt lat="43.07619" lon="2.33464">
        <ele>220.998</ele>
        <time>2010-12-09T14:49:11Z</time>
      </trkpt>
      <trkpt lat="43.07585" lon="2.33482">
        <ele>222.616</ele>
        <time>2010-12-09T14:49:20Z</time>
      </trkpt>
      <trkpt lat="43.0756" lon="2.33487">
        <ele>222.59</ele>
        <time>2010-12-09T14:49:25Z</time>
      </trkpt>
      <trkpt lat="43.07554" lon="2.33489">
        <ele>222.326</ele>
        <time>2010-12-09T14:49:26Z</time>
      </trkpt>
      <trkpt lat="43.07516" lon="2.33517">
        <ele>221.676</ele>
        <time>2010-12-09T14:49:34Z</time>
      </trkpt>
      <trkpt lat="43.07504" lon="2.33536">
        <ele>221.645</ele>
        <time>2010-12-09T14:49:38Z</time>
      </trkpt>
      <trkpt lat="43.07499" lon="2.33548">
        <ele>221.81</ele>
        <time>2010-12-09T14:49:40Z</time>
      </trkpt>
      <trkpt lat="43.0748" lon="2.33598">
        <ele>221.07</ele>
        <time>2010-12-09T14:49:48Z</time>
      </trkpt>
      <trkpt lat="43.07478" lon="2.33604">
        <ele>220.963</ele>
        <time>2010-12-09T14:49:49Z</time>
      </trkpt>
      <trkpt lat="43.07475" lon="2.33615">
        <ele>220.883</ele>
        <time>2010-12-09T14:49:51Z</time>
      </trkpt>
      <trkpt lat="43.07459" lon="2.33636">
        <ele>221.257</ele>
        <time>2010-12-09T14:49:56Z</time>
      </trkpt>
      <trkpt lat="43.07441" lon="2.33659">
        <ele>221.824</ele>
        <time>2010-12-09T14:50:02Z</time>
      </trkpt>
      <trkpt lat="43.07425" lon="2.33682">
        <ele>223.142</ele>
        <time>2010-12-09T14:50:08Z</time>
      </trkpt>
      <trkpt lat="43.074" lon="2.33712">
        <ele>224.752</ele>
        <time>2010-12-09T14:50:17Z</time>
      </trkpt>
      <trkpt lat="43.07386" lon="2.33734">
        <ele>226.997</ele>
        <time>2010-12-09T14:50:23Z</time>
      </trkpt>
      <trkpt lat="43.07378" lon="2.33761">
        <ele>228.831</ele>
        <time>2010-12-09T14:50:29Z</time>
      </trkpt>
      <trkpt lat="43.07379" lon="2.33788">
        <ele>230.535</ele>
        <time>2010-12-09T14:50:35Z</time>
      </trkpt>
      <trkpt lat="43.07386" lon="2.33823">
        <ele>232.616</ele>
        <time>2010-12-09T14:50:43Z</time>
      </trkpt>
      <trkpt lat="43.07398" lon="2.33854">
        <ele>234.235</ele>
        <time>2010-12-09T14:50:51Z</time>
      </trkpt>
      <trkpt lat="43.07411" lon="2.33891">
        <ele>235.786</ele>
        <time>2010-12-09T14:51:00Z</time>
      </trkpt>
      <trkpt lat="43.07411" lon="2.33915">
        <ele>236.981</ele>
        <time>2010-12-09T14:51:06Z</time>
      </trkpt>
      <trkpt lat="43.07407" lon="2.33955">
        <ele>239.288</ele>
        <time>2010-12-09T14:51:15Z</time>
      </trkpt>
      <trkpt lat="43.07406" lon="2.33999">
        <ele>241.689</ele>
        <time>2010-12-09T14:51:25Z</time>
      </trkpt>
      <trkpt lat="43.07407" lon="2.34033">
        <ele>242.6</ele>
        <time>2010-12-09T14:51:33Z</time>
      </trkpt>
      <trkpt lat="43.0741" lon="2.34068">
        <ele>244.571</ele>
        <time>2010-12-09T14:51:41Z</time>
      </trkpt>
      <trkpt lat="43.07416" lon="2.34104">
        <ele>246.6</ele>
        <time>2010-12-09T14:51:49Z</time>
      </trkpt>
      <trkpt lat="43.0742" lon="2.34141">
        <ele>248.563</ele>
        <time>2010-12-09T14:51:57Z</time>
      </trkpt>
      <trkpt lat="43.0742" lon="2.34172">
        <ele>250.123</ele>
        <time>2010-12-09T14:52:04Z</time>
      </trkpt>
      <trkpt lat="43.07418" lon="2.34208">
        <ele>251.383</ele>
        <time>2010-12-09T14:52:12Z</time>
      </trkpt>
      <trkpt lat="43.07411" lon="2.3424">
        <ele>252.864</ele>
        <time>2010-12-09T14:52:19Z</time>
      </trkpt>
      <trkpt lat="43.07405" lon="2.34278">
        <ele>255.067</ele>
        <time>2010-12-09T14:52:27Z</time>
      </trkpt>
      <trkpt lat="43.07394" lon="2.34311">
        <ele>256.505</ele>
        <time>2010-12-09T14:52:34Z</time>
      </trkpt>
      <trkpt lat="43.07373" lon="2.34354">
        <ele>257.524</ele>
        <time>2010-12-09T14:52:44Z</time>
      </trkpt>
      <trkpt lat="43.07364" lon="2.34385">
        <ele>259.305</ele>
        <time>2010-12-09T14:52:51Z</time>
      </trkpt>
      <trkpt lat="43.07358" lon="2.34419">
        <ele>261.07</ele>
        <time>2010-12-09T14:52:58Z</time>
      </trkpt>
      <trkpt lat="43.07344" lon="2.34439">
        <ele>262.938</ele>
        <time>2010-12-09T14:53:04Z</time>
      </trkpt>
      <trkpt lat="43.0732" lon="2.3447">
        <ele>265.164</ele>
        <time>2010-12-09T14:53:14Z</time>
      </trkpt>
      <trkpt lat="43.07305" lon="2.34494">
        <ele>267.144</ele>
        <time>2010-12-09T14:53:21Z</time>
      </trkpt>
      <trkpt lat="43.0729" lon="2.3452">
        <ele>269.373</ele>
        <time>2010-12-09T14:53:29Z</time>
      </trkpt>
      <trkpt lat="43.07288" lon="2.3453">
        <ele>269.804</ele>
        <time>2010-12-09T14:53:34Z</time>
      </trkpt>
      <trkpt lat="43.07287" lon="2.34534">
        <ele>270.11</ele>
        <time>2010-12-09T14:53:37Z</time>
      </trkpt>
      <trkpt lat="43.07283" lon="2.34538">
        <ele>270.519</ele>
        <time>2010-12-09T14:53:44Z</time>
      </trkpt>
      <trkpt lat="43.07283" lon="2.34538">
        <ele>270.682</ele>
        <time>2010-12-09T14:53:45Z</time>
      </trkpt>
      <trkpt lat="43.07276" lon="2.34547">
        <ele>271.728</ele>
        <time>2010-12-09T14:54:05Z</time>
      </trkpt>
      <trkpt lat="43.07263" lon="2.34559">
        <ele>273.939</ele>
        <time>2010-12-09T14:54:13Z</time>
      </trkpt>
      <trkpt lat="43.07256" lon="2.34562">
        <ele>274.814</ele>
        <time>2010-12-09T14:54:18Z</time>
      </trkpt>
      <trkpt lat="43.07254" lon="2.34568">
        <ele>275.651</ele>
        <time>2010-12-09T14:54:23Z</time>
      </trkpt>
      <trkpt lat="43.07249" lon="2.34573">
        <ele>276.448</ele>
        <time>2010-12-09T14:54:28Z</time>
      </trkpt>
      <trkpt lat="43.0724" lon="2.34589">
        <ele>277.592</ele>
        <time>2010-12-09T14:54:38Z</time>
      </trkpt>
      <trkpt lat="43.07236" lon="2.34596">
        <ele>277.502</ele>
        <time>2010-12-09T14:54:44Z</time>
      </trkpt>
      <trkpt lat="43.07233" lon="2.34605">
        <ele>277.708</ele>
        <time>2010-12-09T14:54:51Z</time>
      </trkpt>
      <trkpt lat="43.07234" lon="2.34608">
        <ele>277.471</ele>
        <time>2010-12-09T14:54:55Z</time>
      </trkpt>
      <trkpt lat="43.07235" lon="2.34615">
        <ele>277.501</ele>
        <time>2010-12-09T14:54:59Z</time>
      </trkpt>
      <trkpt lat="43.07235" lon="2.34631">
        <ele>278.431</ele>
        <time>2010-12-09T14:55:06Z</time>
      </trkpt>
      <trkpt lat="43.07235" lon="2.34643">
        <ele>279.352</ele>
        <time>2010-12-09T14:55:13Z</time>
      </trkpt>
      <trkpt lat="43.07235" lon="2.34648">
        <ele>279.724</ele>
        <time>2010-12-09T14:55:18Z</time>
      </trkpt>
      <trkpt lat="43.07235" lon="2.34654">
        <ele>280.267</ele>
        <time>2010-12-09T14:55:32Z</time>
      </trkpt>
      <trkpt lat="43.07235" lon="2.34651">
        <ele>280.1</ele>
        <time>2010-12-09T14:55:35Z</time>
      </trkpt>
      <trkpt lat="43.07235" lon="2.34643">
        <ele>279.593</ele>
        <time>2010-12-09T14:55:40Z</time>
      </trkpt>
      <trkpt lat="43.07234" lon="2.34625">
        <ele>278.498</ele>
        <time>2010-12-09T14:55:48Z</time>
      </trkpt>
      <trkpt lat="43.07234" lon="2.34606">
        <ele>277.774</ele>
        <time>2010-12-09T14:55:54Z</time>
      </trkpt>
      <trkpt lat="43.07243" lon="2.34585">
        <ele>277.874</ele>
        <time>2010-12-09T14:56:00Z</time>
      </trkpt>
      <trkpt lat="43.0725" lon="2.34575">
        <ele>277.878</ele>
        <time>2010-12-09T14:56:03Z</time>
      </trkpt>
      <trkpt lat="43.07269" lon="2.34553">
        <ele>275.758</ele>
        <time>2010-12-09T14:56:09Z</time>
      </trkpt>
      <trkpt lat="43.07287" lon="2.34534">
        <ele>272.021</ele>
        <time>2010-12-09T14:56:14Z</time>
      </trkpt>
      <trkpt lat="43.0729" lon="2.34528">
        <ele>271.616</ele>
        <time>2010-12-09T14:56:15Z</time>
      </trkpt>
      <trkpt lat="43.07293" lon="2.34516">
        <ele>270.788</ele>
        <time>2010-12-09T14:56:17Z</time>
      </trkpt>
      <trkpt lat="43.07308" lon="2.34488">
        <ele>267.741</ele>
        <time>2010-12-09T14:56:23Z</time>
      </trkpt>
      <trkpt lat="43.07314" lon="2.34475">
        <ele>266.338</ele>
        <time>2010-12-09T14:56:28Z</time>
      </trkpt>
      <trkpt lat="43.07314" lon="2.34478">
        <ele>265.618</ele>
        <time>2010-12-09T14:56:33Z</time>
      </trkpt>
      <trkpt lat="43.07306" lon="2.34491">
        <ele>266.359</ele>
        <time>2010-12-09T14:56:40Z</time>
      </trkpt>
      <trkpt lat="43.07302" lon="2.34496">
        <ele>266.843</ele>
        <time>2010-12-09T14:56:42Z</time>
      </trkpt>
      <trkpt lat="43.0729" lon="2.34487">
        <ele>266.873</ele>
        <time>2010-12-09T14:56:47Z</time>
      </trkpt>
      <trkpt lat="43.07288" lon="2.34486">
        <ele>266.541</ele>
        <time>2010-12-09T14:56:48Z</time>
      </trkpt>
      <trkpt lat="43.07286" lon="2.34473">
        <ele>264.866</ele>
        <time>2010-12-09T14:56:52Z</time>
      </trkpt>
      <trkpt lat="43.07287" lon="2.34468">
        <ele>264.479</ele>
        <time>2010-12-09T14:56:53Z</time>
      </trkpt>
      <trkpt lat="43.073" lon="2.34446">
        <ele>262.608</ele>
        <time>2010-12-09T14:56:58Z</time>
      </trkpt>
      <trkpt lat="43.0731" lon="2.34438">
        <ele>260.807</ele>
        <time>2010-12-09T14:57:01Z</time>
      </trkpt>
      <trkpt lat="43.07326" lon="2.34411">
        <ele>256.42</ele>
        <time>2010-12-09T14:57:06Z</time>
      </trkpt>
      <trkpt lat="43.07343" lon="2.34371">
        <ele>253.648</ele>
        <time>2010-12-09T14:57:12Z</time>
      </trkpt>
      <trkpt lat="43.07345" lon="2.34364">
        <ele>252.744</ele>
        <time>2010-12-09T14:57:13Z</time>
      </trkpt>
      <trkpt lat="43.07344" lon="2.34343">
        <ele>249.228</ele>
        <time>2010-12-09T14:57:17Z</time>
      </trkpt>
      <trkpt lat="43.07342" lon="2.3434">
        <ele>248.817</ele>
        <time>2010-12-09T14:57:18Z</time>
      </trkpt>
      <trkpt lat="43.07333" lon="2.34322">
        <ele>247.39</ele>
        <time>2010-12-09T14:57:23Z</time>
      </trkpt>
      <trkpt lat="43.07327" lon="2.34298">
        <ele>245.08</ele>
        <time>2010-12-09T14:57:28Z</time>
      </trkpt>
      <trkpt lat="43.0733" lon="2.34291">
        <ele>245.044</ele>
        <time>2010-12-09T14:57:31Z</time>
      </trkpt>
      <trkpt lat="43.07334" lon="2.34273">
        <ele>245.818</ele>
        <time>2010-12-09T14:57:37Z</time>
      </trkpt>
      <trkpt lat="43.07332" lon="2.34268">
        <ele>246.501</ele>
        <time>2010-12-09T14:57:40Z</time>
      </trkpt>
      <trkpt lat="43.0733" lon="2.34267">
        <ele>247.162</ele>
        <time>2010-12-09T14:57:44Z</time>
      </trkpt>
      <trkpt lat="43.07327" lon="2.34268">
        <ele>247.609</ele>
        <time>2010-12-09T14:58:16Z</time>
      </trkpt>
      <trkpt lat="43.07324" lon="2.34264">
        <ele>248.717</ele>
        <time>2010-12-09T14:58:22Z</time>
      </trkpt>
      <trkpt lat="43.07318" lon="2.3425">
        <ele>250.876</ele>
        <time>2010-12-09T14:58:35Z</time>
      </trkpt>
      <trkpt lat="43.07315" lon="2.34237">
        <ele>253.455</ele>
        <time>2010-12-09T14:58:44Z</time>
      </trkpt>
      <trkpt lat="43.07314" lon="2.34227">
        <ele>256.371</ele>
        <time>2010-12-09T14:58:52Z</time>
      </trkpt>
      <trkpt lat="43.07316" lon="2.34217">
        <ele>259.032</ele>
        <time>2010-12-09T14:59:00Z</time>
      </trkpt>
      <trkpt lat="43.07317" lon="2.34211">
        <ele>259.845</ele>
        <time>2010-12-09T14:59:04Z</time>
      </trkpt>
      <trkpt lat="43.07321" lon="2.34202">
        <ele>260.836</ele>
        <time>2010-12-09T14:59:12Z</time>
      </trkpt>
      <trkpt lat="43.07322" lon="2.3419">
        <ele>262.758</ele>
        <time>2010-12-09T14:59:21Z</time>
      </trkpt>
      <trkpt lat="43.07322" lon="2.34182">
        <ele>264.714</ele>
        <time>2010-12-09T14:59:28Z</time>
      </trkpt>
      <trkpt lat="43.0732" lon="2.34171">
        <ele>267.211</ele>
        <time>2010-12-09T14:59:38Z</time>
      </trkpt>
      <trkpt lat="43.07314" lon="2.34158">
        <ele>270.006</ele>
        <time>2010-12-09T14:59:49Z</time>
      </trkpt>
      <trkpt lat="43.07311" lon="2.34151">
        <ele>271.44</ele>
        <time>2010-12-09T14:59:57Z</time>
      </trkpt>
      <trkpt lat="43.07311" lon="2.34149">
        <ele>271.176</ele>
        <time>2010-12-09T15:00:00Z</time>
      </trkpt>
      <trkpt lat="43.07313" lon="2.3413">
        <ele>270.028</ele>
        <time>2010-12-09T15:00:29Z</time>
      </trkpt>
      <trkpt lat="43.07314" lon="2.34118">
        <ele>267.258</ele>
        <time>2010-12-09T15:00:33Z</time>
      </trkpt>
      <trkpt lat="43.07314" lon="2.34118">
        <ele>265.928</ele>
        <time>2010-12-09T15:00:35Z</time>
      </trkpt>
      <trkpt lat="43.07314" lon="2.34109">
        <ele>265.598</ele>
        <time>2010-12-09T15:01:13Z</time>
      </trkpt>
      <trkpt lat="43.0732" lon="2.34095">
        <ele>262.489</ele>
        <time>2010-12-09T15:01:18Z</time>
      </trkpt>
      <trkpt lat="43.07327" lon="2.34079">
        <ele>259.173</ele>
        <time>2010-12-09T15:01:24Z</time>
      </trkpt>
      <trkpt lat="43.07327" lon="2.34078">
        <ele>257.77</ele>
        <time>2010-12-09T15:01:27Z</time>
      </trkpt>
      <trkpt lat="43.07328" lon="2.34079">
        <ele>257.988</ele>
        <time>2010-12-09T15:01:34Z</time>
      </trkpt>
      <trkpt lat="43.0733" lon="2.34075">
        <ele>257.225</ele>
        <time>2010-12-09T15:01:40Z</time>
      </trkpt>
      <trkpt lat="43.07332" lon="2.34069">
        <ele>256.328</ele>
        <time>2010-12-09T15:01:44Z</time>
      </trkpt>
      <trkpt lat="43.07333" lon="2.34052">
        <ele>254.202</ele>
        <time>2010-12-09T15:01:50Z</time>
      </trkpt>
      <trkpt lat="43.07333" lon="2.34046">
        <ele>252.615</ele>
        <time>2010-12-09T15:01:54Z</time>
      </trkpt>
      <trkpt lat="43.07334" lon="2.34043">
        <ele>251.923</ele>
        <time>2010-12-09T15:02:01Z</time>
      </trkpt>
      <trkpt lat="43.07334" lon="2.3404">
        <ele>251.451</ele>
        <time>2010-12-09T15:02:09Z</time>
      </trkpt>
      <trkpt lat="43.07337" lon="2.34034">
        <ele>250.807</ele>
        <time>2010-12-09T15:02:29Z</time>
      </trkpt>
      <trkpt lat="43.07338" lon="2.34027">
        <ele>249.611</ele>
        <time>2010-12-09T15:02:35Z</time>
      </trkpt>
      <trkpt lat="43.07341" lon="2.34019">
        <ele>247.977</ele>
        <time>2010-12-09T15:02:41Z</time>
      </trkpt>
      <trkpt lat="43.07342" lon="2.34015">
        <ele>247.4</ele>
        <time>2010-12-09T15:02:43Z</time>
      </trkpt>
      <trkpt lat="43.07339" lon="2.34005">
        <ele>246.574</ele>
        <time>2010-12-09T15:02:51Z</time>
      </trkpt>
      <trkpt lat="43.07339" lon="2.34004">
        <ele>246.676</ele>
        <time>2010-12-09T15:02:54Z</time>
      </trkpt>
      <trkpt lat="43.07338" lon="2.33997">
        <ele>246.427</ele>
        <time>2010-12-09T15:03:04Z</time>
      </trkpt>
      <trkpt lat="43.07338" lon="2.33996">
        <ele>246.491</ele>
        <time>2010-12-09T15:03:06Z</time>
      </trkpt>
      <trkpt lat="43.07338" lon="2.33988">
        <ele>246.546</ele>
        <time>2010-12-09T15:03:24Z</time>
      </trkpt>
      <trkpt lat="43.07339" lon="2.33979">
        <ele>245.946</ele>
        <time>2010-12-09T15:03:30Z</time>
      </trkpt>
      <trkpt lat="43.07338" lon="2.33973">
        <ele>246.157</ele>
        <time>2010-12-09T15:03:34Z</time>
      </trkpt>
      <trkpt lat="43.0734" lon="2.33962">
        <ele>245.67</ele>
        <time>2010-12-09T15:03:42Z</time>
      </trkpt>
      <trkpt lat="43.0734" lon="2.33959">
        <ele>245.608</ele>
        <time>2010-12-09T15:03:46Z</time>
      </trkpt>
      <trkpt lat="43.07341" lon="2.33954">
        <ele>245.241</ele>
        <time>2010-12-09T15:03:52Z</time>
      </trkpt>
      <trkpt lat="43.07343" lon="2.33948">
        <ele>245.51</ele>
        <time>2010-12-09T15:03:58Z</time>
      </trkpt>
      <trkpt lat="43.07343" lon="2.33945">
        <ele>245.994</ele>
        <time>2010-12-09T15:04:04Z</time>
      </trkpt>
      <trkpt lat="43.07343" lon="2.33941">
        <ele>245.999</ele>
        <time>2010-12-09T15:04:08Z</time>
      </trkpt>
      <trkpt lat="43.07343" lon="2.33936">
        <ele>245.437</ele>
        <time>2010-12-09T15:04:13Z</time>
      </trkpt>
      <trkpt lat="43.07345" lon="2.33928">
        <ele>245.453</ele>
        <time>2010-12-09T15:04:19Z</time>
      </trkpt>
      <trkpt lat="43.07344" lon="2.33921">
        <ele>244.754</ele>
        <time>2010-12-09T15:04:26Z</time>
      </trkpt>
      <trkpt lat="43.07345" lon="2.3392">
        <ele>244.557</ele>
        <time>2010-12-09T15:04:28Z</time>
      </trkpt>
      <trkpt lat="43.07344" lon="2.33922">
        <ele>245.035</ele>
        <time>2010-12-09T15:04:39Z</time>
      </trkpt>
      <trkpt lat="43.07345" lon="2.33928">
        <ele>244.774</ele>
        <time>2010-12-09T15:04:45Z</time>
      </trkpt>
      <trkpt lat="43.07345" lon="2.33928">
        <ele>244.783</ele>
        <time>2010-12-09T15:04:46Z</time>
      </trkpt>
      <trkpt lat="43.07346" lon="2.3393">
        <ele>245.152</ele>
        <time>2010-12-09T15:04:50Z</time>
      </trkpt>
    </trkseg>
  </trk>
</gpx>